<?xml version="1.0" encoding="UTF-8" standalone="no" ?>
<gpx xmlns="http://www.topografix.com/GPX/1/1" xmlns:xsi="http://www.w3.org/2001/XMLSchema-instance" xsi:schemaLocation="http://www.topografix.com/GPX/1/1 http://www.topografix.com/GPX/1/1/gpx.xsd" version="1.1" creator="VisuGPX - https://www.visugpx.com">
  <metadata>
    <name>Félines Mont Chaud</name>
  </metadata>
  <trk>
    <name><![CDATA[Felines-20 15:00:47]]></name>
    <trkseg>
      <trkpt lat="45.31572" lon="4.72848">
        <ele>395.24</ele>
        <time>2021-10-20T07:15:41Z</time>
      </trkpt>
      <trkpt lat="45.31571" lon="4.72847">
        <ele>393.8</ele>
        <time>2021-10-20T07:16:00Z</time>
      </trkpt>
      <trkpt lat="45.31571" lon="4.72848">
        <ele>394.28</ele>
        <time>2021-10-20T07:16:22Z</time>
      </trkpt>
      <trkpt lat="45.31571" lon="4.72848">
        <ele>394.76</ele>
        <time>2021-10-20T07:16:59Z</time>
      </trkpt>
      <trkpt lat="45.31571" lon="4.72848">
        <ele>394.76</ele>
        <time>2021-10-20T07:17:28Z</time>
      </trkpt>
      <trkpt lat="45.31571" lon="4.72848">
        <ele>394.76</ele>
        <time>2021-10-20T07:18:00Z</time>
      </trkpt>
      <trkpt lat="45.31572" lon="4.72849">
        <ele>394.76</ele>
        <time>2021-10-20T07:18:26Z</time>
      </trkpt>
      <trkpt lat="45.31572" lon="4.72849">
        <ele>394.76</ele>
        <time>2021-10-20T07:18:54Z</time>
      </trkpt>
      <trkpt lat="45.31571" lon="4.72848">
        <ele>394.76</ele>
        <time>2021-10-20T07:19:20Z</time>
      </trkpt>
      <trkpt lat="45.31572" lon="4.72848">
        <ele>394.76</ele>
        <time>2021-10-20T07:19:49Z</time>
      </trkpt>
      <trkpt lat="45.31571" lon="4.72848">
        <ele>394.76</ele>
        <time>2021-10-20T07:20:17Z</time>
      </trkpt>
      <trkpt lat="45.31571" lon="4.72848">
        <ele>394.76</ele>
        <time>2021-10-20T07:20:43Z</time>
      </trkpt>
      <trkpt lat="45.31572" lon="4.72846">
        <ele>394.76</ele>
        <time>2021-10-20T07:21:10Z</time>
      </trkpt>
      <trkpt lat="45.31574" lon="4.72845">
        <ele>394.76</ele>
        <time>2021-10-20T07:21:41Z</time>
      </trkpt>
      <trkpt lat="45.31573" lon="4.72845">
        <ele>394.76</ele>
        <time>2021-10-20T07:22:10Z</time>
      </trkpt>
      <trkpt lat="45.31572" lon="4.7284">
        <ele>394.76</ele>
        <time>2021-10-20T07:22:35Z</time>
      </trkpt>
      <trkpt lat="45.31567" lon="4.7282">
        <ele>394.76</ele>
        <time>2021-10-20T07:23:11Z</time>
      </trkpt>
      <trkpt lat="45.31563" lon="4.72803">
        <ele>395.24</ele>
        <time>2021-10-20T07:23:31Z</time>
      </trkpt>
      <trkpt lat="45.31562" lon="4.72795">
        <ele>395.24</ele>
        <time>2021-10-20T07:23:56Z</time>
      </trkpt>
      <trkpt lat="45.31562" lon="4.7279">
        <ele>395.72</ele>
        <time>2021-10-20T07:24:02Z</time>
      </trkpt>
      <trkpt lat="45.31555" lon="4.72764">
        <ele>398.12</ele>
        <time>2021-10-20T07:24:29Z</time>
      </trkpt>
      <trkpt lat="45.31541" lon="4.72742">
        <ele>399.57</ele>
        <time>2021-10-20T07:24:53Z</time>
      </trkpt>
      <trkpt lat="45.31526" lon="4.72718">
        <ele>401.97</ele>
        <time>2021-10-20T07:25:20Z</time>
      </trkpt>
      <trkpt lat="45.31511" lon="4.72681">
        <ele>403.89</ele>
        <time>2021-10-20T07:25:50Z</time>
      </trkpt>
      <trkpt lat="45.31504" lon="4.72651">
        <ele>405.33</ele>
        <time>2021-10-20T07:26:12Z</time>
      </trkpt>
      <trkpt lat="45.31504" lon="4.72632">
        <ele>408.7</ele>
        <time>2021-10-20T07:26:30Z</time>
      </trkpt>
      <trkpt lat="45.31489" lon="4.72616">
        <ele>408.22</ele>
        <time>2021-10-20T07:26:57Z</time>
      </trkpt>
      <trkpt lat="45.31481" lon="4.72605">
        <ele>405.33</ele>
        <time>2021-10-20T07:27:10Z</time>
      </trkpt>
      <trkpt lat="45.31462" lon="4.72586">
        <ele>402.45</ele>
        <time>2021-10-20T07:27:31Z</time>
      </trkpt>
      <trkpt lat="45.31449" lon="4.72569">
        <ele>400.53</ele>
        <time>2021-10-20T07:27:48Z</time>
      </trkpt>
      <trkpt lat="45.3143" lon="4.72564">
        <ele>400.05</ele>
        <time>2021-10-20T07:28:10Z</time>
      </trkpt>
      <trkpt lat="45.31423" lon="4.72564">
        <ele>401.01</ele>
        <time>2021-10-20T07:28:31Z</time>
      </trkpt>
      <trkpt lat="45.31424" lon="4.72564">
        <ele>399.57</ele>
        <time>2021-10-20T07:29:03Z</time>
      </trkpt>
      <trkpt lat="45.31415" lon="4.7256">
        <ele>400.53</ele>
        <time>2021-10-20T07:29:32Z</time>
      </trkpt>
      <trkpt lat="45.31389" lon="4.72559">
        <ele>401.49</ele>
        <time>2021-10-20T07:29:59Z</time>
      </trkpt>
      <trkpt lat="45.31372" lon="4.72559">
        <ele>404.37</ele>
        <time>2021-10-20T07:30:20Z</time>
      </trkpt>
      <trkpt lat="45.31354" lon="4.72556">
        <ele>407.74</ele>
        <time>2021-10-20T07:30:41Z</time>
      </trkpt>
      <trkpt lat="45.31341" lon="4.72547">
        <ele>411.1</ele>
        <time>2021-10-20T07:31:04Z</time>
      </trkpt>
      <trkpt lat="45.31327" lon="4.72523">
        <ele>413.02</ele>
        <time>2021-10-20T07:31:31Z</time>
      </trkpt>
      <trkpt lat="45.31316" lon="4.72493">
        <ele>415.91</ele>
        <time>2021-10-20T07:31:58Z</time>
      </trkpt>
      <trkpt lat="45.31308" lon="4.72473">
        <ele>418.79</ele>
        <time>2021-10-20T07:32:20Z</time>
      </trkpt>
      <trkpt lat="45.31293" lon="4.72454">
        <ele>421.19</ele>
        <time>2021-10-20T07:32:46Z</time>
      </trkpt>
      <trkpt lat="45.31284" lon="4.72443">
        <ele>421.68</ele>
        <time>2021-10-20T07:33:07Z</time>
      </trkpt>
      <trkpt lat="45.31282" lon="4.72441">
        <ele>422.64</ele>
        <time>2021-10-20T07:33:31Z</time>
      </trkpt>
      <trkpt lat="45.31282" lon="4.7244">
        <ele>422.64</ele>
        <time>2021-10-20T07:33:55Z</time>
      </trkpt>
      <trkpt lat="45.31282" lon="4.7244">
        <ele>422.64</ele>
        <time>2021-10-20T07:34:20Z</time>
      </trkpt>
      <trkpt lat="45.31282" lon="4.72435">
        <ele>423.12</ele>
        <time>2021-10-20T07:34:39Z</time>
      </trkpt>
      <trkpt lat="45.31272" lon="4.72426">
        <ele>424.56</ele>
        <time>2021-10-20T07:35:03Z</time>
      </trkpt>
      <trkpt lat="45.31269" lon="4.72412">
        <ele>426.48</ele>
        <time>2021-10-20T07:35:30Z</time>
      </trkpt>
      <trkpt lat="45.31262" lon="4.7239">
        <ele>429.85</ele>
        <time>2021-10-20T07:35:53Z</time>
      </trkpt>
      <trkpt lat="45.31251" lon="4.72371">
        <ele>432.73</ele>
        <time>2021-10-20T07:36:16Z</time>
      </trkpt>
      <trkpt lat="45.31237" lon="4.72355">
        <ele>435.61</ele>
        <time>2021-10-20T07:36:43Z</time>
      </trkpt>
      <trkpt lat="45.31228" lon="4.72333">
        <ele>438.98</ele>
        <time>2021-10-20T07:37:12Z</time>
      </trkpt>
      <trkpt lat="45.31217" lon="4.7231">
        <ele>440.42</ele>
        <time>2021-10-20T07:37:38Z</time>
      </trkpt>
      <trkpt lat="45.3121" lon="4.72283">
        <ele>442.82</ele>
        <time>2021-10-20T07:38:04Z</time>
      </trkpt>
      <trkpt lat="45.31201" lon="4.72263">
        <ele>443.79</ele>
        <time>2021-10-20T07:38:24Z</time>
      </trkpt>
      <trkpt lat="45.3119" lon="4.7224">
        <ele>445.23</ele>
        <time>2021-10-20T07:38:48Z</time>
      </trkpt>
      <trkpt lat="45.31172" lon="4.72232">
        <ele>446.19</ele>
        <time>2021-10-20T07:39:08Z</time>
      </trkpt>
      <trkpt lat="45.3115" lon="4.72243">
        <ele>446.67</ele>
        <time>2021-10-20T07:39:34Z</time>
      </trkpt>
      <trkpt lat="45.31137" lon="4.72237">
        <ele>448.59</ele>
        <time>2021-10-20T07:39:52Z</time>
      </trkpt>
      <trkpt lat="45.31123" lon="4.72222">
        <ele>451.96</ele>
        <time>2021-10-20T07:40:15Z</time>
      </trkpt>
      <trkpt lat="45.31104" lon="4.72207">
        <ele>454.36</ele>
        <time>2021-10-20T07:40:42Z</time>
      </trkpt>
      <trkpt lat="45.31086" lon="4.72205">
        <ele>456.76</ele>
        <time>2021-10-20T07:41:06Z</time>
      </trkpt>
      <trkpt lat="45.31082" lon="4.72205">
        <ele>458.21</ele>
        <time>2021-10-20T07:41:12Z</time>
      </trkpt>
      <trkpt lat="45.31064" lon="4.72196">
        <ele>460.61</ele>
        <time>2021-10-20T07:41:37Z</time>
      </trkpt>
      <trkpt lat="45.31049" lon="4.72185">
        <ele>463.97</ele>
        <time>2021-10-20T07:42:01Z</time>
      </trkpt>
      <trkpt lat="45.31036" lon="4.72169">
        <ele>465.9</ele>
        <time>2021-10-20T07:42:23Z</time>
      </trkpt>
      <trkpt lat="45.3102" lon="4.72145">
        <ele>468.3</ele>
        <time>2021-10-20T07:42:51Z</time>
      </trkpt>
      <trkpt lat="45.31008" lon="4.72113">
        <ele>469.74</ele>
        <time>2021-10-20T07:43:20Z</time>
      </trkpt>
      <trkpt lat="45.30995" lon="4.72086">
        <ele>468.78</ele>
        <time>2021-10-20T07:43:43Z</time>
      </trkpt>
      <trkpt lat="45.30983" lon="4.72065">
        <ele>467.34</ele>
        <time>2021-10-20T07:44:01Z</time>
      </trkpt>
      <trkpt lat="45.30968" lon="4.72031">
        <ele>464.45</ele>
        <time>2021-10-20T07:44:28Z</time>
      </trkpt>
      <trkpt lat="45.3096" lon="4.72001">
        <ele>462.53</ele>
        <time>2021-10-20T07:44:54Z</time>
      </trkpt>
      <trkpt lat="45.30944" lon="4.7196">
        <ele>461.57</ele>
        <time>2021-10-20T07:45:23Z</time>
      </trkpt>
      <trkpt lat="45.30927" lon="4.71927">
        <ele>462.05</ele>
        <time>2021-10-20T07:45:46Z</time>
      </trkpt>
      <trkpt lat="45.3092" lon="4.71903">
        <ele>461.57</ele>
        <time>2021-10-20T07:46:07Z</time>
      </trkpt>
      <trkpt lat="45.30909" lon="4.7187">
        <ele>463.01</ele>
        <time>2021-10-20T07:46:29Z</time>
      </trkpt>
      <trkpt lat="45.30901" lon="4.71844">
        <ele>463.97</ele>
        <time>2021-10-20T07:46:48Z</time>
      </trkpt>
      <trkpt lat="45.30891" lon="4.71813">
        <ele>466.38</ele>
        <time>2021-10-20T07:47:14Z</time>
      </trkpt>
      <trkpt lat="45.30886" lon="4.71789">
        <ele>467.34</ele>
        <time>2021-10-20T07:47:35Z</time>
      </trkpt>
      <trkpt lat="45.30881" lon="4.71768">
        <ele>468.78</ele>
        <time>2021-10-20T07:47:49Z</time>
      </trkpt>
      <trkpt lat="45.3087" lon="4.71752">
        <ele>470.22</ele>
        <time>2021-10-20T07:48:06Z</time>
      </trkpt>
      <trkpt lat="45.30859" lon="4.71726">
        <ele>471.18</ele>
        <time>2021-10-20T07:48:23Z</time>
      </trkpt>
      <trkpt lat="45.30853" lon="4.71707">
        <ele>471.66</ele>
        <time>2021-10-20T07:48:39Z</time>
      </trkpt>
      <trkpt lat="45.30852" lon="4.71706">
        <ele>469.74</ele>
        <time>2021-10-20T07:48:52Z</time>
      </trkpt>
      <trkpt lat="45.30853" lon="4.71706">
        <ele>472.63</ele>
        <time>2021-10-20T07:49:01Z</time>
      </trkpt>
      <trkpt lat="45.30853" lon="4.71705">
        <ele>469.26</ele>
        <time>2021-10-20T07:49:28Z</time>
      </trkpt>
      <trkpt lat="45.30853" lon="4.71705">
        <ele>468.78</ele>
        <time>2021-10-20T07:49:30Z</time>
      </trkpt>
      <trkpt lat="45.30853" lon="4.71704">
        <ele>469.26</ele>
        <time>2021-10-20T07:49:32Z</time>
      </trkpt>
      <trkpt lat="45.30852" lon="4.71705">
        <ele>472.63</ele>
        <time>2021-10-20T07:49:43Z</time>
      </trkpt>
      <trkpt lat="45.30853" lon="4.71703">
        <ele>473.59</ele>
        <time>2021-10-20T07:49:50Z</time>
      </trkpt>
      <trkpt lat="45.30853" lon="4.71702">
        <ele>473.59</ele>
        <time>2021-10-20T07:49:51Z</time>
      </trkpt>
      <trkpt lat="45.30853" lon="4.71699">
        <ele>473.59</ele>
        <time>2021-10-20T07:49:52Z</time>
      </trkpt>
      <trkpt lat="45.30853" lon="4.71697">
        <ele>473.59</ele>
        <time>2021-10-20T07:49:53Z</time>
      </trkpt>
      <trkpt lat="45.30853" lon="4.71695">
        <ele>473.59</ele>
        <time>2021-10-20T07:49:54Z</time>
      </trkpt>
      <trkpt lat="45.30851" lon="4.71657">
        <ele>473.11</ele>
        <time>2021-10-20T07:50:17Z</time>
      </trkpt>
      <trkpt lat="45.30852" lon="4.71656">
        <ele>473.11</ele>
        <time>2021-10-20T07:50:28Z</time>
      </trkpt>
      <trkpt lat="45.30852" lon="4.71654">
        <ele>473.11</ele>
        <time>2021-10-20T07:50:29Z</time>
      </trkpt>
      <trkpt lat="45.30852" lon="4.71653">
        <ele>473.11</ele>
        <time>2021-10-20T07:50:30Z</time>
      </trkpt>
      <trkpt lat="45.30852" lon="4.71651">
        <ele>473.11</ele>
        <time>2021-10-20T07:50:31Z</time>
      </trkpt>
      <trkpt lat="45.30853" lon="4.71649">
        <ele>473.59</ele>
        <time>2021-10-20T07:50:32Z</time>
      </trkpt>
      <trkpt lat="45.30853" lon="4.71648">
        <ele>473.59</ele>
        <time>2021-10-20T07:50:33Z</time>
      </trkpt>
      <trkpt lat="45.30853" lon="4.71646">
        <ele>473.59</ele>
        <time>2021-10-20T07:50:34Z</time>
      </trkpt>
      <trkpt lat="45.30852" lon="4.71644">
        <ele>473.59</ele>
        <time>2021-10-20T07:50:35Z</time>
      </trkpt>
      <trkpt lat="45.30852" lon="4.71643">
        <ele>473.59</ele>
        <time>2021-10-20T07:50:36Z</time>
      </trkpt>
      <trkpt lat="45.30856" lon="4.71606">
        <ele>474.55</ele>
        <time>2021-10-20T07:50:59Z</time>
      </trkpt>
      <trkpt lat="45.30861" lon="4.71574">
        <ele>475.03</ele>
        <time>2021-10-20T07:51:20Z</time>
      </trkpt>
      <trkpt lat="45.30866" lon="4.7155">
        <ele>475.51</ele>
        <time>2021-10-20T07:51:35Z</time>
      </trkpt>
      <trkpt lat="45.30871" lon="4.71529">
        <ele>475.51</ele>
        <time>2021-10-20T07:51:49Z</time>
      </trkpt>
      <trkpt lat="45.30872" lon="4.71524">
        <ele>475.51</ele>
        <time>2021-10-20T07:51:52Z</time>
      </trkpt>
      <trkpt lat="45.30874" lon="4.71509">
        <ele>475.51</ele>
        <time>2021-10-20T07:52:01Z</time>
      </trkpt>
      <trkpt lat="45.30875" lon="4.71473">
        <ele>473.59</ele>
        <time>2021-10-20T07:52:22Z</time>
      </trkpt>
      <trkpt lat="45.30856" lon="4.71458">
        <ele>471.18</ele>
        <time>2021-10-20T07:52:41Z</time>
      </trkpt>
      <trkpt lat="45.3085" lon="4.7145">
        <ele>469.26</ele>
        <time>2021-10-20T07:52:55Z</time>
      </trkpt>
      <trkpt lat="45.30848" lon="4.71448">
        <ele>469.26</ele>
        <time>2021-10-20T07:53:10Z</time>
      </trkpt>
      <trkpt lat="45.30841" lon="4.71447">
        <ele>469.74</ele>
        <time>2021-10-20T07:53:27Z</time>
      </trkpt>
      <trkpt lat="45.3084" lon="4.71442">
        <ele>469.74</ele>
        <time>2021-10-20T07:53:31Z</time>
      </trkpt>
      <trkpt lat="45.3084" lon="4.71441">
        <ele>470.22</ele>
        <time>2021-10-20T07:53:32Z</time>
      </trkpt>
      <trkpt lat="45.3084" lon="4.71407">
        <ele>470.7</ele>
        <time>2021-10-20T07:53:55Z</time>
      </trkpt>
      <trkpt lat="45.30841" lon="4.71394">
        <ele>471.18</ele>
        <time>2021-10-20T07:54:09Z</time>
      </trkpt>
      <trkpt lat="45.30842" lon="4.71392">
        <ele>471.66</ele>
        <time>2021-10-20T07:54:12Z</time>
      </trkpt>
      <trkpt lat="45.30841" lon="4.7139">
        <ele>471.66</ele>
        <time>2021-10-20T07:54:13Z</time>
      </trkpt>
      <trkpt lat="45.30841" lon="4.71387">
        <ele>471.66</ele>
        <time>2021-10-20T07:54:15Z</time>
      </trkpt>
      <trkpt lat="45.30843" lon="4.71355">
        <ele>472.63</ele>
        <time>2021-10-20T07:54:35Z</time>
      </trkpt>
      <trkpt lat="45.30844" lon="4.71329">
        <ele>472.63</ele>
        <time>2021-10-20T07:54:52Z</time>
      </trkpt>
      <trkpt lat="45.30839" lon="4.7129">
        <ele>472.14</ele>
        <time>2021-10-20T07:55:14Z</time>
      </trkpt>
      <trkpt lat="45.30829" lon="4.71256">
        <ele>471.66</ele>
        <time>2021-10-20T07:55:36Z</time>
      </trkpt>
      <trkpt lat="45.30817" lon="4.71215">
        <ele>472.63</ele>
        <time>2021-10-20T07:56:03Z</time>
      </trkpt>
      <trkpt lat="45.30806" lon="4.71187">
        <ele>474.55</ele>
        <time>2021-10-20T07:56:27Z</time>
      </trkpt>
      <trkpt lat="45.30797" lon="4.71168">
        <ele>477.43</ele>
        <time>2021-10-20T07:56:51Z</time>
      </trkpt>
      <trkpt lat="45.30791" lon="4.71162">
        <ele>478.39</ele>
        <time>2021-10-20T07:57:05Z</time>
      </trkpt>
      <trkpt lat="45.30786" lon="4.7116">
        <ele>478.39</ele>
        <time>2021-10-20T07:57:18Z</time>
      </trkpt>
      <trkpt lat="45.30785" lon="4.71159">
        <ele>478.87</ele>
        <time>2021-10-20T07:57:19Z</time>
      </trkpt>
      <trkpt lat="45.30784" lon="4.71158">
        <ele>478.87</ele>
        <time>2021-10-20T07:57:20Z</time>
      </trkpt>
      <trkpt lat="45.30784" lon="4.71157">
        <ele>478.87</ele>
        <time>2021-10-20T07:57:21Z</time>
      </trkpt>
      <trkpt lat="45.30783" lon="4.71156">
        <ele>479.35</ele>
        <time>2021-10-20T07:57:22Z</time>
      </trkpt>
      <trkpt lat="45.30782" lon="4.71155">
        <ele>479.35</ele>
        <time>2021-10-20T07:57:23Z</time>
      </trkpt>
      <trkpt lat="45.30776" lon="4.7115">
        <ele>479.84</ele>
        <time>2021-10-20T07:57:32Z</time>
      </trkpt>
      <trkpt lat="45.30774" lon="4.71147">
        <ele>479.84</ele>
        <time>2021-10-20T07:57:35Z</time>
      </trkpt>
      <trkpt lat="45.30762" lon="4.71127">
        <ele>481.76</ele>
        <time>2021-10-20T07:57:56Z</time>
      </trkpt>
      <trkpt lat="45.30761" lon="4.71126">
        <ele>481.76</ele>
        <time>2021-10-20T07:57:57Z</time>
      </trkpt>
      <trkpt lat="45.30761" lon="4.71124">
        <ele>481.76</ele>
        <time>2021-10-20T07:57:58Z</time>
      </trkpt>
      <trkpt lat="45.30758" lon="4.71113">
        <ele>482.72</ele>
        <time>2021-10-20T07:58:09Z</time>
      </trkpt>
      <trkpt lat="45.30758" lon="4.71101">
        <ele>483.68</ele>
        <time>2021-10-20T07:58:18Z</time>
      </trkpt>
      <trkpt lat="45.30758" lon="4.711">
        <ele>483.68</ele>
        <time>2021-10-20T07:58:19Z</time>
      </trkpt>
      <trkpt lat="45.30757" lon="4.71091">
        <ele>484.16</ele>
        <time>2021-10-20T07:58:25Z</time>
      </trkpt>
      <trkpt lat="45.30756" lon="4.71078">
        <ele>485.6</ele>
        <time>2021-10-20T07:58:40Z</time>
      </trkpt>
      <trkpt lat="45.30754" lon="4.71059">
        <ele>486.56</ele>
        <time>2021-10-20T07:58:56Z</time>
      </trkpt>
      <trkpt lat="45.30753" lon="4.71054">
        <ele>487.53</ele>
        <time>2021-10-20T07:59:12Z</time>
      </trkpt>
      <trkpt lat="45.30752" lon="4.71053">
        <ele>488.01</ele>
        <time>2021-10-20T07:59:32Z</time>
      </trkpt>
      <trkpt lat="45.30748" lon="4.71045">
        <ele>488.49</ele>
        <time>2021-10-20T07:59:49Z</time>
      </trkpt>
      <trkpt lat="45.30748" lon="4.71044">
        <ele>488.01</ele>
        <time>2021-10-20T08:00:19Z</time>
      </trkpt>
      <trkpt lat="45.30748" lon="4.71044">
        <ele>488.01</ele>
        <time>2021-10-20T08:00:59Z</time>
      </trkpt>
      <trkpt lat="45.30746" lon="4.7104">
        <ele>488.01</ele>
        <time>2021-10-20T08:01:30Z</time>
      </trkpt>
      <trkpt lat="45.30741" lon="4.71023">
        <ele>488.01</ele>
        <time>2021-10-20T08:01:49Z</time>
      </trkpt>
      <trkpt lat="45.30735" lon="4.71008">
        <ele>488.01</ele>
        <time>2021-10-20T08:02:06Z</time>
      </trkpt>
      <trkpt lat="45.30734" lon="4.71007">
        <ele>492.33</ele>
        <time>2021-10-20T08:02:08Z</time>
      </trkpt>
      <trkpt lat="45.30734" lon="4.71006">
        <ele>492.81</ele>
        <time>2021-10-20T08:02:09Z</time>
      </trkpt>
      <trkpt lat="45.30725" lon="4.71004">
        <ele>493.77</ele>
        <time>2021-10-20T08:02:23Z</time>
      </trkpt>
      <trkpt lat="45.30708" lon="4.71015">
        <ele>496.18</ele>
        <time>2021-10-20T08:02:45Z</time>
      </trkpt>
      <trkpt lat="45.30691" lon="4.71019">
        <ele>497.62</ele>
        <time>2021-10-20T08:03:07Z</time>
      </trkpt>
      <trkpt lat="45.30675" lon="4.71021">
        <ele>499.54</ele>
        <time>2021-10-20T08:03:28Z</time>
      </trkpt>
      <trkpt lat="45.30661" lon="4.71025">
        <ele>502.43</ele>
        <time>2021-10-20T08:03:48Z</time>
      </trkpt>
      <trkpt lat="45.30651" lon="4.71027">
        <ele>504.35</ele>
        <time>2021-10-20T08:04:05Z</time>
      </trkpt>
      <trkpt lat="45.30639" lon="4.71032">
        <ele>506.27</ele>
        <time>2021-10-20T08:04:23Z</time>
      </trkpt>
      <trkpt lat="45.30627" lon="4.7104">
        <ele>508.19</ele>
        <time>2021-10-20T08:04:42Z</time>
      </trkpt>
      <trkpt lat="45.30617" lon="4.71049">
        <ele>510.6</ele>
        <time>2021-10-20T08:04:59Z</time>
      </trkpt>
      <trkpt lat="45.30608" lon="4.71058">
        <ele>512.52</ele>
        <time>2021-10-20T08:05:16Z</time>
      </trkpt>
      <trkpt lat="45.30595" lon="4.71067">
        <ele>514.92</ele>
        <time>2021-10-20T08:05:36Z</time>
      </trkpt>
      <trkpt lat="45.30581" lon="4.71075">
        <ele>516.37</ele>
        <time>2021-10-20T08:05:54Z</time>
      </trkpt>
      <trkpt lat="45.30577" lon="4.71077">
        <ele>516.37</ele>
        <time>2021-10-20T08:05:58Z</time>
      </trkpt>
      <trkpt lat="45.30566" lon="4.71084">
        <ele>518.29</ele>
        <time>2021-10-20T08:06:13Z</time>
      </trkpt>
      <trkpt lat="45.30555" lon="4.71088">
        <ele>519.73</ele>
        <time>2021-10-20T08:06:29Z</time>
      </trkpt>
      <trkpt lat="45.30543" lon="4.71091">
        <ele>521.17</ele>
        <time>2021-10-20T08:06:45Z</time>
      </trkpt>
      <trkpt lat="45.30541" lon="4.71092">
        <ele>521.65</ele>
        <time>2021-10-20T08:06:47Z</time>
      </trkpt>
      <trkpt lat="45.30528" lon="4.71093">
        <ele>523.58</ele>
        <time>2021-10-20T08:07:03Z</time>
      </trkpt>
      <trkpt lat="45.30515" lon="4.71092">
        <ele>525.5</ele>
        <time>2021-10-20T08:07:20Z</time>
      </trkpt>
      <trkpt lat="45.30506" lon="4.71091">
        <ele>527.9</ele>
        <time>2021-10-20T08:07:34Z</time>
      </trkpt>
      <trkpt lat="45.30491" lon="4.71088">
        <ele>530.3</ele>
        <time>2021-10-20T08:07:52Z</time>
      </trkpt>
      <trkpt lat="45.30477" lon="4.71087">
        <ele>532.23</ele>
        <time>2021-10-20T08:08:09Z</time>
      </trkpt>
      <trkpt lat="45.30463" lon="4.71085">
        <ele>533.67</ele>
        <time>2021-10-20T08:08:26Z</time>
      </trkpt>
      <trkpt lat="45.30454" lon="4.71084">
        <ele>535.11</ele>
        <time>2021-10-20T08:08:36Z</time>
      </trkpt>
      <trkpt lat="45.30439" lon="4.71078">
        <ele>537.51</ele>
        <time>2021-10-20T08:08:54Z</time>
      </trkpt>
      <trkpt lat="45.30425" lon="4.71072">
        <ele>538.48</ele>
        <time>2021-10-20T08:09:11Z</time>
      </trkpt>
      <trkpt lat="45.30406" lon="4.71068">
        <ele>539.92</ele>
        <time>2021-10-20T08:09:30Z</time>
      </trkpt>
      <trkpt lat="45.30391" lon="4.71069">
        <ele>540.4</ele>
        <time>2021-10-20T08:09:46Z</time>
      </trkpt>
      <trkpt lat="45.30381" lon="4.71076">
        <ele>541.36</ele>
        <time>2021-10-20T08:10:00Z</time>
      </trkpt>
      <trkpt lat="45.30378" lon="4.71079">
        <ele>541.36</ele>
        <time>2021-10-20T08:10:04Z</time>
      </trkpt>
      <trkpt lat="45.30378" lon="4.71081">
        <ele>541.36</ele>
        <time>2021-10-20T08:10:05Z</time>
      </trkpt>
      <trkpt lat="45.30372" lon="4.71101">
        <ele>542.32</ele>
        <time>2021-10-20T08:10:22Z</time>
      </trkpt>
      <trkpt lat="45.30368" lon="4.71115">
        <ele>543.28</ele>
        <time>2021-10-20T08:10:33Z</time>
      </trkpt>
      <trkpt lat="45.30361" lon="4.71131">
        <ele>544.72</ele>
        <time>2021-10-20T08:10:46Z</time>
      </trkpt>
      <trkpt lat="45.30356" lon="4.7115">
        <ele>546.17</ele>
        <time>2021-10-20T08:11:02Z</time>
      </trkpt>
      <trkpt lat="45.30355" lon="4.71165">
        <ele>547.61</ele>
        <time>2021-10-20T08:11:14Z</time>
      </trkpt>
      <trkpt lat="45.30356" lon="4.71181">
        <ele>549.05</ele>
        <time>2021-10-20T08:11:29Z</time>
      </trkpt>
      <trkpt lat="45.30358" lon="4.71197">
        <ele>550.97</ele>
        <time>2021-10-20T08:11:43Z</time>
      </trkpt>
      <trkpt lat="45.30359" lon="4.7122">
        <ele>553.38</ele>
        <time>2021-10-20T08:12:04Z</time>
      </trkpt>
      <trkpt lat="45.30361" lon="4.7124">
        <ele>554.82</ele>
        <time>2021-10-20T08:12:22Z</time>
      </trkpt>
      <trkpt lat="45.30358" lon="4.71261">
        <ele>556.74</ele>
        <time>2021-10-20T08:12:38Z</time>
      </trkpt>
      <trkpt lat="45.30347" lon="4.71282">
        <ele>557.22</ele>
        <time>2021-10-20T08:12:56Z</time>
      </trkpt>
      <trkpt lat="45.30345" lon="4.71285">
        <ele>557.22</ele>
        <time>2021-10-20T08:12:59Z</time>
      </trkpt>
      <trkpt lat="45.30344" lon="4.71285">
        <ele>557.22</ele>
        <time>2021-10-20T08:13:00Z</time>
      </trkpt>
      <trkpt lat="45.30329" lon="4.71288">
        <ele>558.18</ele>
        <time>2021-10-20T08:13:17Z</time>
      </trkpt>
      <trkpt lat="45.30321" lon="4.71276">
        <ele>559.62</ele>
        <time>2021-10-20T08:13:32Z</time>
      </trkpt>
      <trkpt lat="45.3032" lon="4.71252">
        <ele>561.55</ele>
        <time>2021-10-20T08:13:53Z</time>
      </trkpt>
      <trkpt lat="45.30321" lon="4.71249">
        <ele>561.55</ele>
        <time>2021-10-20T08:13:55Z</time>
      </trkpt>
      <trkpt lat="45.30319" lon="4.71233">
        <ele>562.51</ele>
        <time>2021-10-20T08:14:09Z</time>
      </trkpt>
      <trkpt lat="45.30318" lon="4.71228">
        <ele>562.51</ele>
        <time>2021-10-20T08:14:13Z</time>
      </trkpt>
      <trkpt lat="45.30309" lon="4.71211">
        <ele>563.47</ele>
        <time>2021-10-20T08:14:29Z</time>
      </trkpt>
      <trkpt lat="45.30296" lon="4.71196">
        <ele>564.91</ele>
        <time>2021-10-20T08:14:48Z</time>
      </trkpt>
      <trkpt lat="45.3028" lon="4.71193">
        <ele>566.35</ele>
        <time>2021-10-20T08:15:06Z</time>
      </trkpt>
      <trkpt lat="45.30262" lon="4.71194">
        <ele>568.28</ele>
        <time>2021-10-20T08:15:25Z</time>
      </trkpt>
      <trkpt lat="45.30259" lon="4.71195">
        <ele>568.28</ele>
        <time>2021-10-20T08:15:29Z</time>
      </trkpt>
      <trkpt lat="45.30241" lon="4.71198">
        <ele>571.16</ele>
        <time>2021-10-20T08:15:49Z</time>
      </trkpt>
      <trkpt lat="45.30224" lon="4.71196">
        <ele>571.64</ele>
        <time>2021-10-20T08:16:07Z</time>
      </trkpt>
      <trkpt lat="45.3022" lon="4.7119">
        <ele>572.12</ele>
        <time>2021-10-20T08:16:15Z</time>
      </trkpt>
      <trkpt lat="45.30217" lon="4.7117">
        <ele>573.08</ele>
        <time>2021-10-20T08:16:32Z</time>
      </trkpt>
      <trkpt lat="45.3022" lon="4.71156">
        <ele>574.04</ele>
        <time>2021-10-20T08:16:47Z</time>
      </trkpt>
      <trkpt lat="45.30222" lon="4.71153">
        <ele>575.49</ele>
        <time>2021-10-20T08:17:04Z</time>
      </trkpt>
      <trkpt lat="45.30223" lon="4.71151">
        <ele>575.49</ele>
        <time>2021-10-20T08:17:26Z</time>
      </trkpt>
      <trkpt lat="45.30222" lon="4.7115">
        <ele>576.45</ele>
        <time>2021-10-20T08:18:05Z</time>
      </trkpt>
      <trkpt lat="45.30222" lon="4.71149">
        <ele>575.97</ele>
        <time>2021-10-20T08:18:38Z</time>
      </trkpt>
      <trkpt lat="45.30223" lon="4.71147">
        <ele>575.49</ele>
        <time>2021-10-20T08:19:00Z</time>
      </trkpt>
      <trkpt lat="45.30225" lon="4.71142">
        <ele>575.49</ele>
        <time>2021-10-20T08:19:13Z</time>
      </trkpt>
      <trkpt lat="45.30225" lon="4.71142">
        <ele>575.49</ele>
        <time>2021-10-20T08:19:43Z</time>
      </trkpt>
      <trkpt lat="45.30225" lon="4.71142">
        <ele>575.49</ele>
        <time>2021-10-20T08:20:04Z</time>
      </trkpt>
      <trkpt lat="45.30225" lon="4.71142">
        <ele>575.49</ele>
        <time>2021-10-20T08:20:29Z</time>
      </trkpt>
      <trkpt lat="45.30226" lon="4.7114">
        <ele>575.49</ele>
        <time>2021-10-20T08:20:54Z</time>
      </trkpt>
      <trkpt lat="45.30227" lon="4.7114">
        <ele>575.49</ele>
        <time>2021-10-20T08:21:12Z</time>
      </trkpt>
      <trkpt lat="45.30228" lon="4.7114">
        <ele>575.49</ele>
        <time>2021-10-20T08:21:35Z</time>
      </trkpt>
      <trkpt lat="45.30229" lon="4.71139">
        <ele>575.49</ele>
        <time>2021-10-20T08:21:58Z</time>
      </trkpt>
      <trkpt lat="45.30229" lon="4.71139">
        <ele>575.49</ele>
        <time>2021-10-20T08:22:21Z</time>
      </trkpt>
      <trkpt lat="45.30229" lon="4.71139">
        <ele>575.49</ele>
        <time>2021-10-20T08:22:58Z</time>
      </trkpt>
      <trkpt lat="45.30229" lon="4.71139">
        <ele>575.49</ele>
        <time>2021-10-20T08:23:29Z</time>
      </trkpt>
      <trkpt lat="45.30228" lon="4.71139">
        <ele>575.49</ele>
        <time>2021-10-20T08:24:10Z</time>
      </trkpt>
      <trkpt lat="45.30229" lon="4.71138">
        <ele>575.49</ele>
        <time>2021-10-20T08:24:25Z</time>
      </trkpt>
      <trkpt lat="45.30229" lon="4.71137">
        <ele>575.49</ele>
        <time>2021-10-20T08:24:52Z</time>
      </trkpt>
      <trkpt lat="45.30232" lon="4.71123">
        <ele>577.89</ele>
        <time>2021-10-20T08:25:07Z</time>
      </trkpt>
      <trkpt lat="45.30233" lon="4.71115">
        <ele>577.89</ele>
        <time>2021-10-20T08:25:13Z</time>
      </trkpt>
      <trkpt lat="45.30234" lon="4.71093">
        <ele>579.33</ele>
        <time>2021-10-20T08:25:29Z</time>
      </trkpt>
      <trkpt lat="45.30237" lon="4.71071">
        <ele>579.81</ele>
        <time>2021-10-20T08:25:46Z</time>
      </trkpt>
      <trkpt lat="45.30236" lon="4.71048">
        <ele>581.25</ele>
        <time>2021-10-20T08:26:05Z</time>
      </trkpt>
      <trkpt lat="45.30227" lon="4.71034">
        <ele>583.18</ele>
        <time>2021-10-20T08:26:22Z</time>
      </trkpt>
      <trkpt lat="45.30221" lon="4.71023">
        <ele>584.14</ele>
        <time>2021-10-20T08:26:34Z</time>
      </trkpt>
      <trkpt lat="45.30221" lon="4.71006">
        <ele>584.62</ele>
        <time>2021-10-20T08:26:49Z</time>
      </trkpt>
      <trkpt lat="45.30223" lon="4.70992">
        <ele>585.58</ele>
        <time>2021-10-20T08:27:02Z</time>
      </trkpt>
      <trkpt lat="45.30223" lon="4.70975">
        <ele>587.02</ele>
        <time>2021-10-20T08:27:17Z</time>
      </trkpt>
      <trkpt lat="45.30221" lon="4.70955">
        <ele>587.98</ele>
        <time>2021-10-20T08:27:35Z</time>
      </trkpt>
      <trkpt lat="45.30221" lon="4.70953">
        <ele>587.98</ele>
        <time>2021-10-20T08:27:36Z</time>
      </trkpt>
      <trkpt lat="45.3022" lon="4.70938">
        <ele>589.43</ele>
        <time>2021-10-20T08:27:48Z</time>
      </trkpt>
      <trkpt lat="45.3022" lon="4.70937">
        <ele>589.43</ele>
        <time>2021-10-20T08:27:49Z</time>
      </trkpt>
      <trkpt lat="45.3022" lon="4.70935">
        <ele>589.43</ele>
        <time>2021-10-20T08:27:50Z</time>
      </trkpt>
      <trkpt lat="45.30226" lon="4.70918">
        <ele>590.39</ele>
        <time>2021-10-20T08:28:03Z</time>
      </trkpt>
      <trkpt lat="45.30232" lon="4.70896">
        <ele>591.35</ele>
        <time>2021-10-20T08:28:20Z</time>
      </trkpt>
      <trkpt lat="45.30236" lon="4.70888">
        <ele>591.83</ele>
        <time>2021-10-20T08:28:27Z</time>
      </trkpt>
      <trkpt lat="45.30247" lon="4.70873">
        <ele>592.31</ele>
        <time>2021-10-20T08:28:42Z</time>
      </trkpt>
      <trkpt lat="45.30261" lon="4.70842">
        <ele>594.23</ele>
        <time>2021-10-20T08:29:06Z</time>
      </trkpt>
      <trkpt lat="45.30263" lon="4.70837">
        <ele>593.75</ele>
        <time>2021-10-20T08:29:11Z</time>
      </trkpt>
      <trkpt lat="45.30265" lon="4.70832">
        <ele>593.75</ele>
        <time>2021-10-20T08:29:17Z</time>
      </trkpt>
      <trkpt lat="45.30266" lon="4.70829">
        <ele>593.75</ele>
        <time>2021-10-20T08:29:20Z</time>
      </trkpt>
      <trkpt lat="45.30267" lon="4.70828">
        <ele>593.75</ele>
        <time>2021-10-20T08:29:21Z</time>
      </trkpt>
      <trkpt lat="45.30279" lon="4.70807">
        <ele>595.67</ele>
        <time>2021-10-20T08:29:43Z</time>
      </trkpt>
      <trkpt lat="45.30295" lon="4.70803">
        <ele>597.12</ele>
        <time>2021-10-20T08:30:01Z</time>
      </trkpt>
      <trkpt lat="45.30311" lon="4.70803">
        <ele>598.08</ele>
        <time>2021-10-20T08:30:18Z</time>
      </trkpt>
      <trkpt lat="45.30332" lon="4.70804">
        <ele>598.56</ele>
        <time>2021-10-20T08:30:38Z</time>
      </trkpt>
      <trkpt lat="45.30347" lon="4.70804">
        <ele>600</ele>
        <time>2021-10-20T08:30:54Z</time>
      </trkpt>
      <trkpt lat="45.30365" lon="4.70807">
        <ele>601.92</ele>
        <time>2021-10-20T08:31:13Z</time>
      </trkpt>
      <trkpt lat="45.30373" lon="4.70809">
        <ele>603.36</ele>
        <time>2021-10-20T08:31:26Z</time>
      </trkpt>
      <trkpt lat="45.30374" lon="4.70809">
        <ele>603.36</ele>
        <time>2021-10-20T08:31:27Z</time>
      </trkpt>
      <trkpt lat="45.30381" lon="4.70805">
        <ele>603.85</ele>
        <time>2021-10-20T08:31:36Z</time>
      </trkpt>
      <trkpt lat="45.30391" lon="4.70793">
        <ele>606.73</ele>
        <time>2021-10-20T08:31:55Z</time>
      </trkpt>
      <trkpt lat="45.30392" lon="4.70793">
        <ele>606.73</ele>
        <time>2021-10-20T08:31:56Z</time>
      </trkpt>
      <trkpt lat="45.30393" lon="4.70791">
        <ele>606.73</ele>
        <time>2021-10-20T08:31:57Z</time>
      </trkpt>
      <trkpt lat="45.30394" lon="4.70789">
        <ele>607.21</ele>
        <time>2021-10-20T08:31:59Z</time>
      </trkpt>
      <trkpt lat="45.304" lon="4.70766">
        <ele>609.13</ele>
        <time>2021-10-20T08:32:17Z</time>
      </trkpt>
      <trkpt lat="45.30399" lon="4.70762">
        <ele>610.09</ele>
        <time>2021-10-20T08:32:34Z</time>
      </trkpt>
      <trkpt lat="45.304" lon="4.7074">
        <ele>611.54</ele>
        <time>2021-10-20T08:32:54Z</time>
      </trkpt>
      <trkpt lat="45.304" lon="4.70732">
        <ele>612.5</ele>
        <time>2021-10-20T08:33:06Z</time>
      </trkpt>
      <trkpt lat="45.30403" lon="4.70731">
        <ele>612.5</ele>
        <time>2021-10-20T08:33:24Z</time>
      </trkpt>
      <trkpt lat="45.30406" lon="4.7073">
        <ele>612.5</ele>
        <time>2021-10-20T08:33:28Z</time>
      </trkpt>
      <trkpt lat="45.30407" lon="4.70729">
        <ele>612.5</ele>
        <time>2021-10-20T08:33:29Z</time>
      </trkpt>
      <trkpt lat="45.30407" lon="4.70729">
        <ele>612.5</ele>
        <time>2021-10-20T08:33:30Z</time>
      </trkpt>
      <trkpt lat="45.30413" lon="4.70722">
        <ele>612.02</ele>
        <time>2021-10-20T08:33:46Z</time>
      </trkpt>
      <trkpt lat="45.30415" lon="4.70713">
        <ele>612.5</ele>
        <time>2021-10-20T08:34:04Z</time>
      </trkpt>
      <trkpt lat="45.30415" lon="4.70704">
        <ele>612.5</ele>
        <time>2021-10-20T08:34:19Z</time>
      </trkpt>
      <trkpt lat="45.30415" lon="4.70704">
        <ele>612.5</ele>
        <time>2021-10-20T08:34:37Z</time>
      </trkpt>
      <trkpt lat="45.30416" lon="4.70701">
        <ele>612.98</ele>
        <time>2021-10-20T08:34:40Z</time>
      </trkpt>
      <trkpt lat="45.30416" lon="4.707">
        <ele>612.98</ele>
        <time>2021-10-20T08:34:41Z</time>
      </trkpt>
      <trkpt lat="45.30416" lon="4.70685">
        <ele>613.46</ele>
        <time>2021-10-20T08:34:57Z</time>
      </trkpt>
      <trkpt lat="45.3041" lon="4.70676">
        <ele>614.42</ele>
        <time>2021-10-20T08:35:12Z</time>
      </trkpt>
      <trkpt lat="45.30402" lon="4.70681">
        <ele>614.42</ele>
        <time>2021-10-20T08:35:27Z</time>
      </trkpt>
      <trkpt lat="45.30399" lon="4.70678">
        <ele>614.9</ele>
        <time>2021-10-20T08:35:40Z</time>
      </trkpt>
      <trkpt lat="45.304" lon="4.70683">
        <ele>614.42</ele>
        <time>2021-10-20T08:35:52Z</time>
      </trkpt>
      <trkpt lat="45.30401" lon="4.70688">
        <ele>614.42</ele>
        <time>2021-10-20T08:36:05Z</time>
      </trkpt>
      <trkpt lat="45.30399" lon="4.70694">
        <ele>614.42</ele>
        <time>2021-10-20T08:36:20Z</time>
      </trkpt>
      <trkpt lat="45.30397" lon="4.70695">
        <ele>614.42</ele>
        <time>2021-10-20T08:36:31Z</time>
      </trkpt>
      <trkpt lat="45.30396" lon="4.70696">
        <ele>614.42</ele>
        <time>2021-10-20T08:36:32Z</time>
      </trkpt>
      <trkpt lat="45.30395" lon="4.70697">
        <ele>614.42</ele>
        <time>2021-10-20T08:36:33Z</time>
      </trkpt>
      <trkpt lat="45.30394" lon="4.70699">
        <ele>614.42</ele>
        <time>2021-10-20T08:36:34Z</time>
      </trkpt>
      <trkpt lat="45.30394" lon="4.707">
        <ele>614.42</ele>
        <time>2021-10-20T08:36:35Z</time>
      </trkpt>
      <trkpt lat="45.30393" lon="4.70701">
        <ele>614.42</ele>
        <time>2021-10-20T08:36:36Z</time>
      </trkpt>
      <trkpt lat="45.30392" lon="4.70702">
        <ele>614.42</ele>
        <time>2021-10-20T08:36:37Z</time>
      </trkpt>
      <trkpt lat="45.30392" lon="4.70703">
        <ele>614.42</ele>
        <time>2021-10-20T08:36:38Z</time>
      </trkpt>
      <trkpt lat="45.30388" lon="4.70709">
        <ele>614.42</ele>
        <time>2021-10-20T08:36:44Z</time>
      </trkpt>
      <trkpt lat="45.30381" lon="4.70723">
        <ele>614.42</ele>
        <time>2021-10-20T08:37:00Z</time>
      </trkpt>
      <trkpt lat="45.30379" lon="4.70734">
        <ele>614.42</ele>
        <time>2021-10-20T08:37:13Z</time>
      </trkpt>
      <trkpt lat="45.30377" lon="4.7074">
        <ele>613.94</ele>
        <time>2021-10-20T08:37:29Z</time>
      </trkpt>
      <trkpt lat="45.30375" lon="4.70751">
        <ele>614.42</ele>
        <time>2021-10-20T08:37:42Z</time>
      </trkpt>
      <trkpt lat="45.30374" lon="4.70758">
        <ele>613.94</ele>
        <time>2021-10-20T08:37:56Z</time>
      </trkpt>
      <trkpt lat="45.30375" lon="4.70756">
        <ele>613.94</ele>
        <time>2021-10-20T08:38:20Z</time>
      </trkpt>
      <trkpt lat="45.30376" lon="4.70752">
        <ele>613.94</ele>
        <time>2021-10-20T08:38:23Z</time>
      </trkpt>
      <trkpt lat="45.30379" lon="4.70734">
        <ele>613.46</ele>
        <time>2021-10-20T08:38:37Z</time>
      </trkpt>
      <trkpt lat="45.30385" lon="4.7072">
        <ele>614.42</ele>
        <time>2021-10-20T08:38:52Z</time>
      </trkpt>
      <trkpt lat="45.30387" lon="4.70714">
        <ele>614.42</ele>
        <time>2021-10-20T08:38:57Z</time>
      </trkpt>
      <trkpt lat="45.30392" lon="4.70704">
        <ele>613.94</ele>
        <time>2021-10-20T08:39:07Z</time>
      </trkpt>
      <trkpt lat="45.30392" lon="4.70703">
        <ele>613.94</ele>
        <time>2021-10-20T08:39:08Z</time>
      </trkpt>
      <trkpt lat="45.30393" lon="4.70702">
        <ele>613.94</ele>
        <time>2021-10-20T08:39:09Z</time>
      </trkpt>
      <trkpt lat="45.30404" lon="4.70682">
        <ele>613.94</ele>
        <time>2021-10-20T08:39:30Z</time>
      </trkpt>
      <trkpt lat="45.30405" lon="4.7068">
        <ele>613.94</ele>
        <time>2021-10-20T08:39:32Z</time>
      </trkpt>
      <trkpt lat="45.30412" lon="4.70666">
        <ele>613.94</ele>
        <time>2021-10-20T08:39:47Z</time>
      </trkpt>
      <trkpt lat="45.30412" lon="4.70664">
        <ele>614.42</ele>
        <time>2021-10-20T08:39:51Z</time>
      </trkpt>
      <trkpt lat="45.30412" lon="4.70662">
        <ele>614.42</ele>
        <time>2021-10-20T08:39:52Z</time>
      </trkpt>
      <trkpt lat="45.30413" lon="4.70661">
        <ele>614.42</ele>
        <time>2021-10-20T08:39:53Z</time>
      </trkpt>
      <trkpt lat="45.30413" lon="4.70659">
        <ele>614.42</ele>
        <time>2021-10-20T08:39:54Z</time>
      </trkpt>
      <trkpt lat="45.30414" lon="4.70658">
        <ele>614.42</ele>
        <time>2021-10-20T08:39:55Z</time>
      </trkpt>
      <trkpt lat="45.3042" lon="4.70641">
        <ele>615.38</ele>
        <time>2021-10-20T08:40:14Z</time>
      </trkpt>
      <trkpt lat="45.30422" lon="4.70625">
        <ele>616.34</ele>
        <time>2021-10-20T08:40:30Z</time>
      </trkpt>
      <trkpt lat="45.30427" lon="4.70607">
        <ele>617.3</ele>
        <time>2021-10-20T08:40:47Z</time>
      </trkpt>
      <trkpt lat="45.30431" lon="4.70587">
        <ele>617.78</ele>
        <time>2021-10-20T08:41:04Z</time>
      </trkpt>
      <trkpt lat="45.30435" lon="4.70561">
        <ele>617.78</ele>
        <time>2021-10-20T08:41:24Z</time>
      </trkpt>
      <trkpt lat="45.30437" lon="4.70545">
        <ele>618.26</ele>
        <time>2021-10-20T08:41:38Z</time>
      </trkpt>
      <trkpt lat="45.30437" lon="4.70543">
        <ele>618.26</ele>
        <time>2021-10-20T08:41:39Z</time>
      </trkpt>
      <trkpt lat="45.30437" lon="4.70542">
        <ele>618.26</ele>
        <time>2021-10-20T08:41:40Z</time>
      </trkpt>
      <trkpt lat="45.30437" lon="4.7054">
        <ele>618.26</ele>
        <time>2021-10-20T08:41:41Z</time>
      </trkpt>
      <trkpt lat="45.30437" lon="4.70539">
        <ele>618.26</ele>
        <time>2021-10-20T08:41:42Z</time>
      </trkpt>
      <trkpt lat="45.30438" lon="4.70537">
        <ele>618.26</ele>
        <time>2021-10-20T08:41:43Z</time>
      </trkpt>
      <trkpt lat="45.30441" lon="4.70512">
        <ele>619.23</ele>
        <time>2021-10-20T08:42:02Z</time>
      </trkpt>
      <trkpt lat="45.30442" lon="4.70492">
        <ele>620.19</ele>
        <time>2021-10-20T08:42:20Z</time>
      </trkpt>
      <trkpt lat="45.30441" lon="4.70476">
        <ele>621.15</ele>
        <time>2021-10-20T08:42:34Z</time>
      </trkpt>
      <trkpt lat="45.3044" lon="4.7046">
        <ele>621.63</ele>
        <time>2021-10-20T08:42:50Z</time>
      </trkpt>
      <trkpt lat="45.30437" lon="4.70447">
        <ele>622.59</ele>
        <time>2021-10-20T08:43:06Z</time>
      </trkpt>
      <trkpt lat="45.3043" lon="4.70438">
        <ele>624.03</ele>
        <time>2021-10-20T08:43:21Z</time>
      </trkpt>
      <trkpt lat="45.30424" lon="4.70436">
        <ele>624.99</ele>
        <time>2021-10-20T08:43:35Z</time>
      </trkpt>
      <trkpt lat="45.30419" lon="4.70434">
        <ele>624.99</ele>
        <time>2021-10-20T08:43:40Z</time>
      </trkpt>
      <trkpt lat="45.30411" lon="4.70431">
        <ele>626.44</ele>
        <time>2021-10-20T08:43:54Z</time>
      </trkpt>
      <trkpt lat="45.304" lon="4.70427">
        <ele>626.92</ele>
        <time>2021-10-20T08:44:08Z</time>
      </trkpt>
      <trkpt lat="45.30397" lon="4.70426">
        <ele>626.92</ele>
        <time>2021-10-20T08:44:12Z</time>
      </trkpt>
      <trkpt lat="45.30386" lon="4.70421">
        <ele>627.88</ele>
        <time>2021-10-20T08:44:28Z</time>
      </trkpt>
      <trkpt lat="45.30375" lon="4.7041">
        <ele>628.84</ele>
        <time>2021-10-20T08:44:44Z</time>
      </trkpt>
      <trkpt lat="45.30368" lon="4.70398">
        <ele>629.8</ele>
        <time>2021-10-20T08:44:58Z</time>
      </trkpt>
      <trkpt lat="45.30366" lon="4.70381">
        <ele>631.24</ele>
        <time>2021-10-20T08:45:14Z</time>
      </trkpt>
      <trkpt lat="45.3037" lon="4.70369">
        <ele>632.68</ele>
        <time>2021-10-20T08:45:28Z</time>
      </trkpt>
      <trkpt lat="45.30376" lon="4.70359">
        <ele>634.13</ele>
        <time>2021-10-20T08:45:43Z</time>
      </trkpt>
      <trkpt lat="45.30379" lon="4.70348">
        <ele>635.09</ele>
        <time>2021-10-20T08:45:58Z</time>
      </trkpt>
      <trkpt lat="45.30383" lon="4.7033">
        <ele>636.53</ele>
        <time>2021-10-20T08:46:19Z</time>
      </trkpt>
      <trkpt lat="45.30381" lon="4.70307">
        <ele>638.45</ele>
        <time>2021-10-20T08:46:40Z</time>
      </trkpt>
      <trkpt lat="45.30375" lon="4.7029">
        <ele>640.38</ele>
        <time>2021-10-20T08:46:56Z</time>
      </trkpt>
      <trkpt lat="45.30373" lon="4.70287">
        <ele>640.38</ele>
        <time>2021-10-20T08:47:00Z</time>
      </trkpt>
      <trkpt lat="45.30368" lon="4.70274">
        <ele>642.78</ele>
        <time>2021-10-20T08:47:15Z</time>
      </trkpt>
      <trkpt lat="45.30359" lon="4.7026">
        <ele>644.22</ele>
        <time>2021-10-20T08:47:31Z</time>
      </trkpt>
      <trkpt lat="45.30356" lon="4.70242">
        <ele>645.18</ele>
        <time>2021-10-20T08:47:50Z</time>
      </trkpt>
      <trkpt lat="45.30353" lon="4.70229">
        <ele>646.62</ele>
        <time>2021-10-20T08:48:05Z</time>
      </trkpt>
      <trkpt lat="45.30349" lon="4.70217">
        <ele>648.07</ele>
        <time>2021-10-20T08:48:19Z</time>
      </trkpt>
      <trkpt lat="45.30347" lon="4.70202">
        <ele>649.51</ele>
        <time>2021-10-20T08:48:35Z</time>
      </trkpt>
      <trkpt lat="45.30347" lon="4.70186">
        <ele>650.95</ele>
        <time>2021-10-20T08:48:49Z</time>
      </trkpt>
      <trkpt lat="45.3035" lon="4.70168">
        <ele>652.87</ele>
        <time>2021-10-20T08:49:07Z</time>
      </trkpt>
      <trkpt lat="45.3035" lon="4.70149">
        <ele>654.8</ele>
        <time>2021-10-20T08:49:28Z</time>
      </trkpt>
      <trkpt lat="45.30346" lon="4.70137">
        <ele>656.24</ele>
        <time>2021-10-20T08:49:43Z</time>
      </trkpt>
      <trkpt lat="45.30338" lon="4.70121">
        <ele>658.16</ele>
        <time>2021-10-20T08:50:00Z</time>
      </trkpt>
      <trkpt lat="45.30333" lon="4.70106">
        <ele>659.6</ele>
        <time>2021-10-20T08:50:17Z</time>
      </trkpt>
      <trkpt lat="45.30326" lon="4.70088">
        <ele>661.04</ele>
        <time>2021-10-20T08:50:34Z</time>
      </trkpt>
      <trkpt lat="45.30317" lon="4.70075">
        <ele>662.49</ele>
        <time>2021-10-20T08:50:49Z</time>
      </trkpt>
      <trkpt lat="45.30307" lon="4.7006">
        <ele>663.93</ele>
        <time>2021-10-20T08:51:05Z</time>
      </trkpt>
      <trkpt lat="45.30301" lon="4.70038">
        <ele>664.41</ele>
        <time>2021-10-20T08:51:25Z</time>
      </trkpt>
      <trkpt lat="45.30302" lon="4.7002">
        <ele>665.37</ele>
        <time>2021-10-20T08:51:42Z</time>
      </trkpt>
      <trkpt lat="45.30301" lon="4.70016">
        <ele>665.85</ele>
        <time>2021-10-20T08:51:45Z</time>
      </trkpt>
      <trkpt lat="45.30296" lon="4.69996">
        <ele>666.33</ele>
        <time>2021-10-20T08:52:01Z</time>
      </trkpt>
      <trkpt lat="45.30291" lon="4.69977">
        <ele>665.85</ele>
        <time>2021-10-20T08:52:19Z</time>
      </trkpt>
      <trkpt lat="45.30291" lon="4.69976">
        <ele>665.37</ele>
        <time>2021-10-20T08:52:44Z</time>
      </trkpt>
      <trkpt lat="45.30291" lon="4.69976">
        <ele>665.37</ele>
        <time>2021-10-20T08:53:51Z</time>
      </trkpt>
      <trkpt lat="45.30289" lon="4.69972">
        <ele>665.37</ele>
        <time>2021-10-20T08:54:28Z</time>
      </trkpt>
      <trkpt lat="45.30289" lon="4.6997">
        <ele>665.37</ele>
        <time>2021-10-20T08:54:29Z</time>
      </trkpt>
      <trkpt lat="45.30288" lon="4.69966">
        <ele>665.37</ele>
        <time>2021-10-20T08:54:32Z</time>
      </trkpt>
      <trkpt lat="45.30278" lon="4.69956">
        <ele>664.41</ele>
        <time>2021-10-20T08:54:48Z</time>
      </trkpt>
      <trkpt lat="45.30276" lon="4.69955">
        <ele>664.41</ele>
        <time>2021-10-20T08:54:52Z</time>
      </trkpt>
      <trkpt lat="45.30264" lon="4.69947">
        <ele>663.93</ele>
        <time>2021-10-20T08:55:07Z</time>
      </trkpt>
      <trkpt lat="45.30256" lon="4.69937">
        <ele>662.97</ele>
        <time>2021-10-20T08:55:22Z</time>
      </trkpt>
      <trkpt lat="45.30247" lon="4.69924">
        <ele>660.56</ele>
        <time>2021-10-20T08:55:40Z</time>
      </trkpt>
      <trkpt lat="45.3024" lon="4.69914">
        <ele>659.12</ele>
        <time>2021-10-20T08:55:56Z</time>
      </trkpt>
      <trkpt lat="45.3023" lon="4.69908">
        <ele>657.68</ele>
        <time>2021-10-20T08:56:13Z</time>
      </trkpt>
      <trkpt lat="45.30224" lon="4.69917">
        <ele>658.16</ele>
        <time>2021-10-20T08:56:27Z</time>
      </trkpt>
      <trkpt lat="45.30216" lon="4.69925">
        <ele>660.08</ele>
        <time>2021-10-20T08:56:43Z</time>
      </trkpt>
      <trkpt lat="45.3021" lon="4.69934">
        <ele>662.01</ele>
        <time>2021-10-20T08:56:58Z</time>
      </trkpt>
      <trkpt lat="45.302" lon="4.69949">
        <ele>663.93</ele>
        <time>2021-10-20T08:57:17Z</time>
      </trkpt>
      <trkpt lat="45.30199" lon="4.69951">
        <ele>663.93</ele>
        <time>2021-10-20T08:57:20Z</time>
      </trkpt>
      <trkpt lat="45.30186" lon="4.69958">
        <ele>665.37</ele>
        <time>2021-10-20T08:57:39Z</time>
      </trkpt>
      <trkpt lat="45.30174" lon="4.69965">
        <ele>666.81</ele>
        <time>2021-10-20T08:57:56Z</time>
      </trkpt>
      <trkpt lat="45.30166" lon="4.69975">
        <ele>667.77</ele>
        <time>2021-10-20T08:58:10Z</time>
      </trkpt>
      <trkpt lat="45.30156" lon="4.69985">
        <ele>669.22</ele>
        <time>2021-10-20T08:58:26Z</time>
      </trkpt>
      <trkpt lat="45.30147" lon="4.69991">
        <ele>671.62</ele>
        <time>2021-10-20T08:58:43Z</time>
      </trkpt>
      <trkpt lat="45.30138" lon="4.7">
        <ele>673.54</ele>
        <time>2021-10-20T08:58:59Z</time>
      </trkpt>
      <trkpt lat="45.3013" lon="4.70006">
        <ele>674.5</ele>
        <time>2021-10-20T08:59:13Z</time>
      </trkpt>
      <trkpt lat="45.30119" lon="4.70012">
        <ele>676.42</ele>
        <time>2021-10-20T08:59:30Z</time>
      </trkpt>
      <trkpt lat="45.30106" lon="4.70018">
        <ele>677.39</ele>
        <time>2021-10-20T08:59:46Z</time>
      </trkpt>
      <trkpt lat="45.30093" lon="4.70026">
        <ele>678.83</ele>
        <time>2021-10-20T09:00:03Z</time>
      </trkpt>
      <trkpt lat="45.30089" lon="4.70028">
        <ele>678.83</ele>
        <time>2021-10-20T09:00:08Z</time>
      </trkpt>
      <trkpt lat="45.30076" lon="4.70034">
        <ele>678.83</ele>
        <time>2021-10-20T09:00:23Z</time>
      </trkpt>
      <trkpt lat="45.30058" lon="4.7004">
        <ele>678.83</ele>
        <time>2021-10-20T09:00:42Z</time>
      </trkpt>
      <trkpt lat="45.30051" lon="4.70042">
        <ele>679.31</ele>
        <time>2021-10-20T09:00:49Z</time>
      </trkpt>
      <trkpt lat="45.30034" lon="4.7004">
        <ele>679.31</ele>
        <time>2021-10-20T09:01:07Z</time>
      </trkpt>
      <trkpt lat="45.30032" lon="4.70037">
        <ele>680.27</ele>
        <time>2021-10-20T09:01:21Z</time>
      </trkpt>
      <trkpt lat="45.3003" lon="4.7003">
        <ele>681.23</ele>
        <time>2021-10-20T09:01:35Z</time>
      </trkpt>
      <trkpt lat="45.30028" lon="4.70016">
        <ele>684.6</ele>
        <time>2021-10-20T09:01:51Z</time>
      </trkpt>
      <trkpt lat="45.30029" lon="4.70004">
        <ele>687</ele>
        <time>2021-10-20T09:02:09Z</time>
      </trkpt>
      <trkpt lat="45.30031" lon="4.69995">
        <ele>689.4</ele>
        <time>2021-10-20T09:02:22Z</time>
      </trkpt>
      <trkpt lat="45.3003" lon="4.69977">
        <ele>691.81</ele>
        <time>2021-10-20T09:02:43Z</time>
      </trkpt>
      <trkpt lat="45.30029" lon="4.69961">
        <ele>692.77</ele>
        <time>2021-10-20T09:03:00Z</time>
      </trkpt>
      <trkpt lat="45.30027" lon="4.69949">
        <ele>694.21</ele>
        <time>2021-10-20T09:03:14Z</time>
      </trkpt>
      <trkpt lat="45.30026" lon="4.69937">
        <ele>693.73</ele>
        <time>2021-10-20T09:03:28Z</time>
      </trkpt>
      <trkpt lat="45.30026" lon="4.69931">
        <ele>694.21</ele>
        <time>2021-10-20T09:03:36Z</time>
      </trkpt>
      <trkpt lat="45.30029" lon="4.69931">
        <ele>694.21</ele>
        <time>2021-10-20T09:03:51Z</time>
      </trkpt>
      <trkpt lat="45.3003" lon="4.69932">
        <ele>692.77</ele>
        <time>2021-10-20T09:04:19Z</time>
      </trkpt>
      <trkpt lat="45.3003" lon="4.69931">
        <ele>692.77</ele>
        <time>2021-10-20T09:04:50Z</time>
      </trkpt>
      <trkpt lat="45.30031" lon="4.69932">
        <ele>693.25</ele>
        <time>2021-10-20T09:05:35Z</time>
      </trkpt>
      <trkpt lat="45.30031" lon="4.69931">
        <ele>693.25</ele>
        <time>2021-10-20T09:06:02Z</time>
      </trkpt>
      <trkpt lat="45.30031" lon="4.69931">
        <ele>693.25</ele>
        <time>2021-10-20T09:06:56Z</time>
      </trkpt>
      <trkpt lat="45.3003" lon="4.6993">
        <ele>693.25</ele>
        <time>2021-10-20T09:07:34Z</time>
      </trkpt>
      <trkpt lat="45.3003" lon="4.6993">
        <ele>693.25</ele>
        <time>2021-10-20T09:07:59Z</time>
      </trkpt>
      <trkpt lat="45.30029" lon="4.69929">
        <ele>693.25</ele>
        <time>2021-10-20T09:08:14Z</time>
      </trkpt>
      <trkpt lat="45.30029" lon="4.6993">
        <ele>693.25</ele>
        <time>2021-10-20T09:08:32Z</time>
      </trkpt>
      <trkpt lat="45.30027" lon="4.69928">
        <ele>693.25</ele>
        <time>2021-10-20T09:08:48Z</time>
      </trkpt>
      <trkpt lat="45.30027" lon="4.69928">
        <ele>693.25</ele>
        <time>2021-10-20T09:09:10Z</time>
      </trkpt>
      <trkpt lat="45.30025" lon="4.69933">
        <ele>693.25</ele>
        <time>2021-10-20T09:09:28Z</time>
      </trkpt>
      <trkpt lat="45.30024" lon="4.69935">
        <ele>693.25</ele>
        <time>2021-10-20T09:09:46Z</time>
      </trkpt>
      <trkpt lat="45.30023" lon="4.69939">
        <ele>693.25</ele>
        <time>2021-10-20T09:10:14Z</time>
      </trkpt>
      <trkpt lat="45.30022" lon="4.69941">
        <ele>693.25</ele>
        <time>2021-10-20T09:10:25Z</time>
      </trkpt>
      <trkpt lat="45.30022" lon="4.69947">
        <ele>693.25</ele>
        <time>2021-10-20T09:10:39Z</time>
      </trkpt>
      <trkpt lat="45.30023" lon="4.69952">
        <ele>693.25</ele>
        <time>2021-10-20T09:10:59Z</time>
      </trkpt>
      <trkpt lat="45.30023" lon="4.69955">
        <ele>693.25</ele>
        <time>2021-10-20T09:11:03Z</time>
      </trkpt>
      <trkpt lat="45.30022" lon="4.69957">
        <ele>693.25</ele>
        <time>2021-10-20T09:11:05Z</time>
      </trkpt>
      <trkpt lat="45.3002" lon="4.6996">
        <ele>693.25</ele>
        <time>2021-10-20T09:11:07Z</time>
      </trkpt>
      <trkpt lat="45.30006" lon="4.69973">
        <ele>691.81</ele>
        <time>2021-10-20T09:11:26Z</time>
      </trkpt>
      <trkpt lat="45.30002" lon="4.69987">
        <ele>689.4</ele>
        <time>2021-10-20T09:11:42Z</time>
      </trkpt>
      <trkpt lat="45.30003" lon="4.70002">
        <ele>687</ele>
        <time>2021-10-20T09:11:58Z</time>
      </trkpt>
      <trkpt lat="45.30001" lon="4.70015">
        <ele>685.08</ele>
        <time>2021-10-20T09:12:15Z</time>
      </trkpt>
      <trkpt lat="45.29997" lon="4.70025">
        <ele>682.19</ele>
        <time>2021-10-20T09:12:29Z</time>
      </trkpt>
      <trkpt lat="45.29999" lon="4.70031">
        <ele>681.23</ele>
        <time>2021-10-20T09:12:41Z</time>
      </trkpt>
      <trkpt lat="45.29998" lon="4.70031">
        <ele>681.23</ele>
        <time>2021-10-20T09:13:05Z</time>
      </trkpt>
      <trkpt lat="45.29997" lon="4.7003">
        <ele>681.23</ele>
        <time>2021-10-20T09:13:06Z</time>
      </trkpt>
      <trkpt lat="45.29996" lon="4.70029">
        <ele>681.23</ele>
        <time>2021-10-20T09:13:07Z</time>
      </trkpt>
      <trkpt lat="45.29995" lon="4.70028">
        <ele>681.23</ele>
        <time>2021-10-20T09:13:08Z</time>
      </trkpt>
      <trkpt lat="45.29994" lon="4.70028">
        <ele>681.23</ele>
        <time>2021-10-20T09:13:09Z</time>
      </trkpt>
      <trkpt lat="45.29993" lon="4.70028">
        <ele>681.23</ele>
        <time>2021-10-20T09:13:10Z</time>
      </trkpt>
      <trkpt lat="45.29979" lon="4.70019">
        <ele>680.27</ele>
        <time>2021-10-20T09:13:25Z</time>
      </trkpt>
      <trkpt lat="45.29963" lon="4.70006">
        <ele>678.83</ele>
        <time>2021-10-20T09:13:42Z</time>
      </trkpt>
      <trkpt lat="45.29946" lon="4.69999">
        <ele>676.42</ele>
        <time>2021-10-20T09:14:01Z</time>
      </trkpt>
      <trkpt lat="45.29928" lon="4.69993">
        <ele>674.5</ele>
        <time>2021-10-20T09:14:21Z</time>
      </trkpt>
      <trkpt lat="45.29926" lon="4.69992">
        <ele>674.5</ele>
        <time>2021-10-20T09:14:22Z</time>
      </trkpt>
      <trkpt lat="45.29921" lon="4.6999">
        <ele>674.02</ele>
        <time>2021-10-20T09:14:28Z</time>
      </trkpt>
      <trkpt lat="45.2992" lon="4.6999">
        <ele>674.02</ele>
        <time>2021-10-20T09:14:29Z</time>
      </trkpt>
      <trkpt lat="45.29907" lon="4.69984">
        <ele>672.1</ele>
        <time>2021-10-20T09:14:46Z</time>
      </trkpt>
      <trkpt lat="45.29894" lon="4.69979">
        <ele>670.66</ele>
        <time>2021-10-20T09:15:02Z</time>
      </trkpt>
      <trkpt lat="45.29886" lon="4.69989">
        <ele>669.7</ele>
        <time>2021-10-20T09:15:16Z</time>
      </trkpt>
      <trkpt lat="45.29881" lon="4.69994">
        <ele>669.22</ele>
        <time>2021-10-20T09:15:22Z</time>
      </trkpt>
      <trkpt lat="45.2987" lon="4.70002">
        <ele>667.29</ele>
        <time>2021-10-20T09:15:37Z</time>
      </trkpt>
      <trkpt lat="45.29864" lon="4.70008">
        <ele>666.81</ele>
        <time>2021-10-20T09:15:45Z</time>
      </trkpt>
      <trkpt lat="45.29856" lon="4.70017">
        <ele>665.37</ele>
        <time>2021-10-20T09:16:00Z</time>
      </trkpt>
      <trkpt lat="45.29849" lon="4.70027">
        <ele>663.93</ele>
        <time>2021-10-20T09:16:15Z</time>
      </trkpt>
      <trkpt lat="45.29842" lon="4.70042">
        <ele>662.49</ele>
        <time>2021-10-20T09:16:32Z</time>
      </trkpt>
      <trkpt lat="45.2984" lon="4.70053">
        <ele>661.04</ele>
        <time>2021-10-20T09:16:46Z</time>
      </trkpt>
      <trkpt lat="45.29838" lon="4.70064">
        <ele>659.6</ele>
        <time>2021-10-20T09:16:59Z</time>
      </trkpt>
      <trkpt lat="45.29838" lon="4.70077">
        <ele>657.68</ele>
        <time>2021-10-20T09:17:11Z</time>
      </trkpt>
      <trkpt lat="45.29838" lon="4.70098">
        <ele>655.76</ele>
        <time>2021-10-20T09:17:29Z</time>
      </trkpt>
      <trkpt lat="45.2984" lon="4.70114">
        <ele>654.31</ele>
        <time>2021-10-20T09:17:45Z</time>
      </trkpt>
      <trkpt lat="45.29847" lon="4.70131">
        <ele>652.39</ele>
        <time>2021-10-20T09:18:01Z</time>
      </trkpt>
      <trkpt lat="45.29854" lon="4.70154">
        <ele>650.47</ele>
        <time>2021-10-20T09:18:20Z</time>
      </trkpt>
      <trkpt lat="45.29863" lon="4.70168">
        <ele>649.51</ele>
        <time>2021-10-20T09:18:35Z</time>
      </trkpt>
      <trkpt lat="45.29874" lon="4.70184">
        <ele>647.59</ele>
        <time>2021-10-20T09:18:52Z</time>
      </trkpt>
      <trkpt lat="45.29886" lon="4.70195">
        <ele>647.1</ele>
        <time>2021-10-20T09:19:08Z</time>
      </trkpt>
      <trkpt lat="45.29891" lon="4.70205">
        <ele>646.14</ele>
        <time>2021-10-20T09:19:24Z</time>
      </trkpt>
      <trkpt lat="45.29896" lon="4.70218">
        <ele>644.22</ele>
        <time>2021-10-20T09:19:40Z</time>
      </trkpt>
      <trkpt lat="45.299" lon="4.70231">
        <ele>641.82</ele>
        <time>2021-10-20T09:19:56Z</time>
      </trkpt>
      <trkpt lat="45.29901" lon="4.7024">
        <ele>641.34</ele>
        <time>2021-10-20T09:20:09Z</time>
      </trkpt>
      <trkpt lat="45.29899" lon="4.70244">
        <ele>639.89</ele>
        <time>2021-10-20T09:20:22Z</time>
      </trkpt>
      <trkpt lat="45.299" lon="4.70244">
        <ele>640.38</ele>
        <time>2021-10-20T09:20:43Z</time>
      </trkpt>
      <trkpt lat="45.29913" lon="4.70251">
        <ele>639.41</ele>
        <time>2021-10-20T09:21:01Z</time>
      </trkpt>
      <trkpt lat="45.29931" lon="4.70258">
        <ele>639.41</ele>
        <time>2021-10-20T09:21:19Z</time>
      </trkpt>
      <trkpt lat="45.29955" lon="4.70263">
        <ele>639.89</ele>
        <time>2021-10-20T09:21:41Z</time>
      </trkpt>
      <trkpt lat="45.29968" lon="4.70265">
        <ele>640.38</ele>
        <time>2021-10-20T09:21:59Z</time>
      </trkpt>
      <trkpt lat="45.2997" lon="4.70265">
        <ele>640.38</ele>
        <time>2021-10-20T09:22:04Z</time>
      </trkpt>
      <trkpt lat="45.29971" lon="4.70266">
        <ele>640.38</ele>
        <time>2021-10-20T09:22:05Z</time>
      </trkpt>
      <trkpt lat="45.29972" lon="4.70266">
        <ele>640.38</ele>
        <time>2021-10-20T09:22:06Z</time>
      </trkpt>
      <trkpt lat="45.29973" lon="4.70266">
        <ele>640.38</ele>
        <time>2021-10-20T09:22:07Z</time>
      </trkpt>
      <trkpt lat="45.29974" lon="4.70266">
        <ele>640.38</ele>
        <time>2021-10-20T09:22:08Z</time>
      </trkpt>
      <trkpt lat="45.29995" lon="4.70267">
        <ele>638.93</ele>
        <time>2021-10-20T09:22:27Z</time>
      </trkpt>
      <trkpt lat="45.3002" lon="4.70271">
        <ele>637.49</ele>
        <time>2021-10-20T09:22:49Z</time>
      </trkpt>
      <trkpt lat="45.30042" lon="4.70279">
        <ele>635.57</ele>
        <time>2021-10-20T09:23:12Z</time>
      </trkpt>
      <trkpt lat="45.30046" lon="4.70278">
        <ele>635.09</ele>
        <time>2021-10-20T09:23:28Z</time>
      </trkpt>
      <trkpt lat="45.30047" lon="4.70278">
        <ele>634.61</ele>
        <time>2021-10-20T09:23:45Z</time>
      </trkpt>
      <trkpt lat="45.30047" lon="4.70278">
        <ele>634.13</ele>
        <time>2021-10-20T09:24:12Z</time>
      </trkpt>
      <trkpt lat="45.30048" lon="4.70278">
        <ele>634.13</ele>
        <time>2021-10-20T09:24:39Z</time>
      </trkpt>
      <trkpt lat="45.30048" lon="4.70277">
        <ele>634.61</ele>
        <time>2021-10-20T09:25:03Z</time>
      </trkpt>
      <trkpt lat="45.30048" lon="4.70277">
        <ele>634.61</ele>
        <time>2021-10-20T09:25:35Z</time>
      </trkpt>
      <trkpt lat="45.30048" lon="4.70276">
        <ele>634.61</ele>
        <time>2021-10-20T09:26:13Z</time>
      </trkpt>
      <trkpt lat="45.30054" lon="4.70277">
        <ele>634.61</ele>
        <time>2021-10-20T09:26:41Z</time>
      </trkpt>
      <trkpt lat="45.30059" lon="4.70278">
        <ele>633.65</ele>
        <time>2021-10-20T09:26:48Z</time>
      </trkpt>
      <trkpt lat="45.3006" lon="4.70278">
        <ele>633.65</ele>
        <time>2021-10-20T09:26:49Z</time>
      </trkpt>
      <trkpt lat="45.30071" lon="4.70279">
        <ele>631.24</ele>
        <time>2021-10-20T09:27:04Z</time>
      </trkpt>
      <trkpt lat="45.30082" lon="4.70279">
        <ele>630.28</ele>
        <time>2021-10-20T09:27:20Z</time>
      </trkpt>
      <trkpt lat="45.30088" lon="4.70277">
        <ele>630.28</ele>
        <time>2021-10-20T09:27:27Z</time>
      </trkpt>
      <trkpt lat="45.30104" lon="4.70273">
        <ele>629.32</ele>
        <time>2021-10-20T09:27:43Z</time>
      </trkpt>
      <trkpt lat="45.3012" lon="4.70268">
        <ele>628.36</ele>
        <time>2021-10-20T09:27:58Z</time>
      </trkpt>
      <trkpt lat="45.30139" lon="4.70265">
        <ele>627.88</ele>
        <time>2021-10-20T09:28:15Z</time>
      </trkpt>
      <trkpt lat="45.30157" lon="4.70273">
        <ele>628.84</ele>
        <time>2021-10-20T09:28:33Z</time>
      </trkpt>
      <trkpt lat="45.30172" lon="4.7028">
        <ele>630.28</ele>
        <time>2021-10-20T09:28:49Z</time>
      </trkpt>
      <trkpt lat="45.30192" lon="4.7029">
        <ele>631.72</ele>
        <time>2021-10-20T09:29:08Z</time>
      </trkpt>
      <trkpt lat="45.30208" lon="4.70295">
        <ele>633.65</ele>
        <time>2021-10-20T09:29:25Z</time>
      </trkpt>
      <trkpt lat="45.30228" lon="4.70307">
        <ele>634.61</ele>
        <time>2021-10-20T09:29:46Z</time>
      </trkpt>
      <trkpt lat="45.30243" lon="4.70313">
        <ele>636.05</ele>
        <time>2021-10-20T09:30:01Z</time>
      </trkpt>
      <trkpt lat="45.30244" lon="4.70313">
        <ele>635.57</ele>
        <time>2021-10-20T09:30:02Z</time>
      </trkpt>
      <trkpt lat="45.30245" lon="4.70314">
        <ele>635.57</ele>
        <time>2021-10-20T09:30:03Z</time>
      </trkpt>
      <trkpt lat="45.30246" lon="4.70314">
        <ele>635.57</ele>
        <time>2021-10-20T09:30:04Z</time>
      </trkpt>
      <trkpt lat="45.30247" lon="4.70314">
        <ele>635.57</ele>
        <time>2021-10-20T09:30:05Z</time>
      </trkpt>
      <trkpt lat="45.30249" lon="4.70314">
        <ele>636.05</ele>
        <time>2021-10-20T09:30:06Z</time>
      </trkpt>
      <trkpt lat="45.3025" lon="4.70314">
        <ele>636.05</ele>
        <time>2021-10-20T09:30:07Z</time>
      </trkpt>
      <trkpt lat="45.30251" lon="4.70315">
        <ele>636.53</ele>
        <time>2021-10-20T09:30:08Z</time>
      </trkpt>
      <trkpt lat="45.30268" lon="4.70316">
        <ele>637.01</ele>
        <time>2021-10-20T09:30:26Z</time>
      </trkpt>
      <trkpt lat="45.30278" lon="4.70315">
        <ele>637.97</ele>
        <time>2021-10-20T09:30:39Z</time>
      </trkpt>
      <trkpt lat="45.30285" lon="4.70311">
        <ele>638.93</ele>
        <time>2021-10-20T09:30:46Z</time>
      </trkpt>
      <trkpt lat="45.30286" lon="4.70311">
        <ele>639.41</ele>
        <time>2021-10-20T09:30:47Z</time>
      </trkpt>
      <trkpt lat="45.303" lon="4.70301">
        <ele>640.86</ele>
        <time>2021-10-20T09:31:03Z</time>
      </trkpt>
      <trkpt lat="45.30305" lon="4.70296">
        <ele>641.34</ele>
        <time>2021-10-20T09:31:10Z</time>
      </trkpt>
      <trkpt lat="45.3031" lon="4.70292">
        <ele>642.78</ele>
        <time>2021-10-20T09:31:15Z</time>
      </trkpt>
      <trkpt lat="45.30313" lon="4.7029">
        <ele>642.78</ele>
        <time>2021-10-20T09:31:18Z</time>
      </trkpt>
      <trkpt lat="45.30326" lon="4.7028">
        <ele>644.7</ele>
        <time>2021-10-20T09:31:34Z</time>
      </trkpt>
      <trkpt lat="45.30343" lon="4.70271">
        <ele>646.62</ele>
        <time>2021-10-20T09:31:55Z</time>
      </trkpt>
      <trkpt lat="45.30354" lon="4.70261">
        <ele>647.59</ele>
        <time>2021-10-20T09:32:11Z</time>
      </trkpt>
      <trkpt lat="45.30354" lon="4.70253">
        <ele>648.07</ele>
        <time>2021-10-20T09:32:17Z</time>
      </trkpt>
      <trkpt lat="45.30354" lon="4.70232">
        <ele>649.03</ele>
        <time>2021-10-20T09:32:34Z</time>
      </trkpt>
      <trkpt lat="45.3035" lon="4.70212">
        <ele>651.43</ele>
        <time>2021-10-20T09:32:52Z</time>
      </trkpt>
      <trkpt lat="45.30348" lon="4.70193">
        <ele>653.35</ele>
        <time>2021-10-20T09:33:09Z</time>
      </trkpt>
      <trkpt lat="45.30349" lon="4.70179">
        <ele>654.8</ele>
        <time>2021-10-20T09:33:21Z</time>
      </trkpt>
      <trkpt lat="45.30352" lon="4.70162">
        <ele>656.24</ele>
        <time>2021-10-20T09:33:37Z</time>
      </trkpt>
      <trkpt lat="45.30352" lon="4.70146">
        <ele>658.64</ele>
        <time>2021-10-20T09:33:51Z</time>
      </trkpt>
      <trkpt lat="45.30345" lon="4.70129">
        <ele>660.56</ele>
        <time>2021-10-20T09:34:07Z</time>
      </trkpt>
      <trkpt lat="45.30338" lon="4.70108">
        <ele>661.52</ele>
        <time>2021-10-20T09:34:26Z</time>
      </trkpt>
      <trkpt lat="45.3033" lon="4.7009">
        <ele>663.45</ele>
        <time>2021-10-20T09:34:44Z</time>
      </trkpt>
      <trkpt lat="45.30325" lon="4.70079">
        <ele>663.93</ele>
        <time>2021-10-20T09:34:58Z</time>
      </trkpt>
      <trkpt lat="45.30311" lon="4.70062">
        <ele>666.33</ele>
        <time>2021-10-20T09:35:17Z</time>
      </trkpt>
      <trkpt lat="45.30304" lon="4.70043">
        <ele>667.29</ele>
        <time>2021-10-20T09:35:34Z</time>
      </trkpt>
      <trkpt lat="45.30302" lon="4.70024">
        <ele>667.77</ele>
        <time>2021-10-20T09:35:51Z</time>
      </trkpt>
      <trkpt lat="45.303" lon="4.70006">
        <ele>667.77</ele>
        <time>2021-10-20T09:36:07Z</time>
      </trkpt>
      <trkpt lat="45.30294" lon="4.69985">
        <ele>668.73</ele>
        <time>2021-10-20T09:36:24Z</time>
      </trkpt>
      <trkpt lat="45.30294" lon="4.69965">
        <ele>667.29</ele>
        <time>2021-10-20T09:36:41Z</time>
      </trkpt>
      <trkpt lat="45.30305" lon="4.69967">
        <ele>668.73</ele>
        <time>2021-10-20T09:36:59Z</time>
      </trkpt>
      <trkpt lat="45.30312" lon="4.69969">
        <ele>670.18</ele>
        <time>2021-10-20T09:37:12Z</time>
      </trkpt>
      <trkpt lat="45.30322" lon="4.69973">
        <ele>672.58</ele>
        <time>2021-10-20T09:37:30Z</time>
      </trkpt>
      <trkpt lat="45.30334" lon="4.69978">
        <ele>674.5</ele>
        <time>2021-10-20T09:37:48Z</time>
      </trkpt>
      <trkpt lat="45.30339" lon="4.69979">
        <ele>674.98</ele>
        <time>2021-10-20T09:37:53Z</time>
      </trkpt>
      <trkpt lat="45.30357" lon="4.69979">
        <ele>674.98</ele>
        <time>2021-10-20T09:38:10Z</time>
      </trkpt>
      <trkpt lat="45.30358" lon="4.69979">
        <ele>674.98</ele>
        <time>2021-10-20T09:38:11Z</time>
      </trkpt>
      <trkpt lat="45.3036" lon="4.69979">
        <ele>674.98</ele>
        <time>2021-10-20T09:38:13Z</time>
      </trkpt>
      <trkpt lat="45.30378" lon="4.69984">
        <ele>675.46</ele>
        <time>2021-10-20T09:38:32Z</time>
      </trkpt>
      <trkpt lat="45.30395" lon="4.69988">
        <ele>676.91</ele>
        <time>2021-10-20T09:38:52Z</time>
      </trkpt>
      <trkpt lat="45.30405" lon="4.69991">
        <ele>676.91</ele>
        <time>2021-10-20T09:39:02Z</time>
      </trkpt>
      <trkpt lat="45.30406" lon="4.69991">
        <ele>676.91</ele>
        <time>2021-10-20T09:39:03Z</time>
      </trkpt>
      <trkpt lat="45.30426" lon="4.69996">
        <ele>678.35</ele>
        <time>2021-10-20T09:39:24Z</time>
      </trkpt>
      <trkpt lat="45.30448" lon="4.70003">
        <ele>678.83</ele>
        <time>2021-10-20T09:39:46Z</time>
      </trkpt>
      <trkpt lat="45.30471" lon="4.7001">
        <ele>679.31</ele>
        <time>2021-10-20T09:40:09Z</time>
      </trkpt>
      <trkpt lat="45.3049" lon="4.70018">
        <ele>678.83</ele>
        <time>2021-10-20T09:40:28Z</time>
      </trkpt>
      <trkpt lat="45.30516" lon="4.70023">
        <ele>678.83</ele>
        <time>2021-10-20T09:40:51Z</time>
      </trkpt>
      <trkpt lat="45.30535" lon="4.70015">
        <ele>679.31</ele>
        <time>2021-10-20T09:41:10Z</time>
      </trkpt>
      <trkpt lat="45.30549" lon="4.70008">
        <ele>678.35</ele>
        <time>2021-10-20T09:41:26Z</time>
      </trkpt>
      <trkpt lat="45.30569" lon="4.69999">
        <ele>678.35</ele>
        <time>2021-10-20T09:41:46Z</time>
      </trkpt>
      <trkpt lat="45.30591" lon="4.69991">
        <ele>678.83</ele>
        <time>2021-10-20T09:42:08Z</time>
      </trkpt>
      <trkpt lat="45.30603" lon="4.69991">
        <ele>678.83</ele>
        <time>2021-10-20T09:42:22Z</time>
      </trkpt>
      <trkpt lat="45.3062" lon="4.69989">
        <ele>679.31</ele>
        <time>2021-10-20T09:42:40Z</time>
      </trkpt>
      <trkpt lat="45.30642" lon="4.69991">
        <ele>681.23</ele>
        <time>2021-10-20T09:43:02Z</time>
      </trkpt>
      <trkpt lat="45.3066" lon="4.69997">
        <ele>680.75</ele>
        <time>2021-10-20T09:43:19Z</time>
      </trkpt>
      <trkpt lat="45.30681" lon="4.70007">
        <ele>678.83</ele>
        <time>2021-10-20T09:43:40Z</time>
      </trkpt>
      <trkpt lat="45.307" lon="4.70016">
        <ele>677.39</ele>
        <time>2021-10-20T09:44:00Z</time>
      </trkpt>
      <trkpt lat="45.30718" lon="4.70025">
        <ele>676.42</ele>
        <time>2021-10-20T09:44:19Z</time>
      </trkpt>
      <trkpt lat="45.30727" lon="4.7003">
        <ele>674.98</ele>
        <time>2021-10-20T09:44:29Z</time>
      </trkpt>
      <trkpt lat="45.30744" lon="4.70032">
        <ele>673.54</ele>
        <time>2021-10-20T09:44:46Z</time>
      </trkpt>
      <trkpt lat="45.30755" lon="4.70038">
        <ele>671.62</ele>
        <time>2021-10-20T09:45:04Z</time>
      </trkpt>
      <trkpt lat="45.30763" lon="4.7004">
        <ele>670.18</ele>
        <time>2021-10-20T09:45:20Z</time>
      </trkpt>
      <trkpt lat="45.30776" lon="4.70044">
        <ele>667.77</ele>
        <time>2021-10-20T09:45:37Z</time>
      </trkpt>
      <trkpt lat="45.3079" lon="4.70049">
        <ele>666.33</ele>
        <time>2021-10-20T09:45:56Z</time>
      </trkpt>
      <trkpt lat="45.30803" lon="4.70047">
        <ele>665.37</ele>
        <time>2021-10-20T09:46:12Z</time>
      </trkpt>
      <trkpt lat="45.30815" lon="4.70049">
        <ele>664.41</ele>
        <time>2021-10-20T09:46:27Z</time>
      </trkpt>
      <trkpt lat="45.30827" lon="4.70049">
        <ele>662.49</ele>
        <time>2021-10-20T09:46:45Z</time>
      </trkpt>
      <trkpt lat="45.30833" lon="4.70036">
        <ele>662.49</ele>
        <time>2021-10-20T09:47:00Z</time>
      </trkpt>
      <trkpt lat="45.30841" lon="4.70022">
        <ele>659.6</ele>
        <time>2021-10-20T09:47:18Z</time>
      </trkpt>
      <trkpt lat="45.30848" lon="4.7001">
        <ele>658.16</ele>
        <time>2021-10-20T09:47:34Z</time>
      </trkpt>
      <trkpt lat="45.30852" lon="4.69998">
        <ele>656.72</ele>
        <time>2021-10-20T09:47:45Z</time>
      </trkpt>
      <trkpt lat="45.30853" lon="4.69977">
        <ele>655.76</ele>
        <time>2021-10-20T09:48:01Z</time>
      </trkpt>
      <trkpt lat="45.30854" lon="4.69956">
        <ele>655.76</ele>
        <time>2021-10-20T09:48:17Z</time>
      </trkpt>
      <trkpt lat="45.30853" lon="4.69933">
        <ele>655.28</ele>
        <time>2021-10-20T09:48:35Z</time>
      </trkpt>
      <trkpt lat="45.30852" lon="4.69912">
        <ele>654.8</ele>
        <time>2021-10-20T09:48:52Z</time>
      </trkpt>
      <trkpt lat="45.30852" lon="4.69896">
        <ele>654.8</ele>
        <time>2021-10-20T09:49:10Z</time>
      </trkpt>
      <trkpt lat="45.30851" lon="4.69878">
        <ele>653.83</ele>
        <time>2021-10-20T09:49:30Z</time>
      </trkpt>
      <trkpt lat="45.30851" lon="4.69862">
        <ele>651.43</ele>
        <time>2021-10-20T09:49:44Z</time>
      </trkpt>
      <trkpt lat="45.30848" lon="4.69846">
        <ele>651.43</ele>
        <time>2021-10-20T09:50:01Z</time>
      </trkpt>
      <trkpt lat="45.30851" lon="4.6983">
        <ele>648.55</ele>
        <time>2021-10-20T09:50:19Z</time>
      </trkpt>
      <trkpt lat="45.30852" lon="4.69824">
        <ele>647.59</ele>
        <time>2021-10-20T09:50:25Z</time>
      </trkpt>
      <trkpt lat="45.30848" lon="4.69809">
        <ele>646.62</ele>
        <time>2021-10-20T09:50:40Z</time>
      </trkpt>
      <trkpt lat="45.30847" lon="4.69803">
        <ele>647.1</ele>
        <time>2021-10-20T09:50:59Z</time>
      </trkpt>
      <trkpt lat="45.30846" lon="4.69794">
        <ele>646.62</ele>
        <time>2021-10-20T09:51:15Z</time>
      </trkpt>
      <trkpt lat="45.30845" lon="4.69785">
        <ele>645.18</ele>
        <time>2021-10-20T09:51:29Z</time>
      </trkpt>
      <trkpt lat="45.30845" lon="4.69777">
        <ele>643.26</ele>
        <time>2021-10-20T09:51:47Z</time>
      </trkpt>
      <trkpt lat="45.30845" lon="4.69765">
        <ele>640.38</ele>
        <time>2021-10-20T09:52:18Z</time>
      </trkpt>
      <trkpt lat="45.30848" lon="4.69756">
        <ele>637.97</ele>
        <time>2021-10-20T09:52:35Z</time>
      </trkpt>
      <trkpt lat="45.30849" lon="4.69745">
        <ele>634.61</ele>
        <time>2021-10-20T09:52:53Z</time>
      </trkpt>
      <trkpt lat="45.30848" lon="4.69744">
        <ele>634.61</ele>
        <time>2021-10-20T09:52:54Z</time>
      </trkpt>
      <trkpt lat="45.30849" lon="4.69727">
        <ele>632.2</ele>
        <time>2021-10-20T09:53:10Z</time>
      </trkpt>
      <trkpt lat="45.30848" lon="4.69704">
        <ele>631.24</ele>
        <time>2021-10-20T09:53:26Z</time>
      </trkpt>
      <trkpt lat="45.30845" lon="4.6968">
        <ele>630.76</ele>
        <time>2021-10-20T09:53:46Z</time>
      </trkpt>
      <trkpt lat="45.30838" lon="4.69649">
        <ele>630.76</ele>
        <time>2021-10-20T09:54:10Z</time>
      </trkpt>
      <trkpt lat="45.30831" lon="4.69625">
        <ele>630.76</ele>
        <time>2021-10-20T09:54:28Z</time>
      </trkpt>
      <trkpt lat="45.30825" lon="4.69606">
        <ele>631.72</ele>
        <time>2021-10-20T09:54:43Z</time>
      </trkpt>
      <trkpt lat="45.30817" lon="4.69581">
        <ele>632.68</ele>
        <time>2021-10-20T09:55:01Z</time>
      </trkpt>
      <trkpt lat="45.30813" lon="4.69565">
        <ele>632.2</ele>
        <time>2021-10-20T09:55:15Z</time>
      </trkpt>
      <trkpt lat="45.3081" lon="4.69534">
        <ele>631.24</ele>
        <time>2021-10-20T09:55:38Z</time>
      </trkpt>
      <trkpt lat="45.30807" lon="4.69507">
        <ele>631.24</ele>
        <time>2021-10-20T09:55:57Z</time>
      </trkpt>
      <trkpt lat="45.30801" lon="4.69482">
        <ele>631.72</ele>
        <time>2021-10-20T09:56:14Z</time>
      </trkpt>
      <trkpt lat="45.30795" lon="4.69459">
        <ele>632.2</ele>
        <time>2021-10-20T09:56:32Z</time>
      </trkpt>
      <trkpt lat="45.30794" lon="4.69459">
        <ele>632.2</ele>
        <time>2021-10-20T09:56:58Z</time>
      </trkpt>
      <trkpt lat="45.30794" lon="4.69458">
        <ele>632.2</ele>
        <time>2021-10-20T09:57:21Z</time>
      </trkpt>
      <trkpt lat="45.30793" lon="4.69455">
        <ele>632.2</ele>
        <time>2021-10-20T09:57:24Z</time>
      </trkpt>
      <trkpt lat="45.30792" lon="4.69453">
        <ele>632.2</ele>
        <time>2021-10-20T09:57:25Z</time>
      </trkpt>
      <trkpt lat="45.30792" lon="4.69452">
        <ele>632.2</ele>
        <time>2021-10-20T09:57:26Z</time>
      </trkpt>
      <trkpt lat="45.30783" lon="4.69428">
        <ele>632.2</ele>
        <time>2021-10-20T09:57:43Z</time>
      </trkpt>
      <trkpt lat="45.30776" lon="4.6941">
        <ele>632.2</ele>
        <time>2021-10-20T09:57:58Z</time>
      </trkpt>
      <trkpt lat="45.30766" lon="4.6939">
        <ele>631.72</ele>
        <time>2021-10-20T09:58:17Z</time>
      </trkpt>
      <trkpt lat="45.3076" lon="4.69375">
        <ele>632.2</ele>
        <time>2021-10-20T09:58:35Z</time>
      </trkpt>
      <trkpt lat="45.30758" lon="4.69364">
        <ele>631.72</ele>
        <time>2021-10-20T09:58:53Z</time>
      </trkpt>
      <trkpt lat="45.30753" lon="4.69345">
        <ele>628.84</ele>
        <time>2021-10-20T09:59:12Z</time>
      </trkpt>
      <trkpt lat="45.30749" lon="4.69324">
        <ele>626.44</ele>
        <time>2021-10-20T09:59:33Z</time>
      </trkpt>
      <trkpt lat="45.30745" lon="4.69307">
        <ele>625.47</ele>
        <time>2021-10-20T09:59:53Z</time>
      </trkpt>
      <trkpt lat="45.30743" lon="4.69298">
        <ele>622.11</ele>
        <time>2021-10-20T10:00:12Z</time>
      </trkpt>
      <trkpt lat="45.30742" lon="4.69295">
        <ele>621.63</ele>
        <time>2021-10-20T10:00:35Z</time>
      </trkpt>
      <trkpt lat="45.30741" lon="4.69291">
        <ele>622.11</ele>
        <time>2021-10-20T10:00:50Z</time>
      </trkpt>
      <trkpt lat="45.30739" lon="4.69289">
        <ele>621.63</ele>
        <time>2021-10-20T10:01:15Z</time>
      </trkpt>
      <trkpt lat="45.30736" lon="4.69285">
        <ele>620.67</ele>
        <time>2021-10-20T10:01:31Z</time>
      </trkpt>
      <trkpt lat="45.30737" lon="4.69282">
        <ele>619.23</ele>
        <time>2021-10-20T10:01:51Z</time>
      </trkpt>
      <trkpt lat="45.30739" lon="4.69275">
        <ele>618.26</ele>
        <time>2021-10-20T10:02:03Z</time>
      </trkpt>
      <trkpt lat="45.3074" lon="4.69271">
        <ele>617.78</ele>
        <time>2021-10-20T10:02:05Z</time>
      </trkpt>
      <trkpt lat="45.30737" lon="4.69262">
        <ele>615.86</ele>
        <time>2021-10-20T10:02:12Z</time>
      </trkpt>
      <trkpt lat="45.30736" lon="4.69261">
        <ele>615.86</ele>
        <time>2021-10-20T10:02:13Z</time>
      </trkpt>
      <trkpt lat="45.30736" lon="4.69259">
        <ele>615.86</ele>
        <time>2021-10-20T10:02:14Z</time>
      </trkpt>
      <trkpt lat="45.3073" lon="4.69237">
        <ele>614.9</ele>
        <time>2021-10-20T10:02:28Z</time>
      </trkpt>
      <trkpt lat="45.3073" lon="4.69233">
        <ele>615.38</ele>
        <time>2021-10-20T10:02:31Z</time>
      </trkpt>
      <trkpt lat="45.3073" lon="4.69231">
        <ele>614.9</ele>
        <time>2021-10-20T10:02:32Z</time>
      </trkpt>
      <trkpt lat="45.30729" lon="4.6923">
        <ele>614.9</ele>
        <time>2021-10-20T10:02:33Z</time>
      </trkpt>
      <trkpt lat="45.30729" lon="4.6921">
        <ele>614.9</ele>
        <time>2021-10-20T10:02:47Z</time>
      </trkpt>
      <trkpt lat="45.30731" lon="4.69182">
        <ele>614.42</ele>
        <time>2021-10-20T10:03:05Z</time>
      </trkpt>
      <trkpt lat="45.30733" lon="4.69164">
        <ele>614.42</ele>
        <time>2021-10-20T10:03:17Z</time>
      </trkpt>
      <trkpt lat="45.30735" lon="4.69147">
        <ele>613.94</ele>
        <time>2021-10-20T10:03:29Z</time>
      </trkpt>
      <trkpt lat="45.30737" lon="4.69121">
        <ele>613.94</ele>
        <time>2021-10-20T10:03:45Z</time>
      </trkpt>
      <trkpt lat="45.3074" lon="4.69095">
        <ele>614.42</ele>
        <time>2021-10-20T10:04:01Z</time>
      </trkpt>
      <trkpt lat="45.30743" lon="4.69073">
        <ele>614.42</ele>
        <time>2021-10-20T10:04:16Z</time>
      </trkpt>
      <trkpt lat="45.30747" lon="4.69049">
        <ele>615.38</ele>
        <time>2021-10-20T10:04:33Z</time>
      </trkpt>
      <trkpt lat="45.30751" lon="4.6903">
        <ele>616.34</ele>
        <time>2021-10-20T10:04:48Z</time>
      </trkpt>
      <trkpt lat="45.30758" lon="4.69008">
        <ele>617.78</ele>
        <time>2021-10-20T10:05:05Z</time>
      </trkpt>
      <trkpt lat="45.30765" lon="4.68989">
        <ele>619.71</ele>
        <time>2021-10-20T10:05:20Z</time>
      </trkpt>
      <trkpt lat="45.3077" lon="4.68967">
        <ele>621.63</ele>
        <time>2021-10-20T10:05:37Z</time>
      </trkpt>
      <trkpt lat="45.30772" lon="4.68951">
        <ele>622.59</ele>
        <time>2021-10-20T10:05:48Z</time>
      </trkpt>
      <trkpt lat="45.30774" lon="4.68929">
        <ele>624.03</ele>
        <time>2021-10-20T10:06:08Z</time>
      </trkpt>
      <trkpt lat="45.30774" lon="4.68929">
        <ele>624.99</ele>
        <time>2021-10-20T10:06:33Z</time>
      </trkpt>
      <trkpt lat="45.30774" lon="4.68928">
        <ele>625.96</ele>
        <time>2021-10-20T10:07:05Z</time>
      </trkpt>
      <trkpt lat="45.30774" lon="4.68928">
        <ele>625.96</ele>
        <time>2021-10-20T10:07:49Z</time>
      </trkpt>
      <trkpt lat="45.30772" lon="4.68927">
        <ele>625.96</ele>
        <time>2021-10-20T10:08:16Z</time>
      </trkpt>
      <trkpt lat="45.30773" lon="4.68926">
        <ele>625.96</ele>
        <time>2021-10-20T10:08:36Z</time>
      </trkpt>
      <trkpt lat="45.30772" lon="4.68922">
        <ele>625.96</ele>
        <time>2021-10-20T10:08:44Z</time>
      </trkpt>
      <trkpt lat="45.30771" lon="4.68915">
        <ele>627.4</ele>
        <time>2021-10-20T10:08:57Z</time>
      </trkpt>
      <trkpt lat="45.30771" lon="4.68915">
        <ele>626.44</ele>
        <time>2021-10-20T10:09:12Z</time>
      </trkpt>
      <trkpt lat="45.30771" lon="4.68915">
        <ele>629.8</ele>
        <time>2021-10-20T10:09:24Z</time>
      </trkpt>
      <trkpt lat="45.30771" lon="4.68915">
        <ele>626.44</ele>
        <time>2021-10-20T10:09:36Z</time>
      </trkpt>
      <trkpt lat="45.3077" lon="4.68916">
        <ele>625.47</ele>
        <time>2021-10-20T10:10:38Z</time>
      </trkpt>
      <trkpt lat="45.30771" lon="4.68916">
        <ele>626.44</ele>
        <time>2021-10-20T10:11:05Z</time>
      </trkpt>
      <trkpt lat="45.30771" lon="4.68917">
        <ele>626.44</ele>
        <time>2021-10-20T10:11:24Z</time>
      </trkpt>
      <trkpt lat="45.30771" lon="4.68917">
        <ele>626.44</ele>
        <time>2021-10-20T10:11:58Z</time>
      </trkpt>
      <trkpt lat="45.30771" lon="4.68917">
        <ele>626.44</ele>
        <time>2021-10-20T10:12:27Z</time>
      </trkpt>
      <trkpt lat="45.30771" lon="4.68917">
        <ele>626.44</ele>
        <time>2021-10-20T10:14:57Z</time>
      </trkpt>
      <trkpt lat="45.30771" lon="4.68917">
        <ele>626.44</ele>
        <time>2021-10-20T10:18:58Z</time>
      </trkpt>
      <trkpt lat="45.30771" lon="4.68917">
        <ele>626.44</ele>
        <time>2021-10-20T10:21:55Z</time>
      </trkpt>
      <trkpt lat="45.30771" lon="4.68917">
        <ele>626.44</ele>
        <time>2021-10-20T10:27:31Z</time>
      </trkpt>
      <trkpt lat="45.3077" lon="4.68917">
        <ele>626.44</ele>
        <time>2021-10-20T10:31:13Z</time>
      </trkpt>
      <trkpt lat="45.3077" lon="4.68917">
        <ele>626.44</ele>
        <time>2021-10-20T10:32:12Z</time>
      </trkpt>
      <trkpt lat="45.30771" lon="4.68917">
        <ele>626.44</ele>
        <time>2021-10-20T10:32:43Z</time>
      </trkpt>
      <trkpt lat="45.30771" lon="4.68917">
        <ele>626.44</ele>
        <time>2021-10-20T10:33:25Z</time>
      </trkpt>
      <trkpt lat="45.30771" lon="4.68916">
        <ele>626.44</ele>
        <time>2021-10-20T10:34:12Z</time>
      </trkpt>
      <trkpt lat="45.30771" lon="4.68916">
        <ele>626.44</ele>
        <time>2021-10-20T10:37:22Z</time>
      </trkpt>
      <trkpt lat="45.30772" lon="4.68916">
        <ele>626.44</ele>
        <time>2021-10-20T10:37:48Z</time>
      </trkpt>
      <trkpt lat="45.30771" lon="4.68915">
        <ele>626.44</ele>
        <time>2021-10-20T10:38:18Z</time>
      </trkpt>
      <trkpt lat="45.30771" lon="4.68914">
        <ele>626.44</ele>
        <time>2021-10-20T10:41:42Z</time>
      </trkpt>
      <trkpt lat="45.30771" lon="4.68915">
        <ele>626.44</ele>
        <time>2021-10-20T10:43:56Z</time>
      </trkpt>
      <trkpt lat="45.30771" lon="4.68914">
        <ele>626.44</ele>
        <time>2021-10-20T10:44:16Z</time>
      </trkpt>
      <trkpt lat="45.3077" lon="4.68914">
        <ele>626.44</ele>
        <time>2021-10-20T10:44:34Z</time>
      </trkpt>
      <trkpt lat="45.3077" lon="4.68914">
        <ele>626.44</ele>
        <time>2021-10-20T10:45:19Z</time>
      </trkpt>
      <trkpt lat="45.30771" lon="4.68915">
        <ele>626.44</ele>
        <time>2021-10-20T10:45:38Z</time>
      </trkpt>
      <trkpt lat="45.30772" lon="4.68914">
        <ele>626.44</ele>
        <time>2021-10-20T10:46:18Z</time>
      </trkpt>
      <trkpt lat="45.30772" lon="4.68914">
        <ele>626.44</ele>
        <time>2021-10-20T10:46:55Z</time>
      </trkpt>
      <trkpt lat="45.30772" lon="4.68915">
        <ele>626.44</ele>
        <time>2021-10-20T10:47:14Z</time>
      </trkpt>
      <trkpt lat="45.30772" lon="4.68915">
        <ele>626.44</ele>
        <time>2021-10-20T10:47:40Z</time>
      </trkpt>
      <trkpt lat="45.30772" lon="4.68915">
        <ele>626.44</ele>
        <time>2021-10-20T10:48:16Z</time>
      </trkpt>
      <trkpt lat="45.30772" lon="4.68915">
        <ele>626.44</ele>
        <time>2021-10-20T10:48:41Z</time>
      </trkpt>
      <trkpt lat="45.30772" lon="4.68907">
        <ele>626.44</ele>
        <time>2021-10-20T10:49:09Z</time>
      </trkpt>
      <trkpt lat="45.30772" lon="4.68904">
        <ele>626.44</ele>
        <time>2021-10-20T10:49:11Z</time>
      </trkpt>
      <trkpt lat="45.30772" lon="4.68903">
        <ele>626.44</ele>
        <time>2021-10-20T10:49:12Z</time>
      </trkpt>
      <trkpt lat="45.30767" lon="4.68881">
        <ele>627.4</ele>
        <time>2021-10-20T10:49:29Z</time>
      </trkpt>
      <trkpt lat="45.3076" lon="4.68852">
        <ele>626.44</ele>
        <time>2021-10-20T10:49:48Z</time>
      </trkpt>
      <trkpt lat="45.30759" lon="4.68849">
        <ele>626.44</ele>
        <time>2021-10-20T10:49:50Z</time>
      </trkpt>
      <trkpt lat="45.30759" lon="4.68848">
        <ele>626.44</ele>
        <time>2021-10-20T10:49:51Z</time>
      </trkpt>
      <trkpt lat="45.30759" lon="4.68846">
        <ele>626.44</ele>
        <time>2021-10-20T10:49:52Z</time>
      </trkpt>
      <trkpt lat="45.30757" lon="4.68815">
        <ele>623.55</ele>
        <time>2021-10-20T10:50:12Z</time>
      </trkpt>
      <trkpt lat="45.30759" lon="4.68791">
        <ele>621.63</ele>
        <time>2021-10-20T10:50:28Z</time>
      </trkpt>
      <trkpt lat="45.30761" lon="4.68785">
        <ele>621.15</ele>
        <time>2021-10-20T10:50:32Z</time>
      </trkpt>
      <trkpt lat="45.30767" lon="4.68763">
        <ele>620.19</ele>
        <time>2021-10-20T10:50:49Z</time>
      </trkpt>
      <trkpt lat="45.30777" lon="4.68741">
        <ele>619.23</ele>
        <time>2021-10-20T10:51:07Z</time>
      </trkpt>
      <trkpt lat="45.30778" lon="4.68738">
        <ele>618.75</ele>
        <time>2021-10-20T10:51:21Z</time>
      </trkpt>
      <trkpt lat="45.30779" lon="4.68737">
        <ele>618.75</ele>
        <time>2021-10-20T10:51:22Z</time>
      </trkpt>
      <trkpt lat="45.3078" lon="4.68736">
        <ele>618.75</ele>
        <time>2021-10-20T10:51:23Z</time>
      </trkpt>
      <trkpt lat="45.30781" lon="4.68736">
        <ele>618.75</ele>
        <time>2021-10-20T10:51:24Z</time>
      </trkpt>
      <trkpt lat="45.30782" lon="4.68735">
        <ele>618.75</ele>
        <time>2021-10-20T10:51:25Z</time>
      </trkpt>
      <trkpt lat="45.30785" lon="4.68731">
        <ele>618.26</ele>
        <time>2021-10-20T10:51:29Z</time>
      </trkpt>
      <trkpt lat="45.30786" lon="4.6873">
        <ele>618.26</ele>
        <time>2021-10-20T10:51:30Z</time>
      </trkpt>
      <trkpt lat="45.30787" lon="4.68729">
        <ele>618.26</ele>
        <time>2021-10-20T10:51:31Z</time>
      </trkpt>
      <trkpt lat="45.30788" lon="4.68728">
        <ele>618.26</ele>
        <time>2021-10-20T10:51:32Z</time>
      </trkpt>
      <trkpt lat="45.30789" lon="4.68727">
        <ele>617.78</ele>
        <time>2021-10-20T10:51:33Z</time>
      </trkpt>
      <trkpt lat="45.308" lon="4.68714">
        <ele>616.82</ele>
        <time>2021-10-20T10:51:46Z</time>
      </trkpt>
      <trkpt lat="45.30801" lon="4.68713">
        <ele>616.82</ele>
        <time>2021-10-20T10:51:47Z</time>
      </trkpt>
      <trkpt lat="45.30803" lon="4.68711">
        <ele>616.34</ele>
        <time>2021-10-20T10:51:49Z</time>
      </trkpt>
      <trkpt lat="45.30811" lon="4.68695">
        <ele>614.42</ele>
        <time>2021-10-20T10:52:03Z</time>
      </trkpt>
      <trkpt lat="45.30812" lon="4.68693">
        <ele>614.42</ele>
        <time>2021-10-20T10:52:04Z</time>
      </trkpt>
      <trkpt lat="45.30812" lon="4.68692">
        <ele>614.42</ele>
        <time>2021-10-20T10:52:05Z</time>
      </trkpt>
      <trkpt lat="45.30808" lon="4.68662">
        <ele>612.98</ele>
        <time>2021-10-20T10:52:23Z</time>
      </trkpt>
      <trkpt lat="45.30808" lon="4.68656">
        <ele>612.98</ele>
        <time>2021-10-20T10:52:27Z</time>
      </trkpt>
      <trkpt lat="45.30807" lon="4.68654">
        <ele>612.98</ele>
        <time>2021-10-20T10:52:28Z</time>
      </trkpt>
      <trkpt lat="45.30807" lon="4.68653">
        <ele>612.98</ele>
        <time>2021-10-20T10:52:29Z</time>
      </trkpt>
      <trkpt lat="45.30807" lon="4.68651">
        <ele>612.98</ele>
        <time>2021-10-20T10:52:30Z</time>
      </trkpt>
      <trkpt lat="45.30807" lon="4.68649">
        <ele>612.5</ele>
        <time>2021-10-20T10:52:31Z</time>
      </trkpt>
      <trkpt lat="45.30807" lon="4.68648">
        <ele>612.5</ele>
        <time>2021-10-20T10:52:32Z</time>
      </trkpt>
      <trkpt lat="45.30804" lon="4.68607">
        <ele>611.54</ele>
        <time>2021-10-20T10:52:56Z</time>
      </trkpt>
      <trkpt lat="45.30804" lon="4.68588">
        <ele>611.06</ele>
        <time>2021-10-20T10:53:09Z</time>
      </trkpt>
      <trkpt lat="45.30814" lon="4.68571">
        <ele>610.57</ele>
        <time>2021-10-20T10:53:23Z</time>
      </trkpt>
      <trkpt lat="45.30818" lon="4.68548">
        <ele>611.54</ele>
        <time>2021-10-20T10:53:41Z</time>
      </trkpt>
      <trkpt lat="45.30819" lon="4.68547">
        <ele>611.54</ele>
        <time>2021-10-20T10:54:02Z</time>
      </trkpt>
      <trkpt lat="45.30819" lon="4.68545">
        <ele>611.54</ele>
        <time>2021-10-20T10:54:05Z</time>
      </trkpt>
      <trkpt lat="45.3082" lon="4.68544">
        <ele>611.54</ele>
        <time>2021-10-20T10:54:06Z</time>
      </trkpt>
      <trkpt lat="45.3082" lon="4.68542">
        <ele>611.54</ele>
        <time>2021-10-20T10:54:07Z</time>
      </trkpt>
      <trkpt lat="45.30825" lon="4.68525">
        <ele>612.02</ele>
        <time>2021-10-20T10:54:21Z</time>
      </trkpt>
      <trkpt lat="45.30826" lon="4.68522">
        <ele>612.02</ele>
        <time>2021-10-20T10:54:23Z</time>
      </trkpt>
      <trkpt lat="45.3083" lon="4.68514">
        <ele>612.02</ele>
        <time>2021-10-20T10:54:30Z</time>
      </trkpt>
      <trkpt lat="45.30831" lon="4.6851">
        <ele>612.02</ele>
        <time>2021-10-20T10:54:33Z</time>
      </trkpt>
      <trkpt lat="45.30831" lon="4.68509">
        <ele>612.02</ele>
        <time>2021-10-20T10:54:34Z</time>
      </trkpt>
      <trkpt lat="45.30832" lon="4.68507">
        <ele>612.02</ele>
        <time>2021-10-20T10:54:35Z</time>
      </trkpt>
      <trkpt lat="45.30832" lon="4.68506">
        <ele>612.02</ele>
        <time>2021-10-20T10:54:36Z</time>
      </trkpt>
      <trkpt lat="45.30842" lon="4.68484">
        <ele>612.02</ele>
        <time>2021-10-20T10:54:55Z</time>
      </trkpt>
      <trkpt lat="45.30845" lon="4.68475">
        <ele>612.02</ele>
        <time>2021-10-20T10:55:07Z</time>
      </trkpt>
      <trkpt lat="45.30845" lon="4.68475">
        <ele>612.5</ele>
        <time>2021-10-20T10:55:34Z</time>
      </trkpt>
      <trkpt lat="45.30845" lon="4.68478">
        <ele>612.5</ele>
        <time>2021-10-20T10:55:46Z</time>
      </trkpt>
      <trkpt lat="45.30848" lon="4.68469">
        <ele>612.5</ele>
        <time>2021-10-20T10:56:00Z</time>
      </trkpt>
      <trkpt lat="45.30849" lon="4.68467">
        <ele>612.5</ele>
        <time>2021-10-20T10:56:01Z</time>
      </trkpt>
      <trkpt lat="45.3085" lon="4.68466">
        <ele>612.5</ele>
        <time>2021-10-20T10:56:02Z</time>
      </trkpt>
      <trkpt lat="45.3086" lon="4.6843">
        <ele>613.46</ele>
        <time>2021-10-20T10:56:27Z</time>
      </trkpt>
      <trkpt lat="45.30868" lon="4.6839">
        <ele>614.42</ele>
        <time>2021-10-20T10:56:54Z</time>
      </trkpt>
      <trkpt lat="45.3087" lon="4.68362">
        <ele>615.38</ele>
        <time>2021-10-20T10:57:13Z</time>
      </trkpt>
      <trkpt lat="45.30868" lon="4.68331">
        <ele>615.38</ele>
        <time>2021-10-20T10:57:33Z</time>
      </trkpt>
      <trkpt lat="45.30867" lon="4.68327">
        <ele>615.38</ele>
        <time>2021-10-20T10:57:36Z</time>
      </trkpt>
      <trkpt lat="45.30867" lon="4.68326">
        <ele>615.38</ele>
        <time>2021-10-20T10:57:37Z</time>
      </trkpt>
      <trkpt lat="45.30867" lon="4.68324">
        <ele>615.38</ele>
        <time>2021-10-20T10:57:38Z</time>
      </trkpt>
      <trkpt lat="45.30866" lon="4.68323">
        <ele>615.38</ele>
        <time>2021-10-20T10:57:39Z</time>
      </trkpt>
      <trkpt lat="45.30866" lon="4.68321">
        <ele>615.86</ele>
        <time>2021-10-20T10:57:40Z</time>
      </trkpt>
      <trkpt lat="45.30855" lon="4.68289">
        <ele>615.38</ele>
        <time>2021-10-20T10:58:01Z</time>
      </trkpt>
      <trkpt lat="45.30843" lon="4.68263">
        <ele>615.86</ele>
        <time>2021-10-20T10:58:19Z</time>
      </trkpt>
      <trkpt lat="45.30841" lon="4.6826">
        <ele>615.86</ele>
        <time>2021-10-20T10:58:21Z</time>
      </trkpt>
      <trkpt lat="45.3084" lon="4.68259">
        <ele>615.38</ele>
        <time>2021-10-20T10:58:22Z</time>
      </trkpt>
      <trkpt lat="45.3084" lon="4.68258">
        <ele>615.38</ele>
        <time>2021-10-20T10:58:23Z</time>
      </trkpt>
      <trkpt lat="45.30839" lon="4.68256">
        <ele>615.38</ele>
        <time>2021-10-20T10:58:24Z</time>
      </trkpt>
      <trkpt lat="45.30839" lon="4.68254">
        <ele>615.38</ele>
        <time>2021-10-20T10:58:25Z</time>
      </trkpt>
      <trkpt lat="45.30838" lon="4.68253">
        <ele>615.38</ele>
        <time>2021-10-20T10:58:26Z</time>
      </trkpt>
      <trkpt lat="45.30837" lon="4.68252">
        <ele>615.38</ele>
        <time>2021-10-20T10:58:27Z</time>
      </trkpt>
      <trkpt lat="45.30836" lon="4.68251">
        <ele>615.38</ele>
        <time>2021-10-20T10:58:28Z</time>
      </trkpt>
      <trkpt lat="45.30836" lon="4.68249">
        <ele>615.38</ele>
        <time>2021-10-20T10:58:29Z</time>
      </trkpt>
      <trkpt lat="45.30835" lon="4.68247">
        <ele>615.38</ele>
        <time>2021-10-20T10:58:30Z</time>
      </trkpt>
      <trkpt lat="45.3083" lon="4.68228">
        <ele>614.42</ele>
        <time>2021-10-20T10:58:43Z</time>
      </trkpt>
      <trkpt lat="45.30831" lon="4.68207">
        <ele>613.94</ele>
        <time>2021-10-20T10:58:56Z</time>
      </trkpt>
      <trkpt lat="45.30836" lon="4.68175">
        <ele>612.98</ele>
        <time>2021-10-20T10:59:15Z</time>
      </trkpt>
      <trkpt lat="45.30839" lon="4.68138">
        <ele>611.06</ele>
        <time>2021-10-20T10:59:36Z</time>
      </trkpt>
      <trkpt lat="45.30838" lon="4.68136">
        <ele>611.06</ele>
        <time>2021-10-20T10:59:37Z</time>
      </trkpt>
      <trkpt lat="45.30838" lon="4.68134">
        <ele>611.06</ele>
        <time>2021-10-20T10:59:38Z</time>
      </trkpt>
      <trkpt lat="45.30838" lon="4.68133">
        <ele>611.06</ele>
        <time>2021-10-20T10:59:39Z</time>
      </trkpt>
      <trkpt lat="45.30837" lon="4.68131">
        <ele>610.57</ele>
        <time>2021-10-20T10:59:40Z</time>
      </trkpt>
      <trkpt lat="45.30837" lon="4.68129">
        <ele>610.57</ele>
        <time>2021-10-20T10:59:41Z</time>
      </trkpt>
      <trkpt lat="45.30833" lon="4.68111">
        <ele>609.61</ele>
        <time>2021-10-20T10:59:52Z</time>
      </trkpt>
      <trkpt lat="45.30833" lon="4.6811">
        <ele>609.61</ele>
        <time>2021-10-20T10:59:53Z</time>
      </trkpt>
      <trkpt lat="45.30833" lon="4.68108">
        <ele>609.61</ele>
        <time>2021-10-20T10:59:54Z</time>
      </trkpt>
      <trkpt lat="45.30825" lon="4.68074">
        <ele>608.65</ele>
        <time>2021-10-20T11:00:15Z</time>
      </trkpt>
      <trkpt lat="45.3082" lon="4.68042">
        <ele>607.21</ele>
        <time>2021-10-20T11:00:34Z</time>
      </trkpt>
      <trkpt lat="45.30826" lon="4.68005">
        <ele>606.25</ele>
        <time>2021-10-20T11:00:57Z</time>
      </trkpt>
      <trkpt lat="45.30826" lon="4.68003">
        <ele>606.25</ele>
        <time>2021-10-20T11:00:58Z</time>
      </trkpt>
      <trkpt lat="45.30827" lon="4.68002">
        <ele>606.25</ele>
        <time>2021-10-20T11:00:59Z</time>
      </trkpt>
      <trkpt lat="45.30829" lon="4.68">
        <ele>605.77</ele>
        <time>2021-10-20T11:01:14Z</time>
      </trkpt>
      <trkpt lat="45.30829" lon="4.67991">
        <ele>605.77</ele>
        <time>2021-10-20T11:01:29Z</time>
      </trkpt>
      <trkpt lat="45.30831" lon="4.67989">
        <ele>606.25</ele>
        <time>2021-10-20T11:01:45Z</time>
      </trkpt>
      <trkpt lat="45.30832" lon="4.67989">
        <ele>606.73</ele>
        <time>2021-10-20T11:02:10Z</time>
      </trkpt>
      <trkpt lat="45.30831" lon="4.67991">
        <ele>606.73</ele>
        <time>2021-10-20T11:02:27Z</time>
      </trkpt>
      <trkpt lat="45.3083" lon="4.67994">
        <ele>605.77</ele>
        <time>2021-10-20T11:02:37Z</time>
      </trkpt>
      <trkpt lat="45.30833" lon="4.67993">
        <ele>605.77</ele>
        <time>2021-10-20T11:02:49Z</time>
      </trkpt>
      <trkpt lat="45.30833" lon="4.67993">
        <ele>606.25</ele>
        <time>2021-10-20T11:03:08Z</time>
      </trkpt>
      <trkpt lat="45.30834" lon="4.67994">
        <ele>606.73</ele>
        <time>2021-10-20T11:03:31Z</time>
      </trkpt>
      <trkpt lat="45.30841" lon="4.68006">
        <ele>604.81</ele>
        <time>2021-10-20T11:03:44Z</time>
      </trkpt>
      <trkpt lat="45.30842" lon="4.68007">
        <ele>604.33</ele>
        <time>2021-10-20T11:03:45Z</time>
      </trkpt>
      <trkpt lat="45.30843" lon="4.68008">
        <ele>604.33</ele>
        <time>2021-10-20T11:03:46Z</time>
      </trkpt>
      <trkpt lat="45.30855" lon="4.68019">
        <ele>601.44</ele>
        <time>2021-10-20T11:04:03Z</time>
      </trkpt>
      <trkpt lat="45.30861" lon="4.68028">
        <ele>600</ele>
        <time>2021-10-20T11:04:13Z</time>
      </trkpt>
      <trkpt lat="45.30862" lon="4.68029">
        <ele>600</ele>
        <time>2021-10-20T11:04:14Z</time>
      </trkpt>
      <trkpt lat="45.30871" lon="4.6804">
        <ele>598.56</ele>
        <time>2021-10-20T11:04:27Z</time>
      </trkpt>
      <trkpt lat="45.30882" lon="4.68053">
        <ele>597.12</ele>
        <time>2021-10-20T11:04:42Z</time>
      </trkpt>
      <trkpt lat="45.30893" lon="4.68065">
        <ele>594.71</ele>
        <time>2021-10-20T11:05:01Z</time>
      </trkpt>
      <trkpt lat="45.30907" lon="4.68088">
        <ele>591.83</ele>
        <time>2021-10-20T11:05:22Z</time>
      </trkpt>
      <trkpt lat="45.30918" lon="4.68111">
        <ele>589.91</ele>
        <time>2021-10-20T11:05:40Z</time>
      </trkpt>
      <trkpt lat="45.30927" lon="4.68128">
        <ele>587.98</ele>
        <time>2021-10-20T11:05:57Z</time>
      </trkpt>
      <trkpt lat="45.30934" lon="4.68141">
        <ele>586.06</ele>
        <time>2021-10-20T11:06:13Z</time>
      </trkpt>
      <trkpt lat="45.30935" lon="4.68143">
        <ele>585.58</ele>
        <time>2021-10-20T11:06:14Z</time>
      </trkpt>
      <trkpt lat="45.30936" lon="4.68144">
        <ele>585.58</ele>
        <time>2021-10-20T11:06:15Z</time>
      </trkpt>
      <trkpt lat="45.30936" lon="4.68146">
        <ele>585.58</ele>
        <time>2021-10-20T11:06:16Z</time>
      </trkpt>
      <trkpt lat="45.30937" lon="4.68148">
        <ele>585.58</ele>
        <time>2021-10-20T11:06:17Z</time>
      </trkpt>
      <trkpt lat="45.30939" lon="4.68153">
        <ele>585.1</ele>
        <time>2021-10-20T11:06:21Z</time>
      </trkpt>
      <trkpt lat="45.3094" lon="4.68154">
        <ele>584.62</ele>
        <time>2021-10-20T11:06:22Z</time>
      </trkpt>
      <trkpt lat="45.30951" lon="4.68169">
        <ele>583.18</ele>
        <time>2021-10-20T11:06:38Z</time>
      </trkpt>
      <trkpt lat="45.30965" lon="4.68188">
        <ele>582.22</ele>
        <time>2021-10-20T11:06:56Z</time>
      </trkpt>
      <trkpt lat="45.3098" lon="4.68203">
        <ele>580.77</ele>
        <time>2021-10-20T11:07:13Z</time>
      </trkpt>
      <trkpt lat="45.30994" lon="4.68218">
        <ele>579.81</ele>
        <time>2021-10-20T11:07:30Z</time>
      </trkpt>
      <trkpt lat="45.31011" lon="4.68237">
        <ele>578.85</ele>
        <time>2021-10-20T11:07:50Z</time>
      </trkpt>
      <trkpt lat="45.31024" lon="4.68257">
        <ele>578.37</ele>
        <time>2021-10-20T11:08:08Z</time>
      </trkpt>
      <trkpt lat="45.31037" lon="4.68276">
        <ele>576.45</ele>
        <time>2021-10-20T11:08:26Z</time>
      </trkpt>
      <trkpt lat="45.31053" lon="4.68296">
        <ele>575.01</ele>
        <time>2021-10-20T11:08:47Z</time>
      </trkpt>
      <trkpt lat="45.31057" lon="4.68301">
        <ele>574.53</ele>
        <time>2021-10-20T11:08:54Z</time>
      </trkpt>
      <trkpt lat="45.3106" lon="4.68305">
        <ele>574.04</ele>
        <time>2021-10-20T11:08:57Z</time>
      </trkpt>
      <trkpt lat="45.31074" lon="4.68321">
        <ele>571.64</ele>
        <time>2021-10-20T11:09:14Z</time>
      </trkpt>
      <trkpt lat="45.31075" lon="4.68322">
        <ele>571.64</ele>
        <time>2021-10-20T11:09:15Z</time>
      </trkpt>
      <trkpt lat="45.31076" lon="4.68323">
        <ele>571.64</ele>
        <time>2021-10-20T11:09:16Z</time>
      </trkpt>
      <trkpt lat="45.31077" lon="4.68325">
        <ele>571.16</ele>
        <time>2021-10-20T11:09:18Z</time>
      </trkpt>
      <trkpt lat="45.31078" lon="4.68326">
        <ele>571.16</ele>
        <time>2021-10-20T11:09:19Z</time>
      </trkpt>
      <trkpt lat="45.31091" lon="4.68341">
        <ele>570.2</ele>
        <time>2021-10-20T11:09:37Z</time>
      </trkpt>
      <trkpt lat="45.31104" lon="4.68356">
        <ele>568.28</ele>
        <time>2021-10-20T11:09:59Z</time>
      </trkpt>
      <trkpt lat="45.3112" lon="4.6837">
        <ele>565.39</ele>
        <time>2021-10-20T11:10:19Z</time>
      </trkpt>
      <trkpt lat="45.31131" lon="4.68375">
        <ele>563.95</ele>
        <time>2021-10-20T11:10:34Z</time>
      </trkpt>
      <trkpt lat="45.31152" lon="4.6838">
        <ele>562.03</ele>
        <time>2021-10-20T11:10:59Z</time>
      </trkpt>
      <trkpt lat="45.31174" lon="4.68375">
        <ele>559.62</ele>
        <time>2021-10-20T11:11:19Z</time>
      </trkpt>
      <trkpt lat="45.31181" lon="4.68371">
        <ele>559.14</ele>
        <time>2021-10-20T11:11:24Z</time>
      </trkpt>
      <trkpt lat="45.31202" lon="4.68364">
        <ele>557.22</ele>
        <time>2021-10-20T11:11:45Z</time>
      </trkpt>
      <trkpt lat="45.31215" lon="4.68363">
        <ele>554.34</ele>
        <time>2021-10-20T11:12:02Z</time>
      </trkpt>
      <trkpt lat="45.31223" lon="4.68364">
        <ele>552.41</ele>
        <time>2021-10-20T11:12:14Z</time>
      </trkpt>
      <trkpt lat="45.31225" lon="4.68365">
        <ele>552.41</ele>
        <time>2021-10-20T11:12:15Z</time>
      </trkpt>
      <trkpt lat="45.31226" lon="4.68365">
        <ele>552.41</ele>
        <time>2021-10-20T11:12:16Z</time>
      </trkpt>
      <trkpt lat="45.31228" lon="4.68365">
        <ele>551.93</ele>
        <time>2021-10-20T11:12:17Z</time>
      </trkpt>
      <trkpt lat="45.3124" lon="4.68373">
        <ele>551.93</ele>
        <time>2021-10-20T11:12:32Z</time>
      </trkpt>
      <trkpt lat="45.31244" lon="4.68397">
        <ele>550.49</ele>
        <time>2021-10-20T11:12:49Z</time>
      </trkpt>
      <trkpt lat="45.31247" lon="4.68428">
        <ele>550.01</ele>
        <time>2021-10-20T11:13:10Z</time>
      </trkpt>
      <trkpt lat="45.31246" lon="4.68439">
        <ele>549.53</ele>
        <time>2021-10-20T11:13:17Z</time>
      </trkpt>
      <trkpt lat="45.31245" lon="4.68446">
        <ele>549.53</ele>
        <time>2021-10-20T11:13:22Z</time>
      </trkpt>
      <trkpt lat="45.31253" lon="4.68469">
        <ele>548.09</ele>
        <time>2021-10-20T11:13:40Z</time>
      </trkpt>
      <trkpt lat="45.31262" lon="4.68496">
        <ele>546.17</ele>
        <time>2021-10-20T11:13:59Z</time>
      </trkpt>
      <trkpt lat="45.31271" lon="4.68518">
        <ele>545.69</ele>
        <time>2021-10-20T11:14:17Z</time>
      </trkpt>
      <trkpt lat="45.31281" lon="4.68538">
        <ele>545.2</ele>
        <time>2021-10-20T11:14:36Z</time>
      </trkpt>
      <trkpt lat="45.31283" lon="4.68541">
        <ele>545.2</ele>
        <time>2021-10-20T11:14:40Z</time>
      </trkpt>
      <trkpt lat="45.31284" lon="4.68542">
        <ele>545.2</ele>
        <time>2021-10-20T11:14:41Z</time>
      </trkpt>
      <trkpt lat="45.31285" lon="4.68545">
        <ele>545.2</ele>
        <time>2021-10-20T11:14:43Z</time>
      </trkpt>
      <trkpt lat="45.31291" lon="4.68565">
        <ele>545.2</ele>
        <time>2021-10-20T11:14:58Z</time>
      </trkpt>
      <trkpt lat="45.31292" lon="4.68568">
        <ele>545.2</ele>
        <time>2021-10-20T11:15:00Z</time>
      </trkpt>
      <trkpt lat="45.31295" lon="4.68585">
        <ele>544.72</ele>
        <time>2021-10-20T11:15:11Z</time>
      </trkpt>
      <trkpt lat="45.31295" lon="4.68587">
        <ele>544.72</ele>
        <time>2021-10-20T11:15:12Z</time>
      </trkpt>
      <trkpt lat="45.31299" lon="4.68611">
        <ele>543.76</ele>
        <time>2021-10-20T11:15:27Z</time>
      </trkpt>
      <trkpt lat="45.31307" lon="4.68632">
        <ele>541.36</ele>
        <time>2021-10-20T11:15:46Z</time>
      </trkpt>
      <trkpt lat="45.3131" lon="4.68656">
        <ele>539.44</ele>
        <time>2021-10-20T11:16:07Z</time>
      </trkpt>
      <trkpt lat="45.31313" lon="4.68667">
        <ele>538.96</ele>
        <time>2021-10-20T11:16:27Z</time>
      </trkpt>
      <trkpt lat="45.31314" lon="4.68668">
        <ele>537.99</ele>
        <time>2021-10-20T11:16:51Z</time>
      </trkpt>
      <trkpt lat="45.31319" lon="4.68678">
        <ele>537.99</ele>
        <time>2021-10-20T11:17:12Z</time>
      </trkpt>
      <trkpt lat="45.3132" lon="4.68679">
        <ele>537.99</ele>
        <time>2021-10-20T11:17:13Z</time>
      </trkpt>
      <trkpt lat="45.31328" lon="4.68699">
        <ele>537.03</ele>
        <time>2021-10-20T11:17:29Z</time>
      </trkpt>
      <trkpt lat="45.31332" lon="4.68713">
        <ele>535.59</ele>
        <time>2021-10-20T11:17:44Z</time>
      </trkpt>
      <trkpt lat="45.31339" lon="4.68733">
        <ele>534.63</ele>
        <time>2021-10-20T11:18:01Z</time>
      </trkpt>
      <trkpt lat="45.31342" lon="4.68746">
        <ele>533.67</ele>
        <time>2021-10-20T11:18:11Z</time>
      </trkpt>
      <trkpt lat="45.31347" lon="4.68757">
        <ele>533.19</ele>
        <time>2021-10-20T11:18:21Z</time>
      </trkpt>
      <trkpt lat="45.31354" lon="4.68766">
        <ele>531.27</ele>
        <time>2021-10-20T11:18:34Z</time>
      </trkpt>
      <trkpt lat="45.31364" lon="4.68784">
        <ele>528.86</ele>
        <time>2021-10-20T11:18:53Z</time>
      </trkpt>
      <trkpt lat="45.31376" lon="4.68797">
        <ele>526.46</ele>
        <time>2021-10-20T11:19:09Z</time>
      </trkpt>
      <trkpt lat="45.31391" lon="4.68804">
        <ele>525.5</ele>
        <time>2021-10-20T11:19:27Z</time>
      </trkpt>
      <trkpt lat="45.31401" lon="4.68811">
        <ele>522.13</ele>
        <time>2021-10-20T11:19:43Z</time>
      </trkpt>
      <trkpt lat="45.31414" lon="4.68824">
        <ele>519.73</ele>
        <time>2021-10-20T11:19:59Z</time>
      </trkpt>
      <trkpt lat="45.31429" lon="4.6884">
        <ele>517.81</ele>
        <time>2021-10-20T11:20:15Z</time>
      </trkpt>
      <trkpt lat="45.31434" lon="4.68845">
        <ele>517.33</ele>
        <time>2021-10-20T11:20:30Z</time>
      </trkpt>
      <trkpt lat="45.31441" lon="4.68851">
        <ele>517.33</ele>
        <time>2021-10-20T11:20:44Z</time>
      </trkpt>
      <trkpt lat="45.31443" lon="4.68852">
        <ele>517.33</ele>
        <time>2021-10-20T11:20:46Z</time>
      </trkpt>
      <trkpt lat="45.31465" lon="4.68863">
        <ele>516.37</ele>
        <time>2021-10-20T11:21:07Z</time>
      </trkpt>
      <trkpt lat="45.3147" lon="4.68879">
        <ele>516.85</ele>
        <time>2021-10-20T11:21:18Z</time>
      </trkpt>
      <trkpt lat="45.31472" lon="4.68887">
        <ele>516.37</ele>
        <time>2021-10-20T11:21:23Z</time>
      </trkpt>
      <trkpt lat="45.31472" lon="4.68888">
        <ele>516.37</ele>
        <time>2021-10-20T11:21:24Z</time>
      </trkpt>
      <trkpt lat="45.31472" lon="4.68893">
        <ele>516.85</ele>
        <time>2021-10-20T11:21:32Z</time>
      </trkpt>
      <trkpt lat="45.31473" lon="4.68898">
        <ele>516.85</ele>
        <time>2021-10-20T11:21:35Z</time>
      </trkpt>
      <trkpt lat="45.31473" lon="4.689">
        <ele>516.85</ele>
        <time>2021-10-20T11:21:36Z</time>
      </trkpt>
      <trkpt lat="45.3148" lon="4.68935">
        <ele>515.4</ele>
        <time>2021-10-20T11:21:57Z</time>
      </trkpt>
      <trkpt lat="45.31482" lon="4.68943">
        <ele>514.92</ele>
        <time>2021-10-20T11:22:02Z</time>
      </trkpt>
      <trkpt lat="45.31483" lon="4.68944">
        <ele>514.92</ele>
        <time>2021-10-20T11:22:03Z</time>
      </trkpt>
      <trkpt lat="45.31483" lon="4.68946">
        <ele>514.92</ele>
        <time>2021-10-20T11:22:04Z</time>
      </trkpt>
      <trkpt lat="45.31484" lon="4.68947">
        <ele>514.92</ele>
        <time>2021-10-20T11:22:05Z</time>
      </trkpt>
      <trkpt lat="45.31484" lon="4.68949">
        <ele>514.44</ele>
        <time>2021-10-20T11:22:06Z</time>
      </trkpt>
      <trkpt lat="45.31491" lon="4.68974">
        <ele>513.96</ele>
        <time>2021-10-20T11:22:25Z</time>
      </trkpt>
      <trkpt lat="45.31493" lon="4.68981">
        <ele>513.48</ele>
        <time>2021-10-20T11:22:30Z</time>
      </trkpt>
      <trkpt lat="45.31494" lon="4.68982">
        <ele>513.48</ele>
        <time>2021-10-20T11:22:31Z</time>
      </trkpt>
      <trkpt lat="45.31499" lon="4.69001">
        <ele>512.04</ele>
        <time>2021-10-20T11:22:46Z</time>
      </trkpt>
      <trkpt lat="45.31509" lon="4.69024">
        <ele>511.56</ele>
        <time>2021-10-20T11:23:05Z</time>
      </trkpt>
      <trkpt lat="45.31521" lon="4.69044">
        <ele>510.6</ele>
        <time>2021-10-20T11:23:24Z</time>
      </trkpt>
      <trkpt lat="45.31536" lon="4.6906">
        <ele>510.12</ele>
        <time>2021-10-20T11:23:44Z</time>
      </trkpt>
      <trkpt lat="45.31547" lon="4.69068">
        <ele>508.19</ele>
        <time>2021-10-20T11:23:58Z</time>
      </trkpt>
      <trkpt lat="45.31559" lon="4.69075">
        <ele>505.79</ele>
        <time>2021-10-20T11:24:13Z</time>
      </trkpt>
      <trkpt lat="45.31574" lon="4.69083">
        <ele>506.27</ele>
        <time>2021-10-20T11:24:28Z</time>
      </trkpt>
      <trkpt lat="45.3159" lon="4.6909">
        <ele>505.31</ele>
        <time>2021-10-20T11:24:44Z</time>
      </trkpt>
      <trkpt lat="45.31595" lon="4.69091">
        <ele>504.83</ele>
        <time>2021-10-20T11:24:51Z</time>
      </trkpt>
      <trkpt lat="45.31597" lon="4.69092">
        <ele>504.83</ele>
        <time>2021-10-20T11:24:52Z</time>
      </trkpt>
      <trkpt lat="45.31613" lon="4.69097">
        <ele>503.39</ele>
        <time>2021-10-20T11:25:08Z</time>
      </trkpt>
      <trkpt lat="45.31624" lon="4.69095">
        <ele>502.43</ele>
        <time>2021-10-20T11:25:21Z</time>
      </trkpt>
      <trkpt lat="45.31636" lon="4.69088">
        <ele>500.5</ele>
        <time>2021-10-20T11:25:35Z</time>
      </trkpt>
      <trkpt lat="45.31647" lon="4.69074">
        <ele>498.58</ele>
        <time>2021-10-20T11:25:51Z</time>
      </trkpt>
      <trkpt lat="45.31648" lon="4.69072">
        <ele>498.58</ele>
        <time>2021-10-20T11:25:53Z</time>
      </trkpt>
      <trkpt lat="45.31648" lon="4.69071">
        <ele>498.1</ele>
        <time>2021-10-20T11:25:54Z</time>
      </trkpt>
      <trkpt lat="45.31649" lon="4.69069">
        <ele>498.1</ele>
        <time>2021-10-20T11:25:55Z</time>
      </trkpt>
      <trkpt lat="45.31652" lon="4.69064">
        <ele>497.14</ele>
        <time>2021-10-20T11:26:00Z</time>
      </trkpt>
      <trkpt lat="45.31652" lon="4.69063">
        <ele>497.14</ele>
        <time>2021-10-20T11:26:01Z</time>
      </trkpt>
      <trkpt lat="45.31653" lon="4.69062">
        <ele>496.66</ele>
        <time>2021-10-20T11:26:02Z</time>
      </trkpt>
      <trkpt lat="45.31653" lon="4.69061">
        <ele>496.66</ele>
        <time>2021-10-20T11:26:03Z</time>
      </trkpt>
      <trkpt lat="45.31654" lon="4.6906">
        <ele>496.66</ele>
        <time>2021-10-20T11:26:04Z</time>
      </trkpt>
      <trkpt lat="45.31662" lon="4.69046">
        <ele>496.66</ele>
        <time>2021-10-20T11:26:17Z</time>
      </trkpt>
      <trkpt lat="45.31668" lon="4.69043">
        <ele>497.62</ele>
        <time>2021-10-20T11:26:23Z</time>
      </trkpt>
      <trkpt lat="45.31669" lon="4.69043">
        <ele>497.62</ele>
        <time>2021-10-20T11:26:24Z</time>
      </trkpt>
      <trkpt lat="45.31681" lon="4.69059">
        <ele>495.22</ele>
        <time>2021-10-20T11:26:39Z</time>
      </trkpt>
      <trkpt lat="45.31688" lon="4.6908">
        <ele>494.26</ele>
        <time>2021-10-20T11:26:54Z</time>
      </trkpt>
      <trkpt lat="45.31692" lon="4.69091">
        <ele>494.74</ele>
        <time>2021-10-20T11:27:02Z</time>
      </trkpt>
      <trkpt lat="45.31692" lon="4.69093">
        <ele>494.74</ele>
        <time>2021-10-20T11:27:03Z</time>
      </trkpt>
      <trkpt lat="45.31693" lon="4.69094">
        <ele>495.22</ele>
        <time>2021-10-20T11:27:04Z</time>
      </trkpt>
      <trkpt lat="45.31693" lon="4.69096">
        <ele>495.22</ele>
        <time>2021-10-20T11:27:05Z</time>
      </trkpt>
      <trkpt lat="45.31694" lon="4.69097">
        <ele>495.22</ele>
        <time>2021-10-20T11:27:06Z</time>
      </trkpt>
      <trkpt lat="45.31694" lon="4.69099">
        <ele>495.22</ele>
        <time>2021-10-20T11:27:07Z</time>
      </trkpt>
      <trkpt lat="45.31695" lon="4.69101">
        <ele>495.22</ele>
        <time>2021-10-20T11:27:08Z</time>
      </trkpt>
      <trkpt lat="45.31695" lon="4.69102">
        <ele>495.22</ele>
        <time>2021-10-20T11:27:09Z</time>
      </trkpt>
      <trkpt lat="45.31697" lon="4.69108">
        <ele>495.22</ele>
        <time>2021-10-20T11:27:13Z</time>
      </trkpt>
      <trkpt lat="45.3171" lon="4.69129">
        <ele>494.26</ele>
        <time>2021-10-20T11:27:31Z</time>
      </trkpt>
      <trkpt lat="45.3173" lon="4.6915">
        <ele>495.7</ele>
        <time>2021-10-20T11:27:54Z</time>
      </trkpt>
      <trkpt lat="45.31752" lon="4.69173">
        <ele>495.22</ele>
        <time>2021-10-20T11:28:17Z</time>
      </trkpt>
      <trkpt lat="45.31771" lon="4.69212">
        <ele>495.22</ele>
        <time>2021-10-20T11:28:46Z</time>
      </trkpt>
      <trkpt lat="45.31776" lon="4.69221">
        <ele>495.22</ele>
        <time>2021-10-20T11:28:53Z</time>
      </trkpt>
      <trkpt lat="45.31777" lon="4.69223">
        <ele>495.22</ele>
        <time>2021-10-20T11:28:54Z</time>
      </trkpt>
      <trkpt lat="45.31777" lon="4.69224">
        <ele>494.74</ele>
        <time>2021-10-20T11:28:55Z</time>
      </trkpt>
      <trkpt lat="45.31778" lon="4.69225">
        <ele>494.74</ele>
        <time>2021-10-20T11:28:56Z</time>
      </trkpt>
      <trkpt lat="45.31779" lon="4.69226">
        <ele>494.74</ele>
        <time>2021-10-20T11:28:57Z</time>
      </trkpt>
      <trkpt lat="45.31797" lon="4.69247">
        <ele>495.22</ele>
        <time>2021-10-20T11:29:17Z</time>
      </trkpt>
      <trkpt lat="45.31817" lon="4.6927">
        <ele>494.74</ele>
        <time>2021-10-20T11:29:40Z</time>
      </trkpt>
      <trkpt lat="45.3183" lon="4.69285">
        <ele>494.26</ele>
        <time>2021-10-20T11:29:57Z</time>
      </trkpt>
      <trkpt lat="45.31841" lon="4.69299">
        <ele>493.29</ele>
        <time>2021-10-20T11:30:12Z</time>
      </trkpt>
      <trkpt lat="45.31855" lon="4.69319">
        <ele>492.81</ele>
        <time>2021-10-20T11:30:31Z</time>
      </trkpt>
      <trkpt lat="45.31872" lon="4.69339">
        <ele>491.37</ele>
        <time>2021-10-20T11:30:52Z</time>
      </trkpt>
      <trkpt lat="45.31887" lon="4.6936">
        <ele>490.41</ele>
        <time>2021-10-20T11:31:11Z</time>
      </trkpt>
      <trkpt lat="45.31903" lon="4.69382">
        <ele>487.53</ele>
        <time>2021-10-20T11:31:31Z</time>
      </trkpt>
      <trkpt lat="45.31928" lon="4.69402">
        <ele>486.08</ele>
        <time>2021-10-20T11:31:57Z</time>
      </trkpt>
      <trkpt lat="45.31949" lon="4.69415">
        <ele>486.56</ele>
        <time>2021-10-20T11:32:18Z</time>
      </trkpt>
      <trkpt lat="45.31973" lon="4.69431">
        <ele>485.6</ele>
        <time>2021-10-20T11:32:42Z</time>
      </trkpt>
      <trkpt lat="45.32" lon="4.69449">
        <ele>485.6</ele>
        <time>2021-10-20T11:33:09Z</time>
      </trkpt>
      <trkpt lat="45.3202" lon="4.69468">
        <ele>485.6</ele>
        <time>2021-10-20T11:33:33Z</time>
      </trkpt>
      <trkpt lat="45.32028" lon="4.69475">
        <ele>485.6</ele>
        <time>2021-10-20T11:33:47Z</time>
      </trkpt>
      <trkpt lat="45.32029" lon="4.69476">
        <ele>485.6</ele>
        <time>2021-10-20T11:33:48Z</time>
      </trkpt>
      <trkpt lat="45.3203" lon="4.69476">
        <ele>485.6</ele>
        <time>2021-10-20T11:33:49Z</time>
      </trkpt>
      <trkpt lat="45.32031" lon="4.69477">
        <ele>485.6</ele>
        <time>2021-10-20T11:33:50Z</time>
      </trkpt>
      <trkpt lat="45.32032" lon="4.69478">
        <ele>485.6</ele>
        <time>2021-10-20T11:33:51Z</time>
      </trkpt>
      <trkpt lat="45.3205" lon="4.69495">
        <ele>484.16</ele>
        <time>2021-10-20T11:34:10Z</time>
      </trkpt>
      <trkpt lat="45.32072" lon="4.69509">
        <ele>481.76</ele>
        <time>2021-10-20T11:34:32Z</time>
      </trkpt>
      <trkpt lat="45.32092" lon="4.69513">
        <ele>481.28</ele>
        <time>2021-10-20T11:34:51Z</time>
      </trkpt>
      <trkpt lat="45.32112" lon="4.69524">
        <ele>480.32</ele>
        <time>2021-10-20T11:35:11Z</time>
      </trkpt>
      <trkpt lat="45.3213" lon="4.69539">
        <ele>478.39</ele>
        <time>2021-10-20T11:35:32Z</time>
      </trkpt>
      <trkpt lat="45.32144" lon="4.69547">
        <ele>476.47</ele>
        <time>2021-10-20T11:35:47Z</time>
      </trkpt>
      <trkpt lat="45.32162" lon="4.69559">
        <ele>475.51</ele>
        <time>2021-10-20T11:36:06Z</time>
      </trkpt>
      <trkpt lat="45.32181" lon="4.69572">
        <ele>474.07</ele>
        <time>2021-10-20T11:36:25Z</time>
      </trkpt>
      <trkpt lat="45.32208" lon="4.69589">
        <ele>473.59</ele>
        <time>2021-10-20T11:36:51Z</time>
      </trkpt>
      <trkpt lat="45.32229" lon="4.69601">
        <ele>473.59</ele>
        <time>2021-10-20T11:37:12Z</time>
      </trkpt>
      <trkpt lat="45.3223" lon="4.69602">
        <ele>473.11</ele>
        <time>2021-10-20T11:37:28Z</time>
      </trkpt>
      <trkpt lat="45.3223" lon="4.69602">
        <ele>472.63</ele>
        <time>2021-10-20T11:38:15Z</time>
      </trkpt>
      <trkpt lat="45.32231" lon="4.69602">
        <ele>472.63</ele>
        <time>2021-10-20T11:38:49Z</time>
      </trkpt>
      <trkpt lat="45.32231" lon="4.69603">
        <ele>472.63</ele>
        <time>2021-10-20T11:39:19Z</time>
      </trkpt>
      <trkpt lat="45.32231" lon="4.69603">
        <ele>472.63</ele>
        <time>2021-10-20T11:40:02Z</time>
      </trkpt>
      <trkpt lat="45.32235" lon="4.69607">
        <ele>472.63</ele>
        <time>2021-10-20T11:40:20Z</time>
      </trkpt>
      <trkpt lat="45.32252" lon="4.69622">
        <ele>471.66</ele>
        <time>2021-10-20T11:40:40Z</time>
      </trkpt>
      <trkpt lat="45.3227" lon="4.6963">
        <ele>471.18</ele>
        <time>2021-10-20T11:40:57Z</time>
      </trkpt>
      <trkpt lat="45.3229" lon="4.69634">
        <ele>471.18</ele>
        <time>2021-10-20T11:41:17Z</time>
      </trkpt>
      <trkpt lat="45.32289" lon="4.69634">
        <ele>471.66</ele>
        <time>2021-10-20T11:41:36Z</time>
      </trkpt>
      <trkpt lat="45.32286" lon="4.69634">
        <ele>472.14</ele>
        <time>2021-10-20T11:41:55Z</time>
      </trkpt>
      <trkpt lat="45.3229" lon="4.69636">
        <ele>472.63</ele>
        <time>2021-10-20T11:42:27Z</time>
      </trkpt>
      <trkpt lat="45.32291" lon="4.69636">
        <ele>472.63</ele>
        <time>2021-10-20T11:42:28Z</time>
      </trkpt>
      <trkpt lat="45.32293" lon="4.69636">
        <ele>472.63</ele>
        <time>2021-10-20T11:42:29Z</time>
      </trkpt>
      <trkpt lat="45.32325" lon="4.6964">
        <ele>472.63</ele>
        <time>2021-10-20T11:42:51Z</time>
      </trkpt>
      <trkpt lat="45.32353" lon="4.69638">
        <ele>471.18</ele>
        <time>2021-10-20T11:43:12Z</time>
      </trkpt>
      <trkpt lat="45.3237" lon="4.69643">
        <ele>469.74</ele>
        <time>2021-10-20T11:43:26Z</time>
      </trkpt>
      <trkpt lat="45.32391" lon="4.69653">
        <ele>469.26</ele>
        <time>2021-10-20T11:43:43Z</time>
      </trkpt>
      <trkpt lat="45.32416" lon="4.69653">
        <ele>468.78</ele>
        <time>2021-10-20T11:44:01Z</time>
      </trkpt>
      <trkpt lat="45.32421" lon="4.69648">
        <ele>468.78</ele>
        <time>2021-10-20T11:44:14Z</time>
      </trkpt>
      <trkpt lat="45.32421" lon="4.69648">
        <ele>468.78</ele>
        <time>2021-10-20T11:44:23Z</time>
      </trkpt>
      <trkpt lat="45.32427" lon="4.69646">
        <ele>468.3</ele>
        <time>2021-10-20T11:44:35Z</time>
      </trkpt>
      <trkpt lat="45.32428" lon="4.69645">
        <ele>468.3</ele>
        <time>2021-10-20T11:44:36Z</time>
      </trkpt>
      <trkpt lat="45.32429" lon="4.69645">
        <ele>468.3</ele>
        <time>2021-10-20T11:44:37Z</time>
      </trkpt>
      <trkpt lat="45.32435" lon="4.69643">
        <ele>467.82</ele>
        <time>2021-10-20T11:44:47Z</time>
      </trkpt>
      <trkpt lat="45.32437" lon="4.69641">
        <ele>467.82</ele>
        <time>2021-10-20T11:44:49Z</time>
      </trkpt>
      <trkpt lat="45.32439" lon="4.69641">
        <ele>467.82</ele>
        <time>2021-10-20T11:44:50Z</time>
      </trkpt>
      <trkpt lat="45.32462" lon="4.69632">
        <ele>468.3</ele>
        <time>2021-10-20T11:45:09Z</time>
      </trkpt>
      <trkpt lat="45.32483" lon="4.69639">
        <ele>468.3</ele>
        <time>2021-10-20T11:45:26Z</time>
      </trkpt>
      <trkpt lat="45.32501" lon="4.6966">
        <ele>467.82</ele>
        <time>2021-10-20T11:45:44Z</time>
      </trkpt>
      <trkpt lat="45.32511" lon="4.69689">
        <ele>466.38</ele>
        <time>2021-10-20T11:46:02Z</time>
      </trkpt>
      <trkpt lat="45.32518" lon="4.69713">
        <ele>465.42</ele>
        <time>2021-10-20T11:46:18Z</time>
      </trkpt>
      <trkpt lat="45.32535" lon="4.69745">
        <ele>463.01</ele>
        <time>2021-10-20T11:46:41Z</time>
      </trkpt>
      <trkpt lat="45.32553" lon="4.69764">
        <ele>462.53</ele>
        <time>2021-10-20T11:47:02Z</time>
      </trkpt>
      <trkpt lat="45.32574" lon="4.69782">
        <ele>461.57</ele>
        <time>2021-10-20T11:47:24Z</time>
      </trkpt>
      <trkpt lat="45.3259" lon="4.69806">
        <ele>460.61</ele>
        <time>2021-10-20T11:47:44Z</time>
      </trkpt>
      <trkpt lat="45.32606" lon="4.69831">
        <ele>460.13</ele>
        <time>2021-10-20T11:48:02Z</time>
      </trkpt>
      <trkpt lat="45.32623" lon="4.69859">
        <ele>459.17</ele>
        <time>2021-10-20T11:48:23Z</time>
      </trkpt>
      <trkpt lat="45.32621" lon="4.69866">
        <ele>458.69</ele>
        <time>2021-10-20T11:48:35Z</time>
      </trkpt>
      <trkpt lat="45.32621" lon="4.69867">
        <ele>458.69</ele>
        <time>2021-10-20T11:48:45Z</time>
      </trkpt>
      <trkpt lat="45.3262" lon="4.69869">
        <ele>458.69</ele>
        <time>2021-10-20T11:48:47Z</time>
      </trkpt>
      <trkpt lat="45.32619" lon="4.6987">
        <ele>458.69</ele>
        <time>2021-10-20T11:48:48Z</time>
      </trkpt>
      <trkpt lat="45.32619" lon="4.69872">
        <ele>458.69</ele>
        <time>2021-10-20T11:48:49Z</time>
      </trkpt>
      <trkpt lat="45.32606" lon="4.699">
        <ele>455.8</ele>
        <time>2021-10-20T11:49:11Z</time>
      </trkpt>
      <trkpt lat="45.32596" lon="4.6992">
        <ele>452.92</ele>
        <time>2021-10-20T11:49:31Z</time>
      </trkpt>
      <trkpt lat="45.32595" lon="4.69922">
        <ele>452.44</ele>
        <time>2021-10-20T11:49:42Z</time>
      </trkpt>
      <trkpt lat="45.32593" lon="4.69925">
        <ele>452.44</ele>
        <time>2021-10-20T11:49:44Z</time>
      </trkpt>
      <trkpt lat="45.32593" lon="4.69926">
        <ele>452.44</ele>
        <time>2021-10-20T11:49:45Z</time>
      </trkpt>
      <trkpt lat="45.3259" lon="4.69933">
        <ele>452.44</ele>
        <time>2021-10-20T11:49:53Z</time>
      </trkpt>
      <trkpt lat="45.32588" lon="4.69936">
        <ele>451.96</ele>
        <time>2021-10-20T11:49:55Z</time>
      </trkpt>
      <trkpt lat="45.32572" lon="4.69961">
        <ele>449.55</ele>
        <time>2021-10-20T11:50:17Z</time>
      </trkpt>
      <trkpt lat="45.32567" lon="4.6997">
        <ele>447.63</ele>
        <time>2021-10-20T11:50:26Z</time>
      </trkpt>
      <trkpt lat="45.32566" lon="4.69971">
        <ele>447.63</ele>
        <time>2021-10-20T11:50:27Z</time>
      </trkpt>
      <trkpt lat="45.32566" lon="4.69973">
        <ele>447.63</ele>
        <time>2021-10-20T11:50:29Z</time>
      </trkpt>
      <trkpt lat="45.32561" lon="4.69995">
        <ele>444.27</ele>
        <time>2021-10-20T11:50:44Z</time>
      </trkpt>
      <trkpt lat="45.32556" lon="4.70022">
        <ele>441.38</ele>
        <time>2021-10-20T11:51:01Z</time>
      </trkpt>
      <trkpt lat="45.32557" lon="4.70028">
        <ele>440.42</ele>
        <time>2021-10-20T11:51:05Z</time>
      </trkpt>
      <trkpt lat="45.32558" lon="4.70029">
        <ele>440.42</ele>
        <time>2021-10-20T11:51:06Z</time>
      </trkpt>
      <trkpt lat="45.32577" lon="4.70047">
        <ele>439.46</ele>
        <time>2021-10-20T11:51:24Z</time>
      </trkpt>
      <trkpt lat="45.326" lon="4.70067">
        <ele>437.54</ele>
        <time>2021-10-20T11:51:46Z</time>
      </trkpt>
      <trkpt lat="45.32616" lon="4.70093">
        <ele>436.58</ele>
        <time>2021-10-20T11:52:07Z</time>
      </trkpt>
      <trkpt lat="45.32625" lon="4.70111">
        <ele>436.58</ele>
        <time>2021-10-20T11:52:23Z</time>
      </trkpt>
      <trkpt lat="45.32628" lon="4.70115">
        <ele>437.06</ele>
        <time>2021-10-20T11:52:39Z</time>
      </trkpt>
      <trkpt lat="45.32637" lon="4.7013">
        <ele>438.98</ele>
        <time>2021-10-20T11:52:56Z</time>
      </trkpt>
      <trkpt lat="45.32651" lon="4.70143">
        <ele>440.9</ele>
        <time>2021-10-20T11:53:15Z</time>
      </trkpt>
      <trkpt lat="45.32656" lon="4.70139">
        <ele>441.38</ele>
        <time>2021-10-20T11:53:23Z</time>
      </trkpt>
      <trkpt lat="45.32668" lon="4.70127">
        <ele>443.79</ele>
        <time>2021-10-20T11:53:43Z</time>
      </trkpt>
      <trkpt lat="45.32678" lon="4.70127">
        <ele>445.71</ele>
        <time>2021-10-20T11:54:00Z</time>
      </trkpt>
      <trkpt lat="45.32681" lon="4.70129">
        <ele>446.67</ele>
        <time>2021-10-20T11:54:11Z</time>
      </trkpt>
      <trkpt lat="45.32682" lon="4.7013">
        <ele>446.67</ele>
        <time>2021-10-20T11:54:12Z</time>
      </trkpt>
      <trkpt lat="45.32699" lon="4.70154">
        <ele>447.63</ele>
        <time>2021-10-20T11:54:32Z</time>
      </trkpt>
      <trkpt lat="45.32718" lon="4.7017">
        <ele>446.67</ele>
        <time>2021-10-20T11:54:53Z</time>
      </trkpt>
      <trkpt lat="45.32726" lon="4.70177">
        <ele>446.67</ele>
        <time>2021-10-20T11:55:02Z</time>
      </trkpt>
      <trkpt lat="45.32726" lon="4.70178">
        <ele>446.67</ele>
        <time>2021-10-20T11:55:03Z</time>
      </trkpt>
      <trkpt lat="45.32726" lon="4.7018">
        <ele>446.67</ele>
        <time>2021-10-20T11:55:04Z</time>
      </trkpt>
      <trkpt lat="45.32727" lon="4.702">
        <ele>447.15</ele>
        <time>2021-10-20T11:55:20Z</time>
      </trkpt>
      <trkpt lat="45.3273" lon="4.70228">
        <ele>445.23</ele>
        <time>2021-10-20T11:55:41Z</time>
      </trkpt>
      <trkpt lat="45.32735" lon="4.70247">
        <ele>444.75</ele>
        <time>2021-10-20T11:55:57Z</time>
      </trkpt>
      <trkpt lat="45.32735" lon="4.70248">
        <ele>444.75</ele>
        <time>2021-10-20T11:55:58Z</time>
      </trkpt>
      <trkpt lat="45.32736" lon="4.7025">
        <ele>444.75</ele>
        <time>2021-10-20T11:55:59Z</time>
      </trkpt>
      <trkpt lat="45.32739" lon="4.70258">
        <ele>444.27</ele>
        <time>2021-10-20T11:56:10Z</time>
      </trkpt>
      <trkpt lat="45.3274" lon="4.7026">
        <ele>444.27</ele>
        <time>2021-10-20T11:56:11Z</time>
      </trkpt>
      <trkpt lat="45.32747" lon="4.70279">
        <ele>443.79</ele>
        <time>2021-10-20T11:56:26Z</time>
      </trkpt>
      <trkpt lat="45.32749" lon="4.70296">
        <ele>442.82</ele>
        <time>2021-10-20T11:56:38Z</time>
      </trkpt>
      <trkpt lat="45.32749" lon="4.70298">
        <ele>442.82</ele>
        <time>2021-10-20T11:56:39Z</time>
      </trkpt>
      <trkpt lat="45.32749" lon="4.70299">
        <ele>442.82</ele>
        <time>2021-10-20T11:56:40Z</time>
      </trkpt>
      <trkpt lat="45.32749" lon="4.70301">
        <ele>442.34</ele>
        <time>2021-10-20T11:56:41Z</time>
      </trkpt>
      <trkpt lat="45.3275" lon="4.70331">
        <ele>439.94</ele>
        <time>2021-10-20T11:57:00Z</time>
      </trkpt>
      <trkpt lat="45.32742" lon="4.70367">
        <ele>438.02</ele>
        <time>2021-10-20T11:57:23Z</time>
      </trkpt>
      <trkpt lat="45.32737" lon="4.70395">
        <ele>437.54</ele>
        <time>2021-10-20T11:57:43Z</time>
      </trkpt>
      <trkpt lat="45.32735" lon="4.70422">
        <ele>435.13</ele>
        <time>2021-10-20T11:58:02Z</time>
      </trkpt>
      <trkpt lat="45.32737" lon="4.70444">
        <ele>434.17</ele>
        <time>2021-10-20T11:58:17Z</time>
      </trkpt>
      <trkpt lat="45.32742" lon="4.70471">
        <ele>432.25</ele>
        <time>2021-10-20T11:58:37Z</time>
      </trkpt>
      <trkpt lat="45.32742" lon="4.70472">
        <ele>432.25</ele>
        <time>2021-10-20T11:58:38Z</time>
      </trkpt>
      <trkpt lat="45.32743" lon="4.70473">
        <ele>432.25</ele>
        <time>2021-10-20T11:58:39Z</time>
      </trkpt>
      <trkpt lat="45.32744" lon="4.70474">
        <ele>431.77</ele>
        <time>2021-10-20T11:58:40Z</time>
      </trkpt>
      <trkpt lat="45.32744" lon="4.70476">
        <ele>431.77</ele>
        <time>2021-10-20T11:58:41Z</time>
      </trkpt>
      <trkpt lat="45.32745" lon="4.70477">
        <ele>431.77</ele>
        <time>2021-10-20T11:58:42Z</time>
      </trkpt>
      <trkpt lat="45.32753" lon="4.70505">
        <ele>430.33</ele>
        <time>2021-10-20T11:59:04Z</time>
      </trkpt>
      <trkpt lat="45.32761" lon="4.70532">
        <ele>427.92</ele>
        <time>2021-10-20T11:59:25Z</time>
      </trkpt>
      <trkpt lat="45.3277" lon="4.70562">
        <ele>426</ele>
        <time>2021-10-20T11:59:48Z</time>
      </trkpt>
      <trkpt lat="45.32775" lon="4.70579">
        <ele>425.04</ele>
        <time>2021-10-20T12:00:01Z</time>
      </trkpt>
      <trkpt lat="45.32776" lon="4.7058">
        <ele>425.04</ele>
        <time>2021-10-20T12:00:02Z</time>
      </trkpt>
      <trkpt lat="45.32776" lon="4.70582">
        <ele>425.04</ele>
        <time>2021-10-20T12:00:03Z</time>
      </trkpt>
      <trkpt lat="45.32778" lon="4.70586">
        <ele>424.56</ele>
        <time>2021-10-20T12:00:06Z</time>
      </trkpt>
      <trkpt lat="45.32778" lon="4.70587">
        <ele>424.56</ele>
        <time>2021-10-20T12:00:07Z</time>
      </trkpt>
      <trkpt lat="45.32778" lon="4.70588">
        <ele>424.08</ele>
        <time>2021-10-20T12:00:08Z</time>
      </trkpt>
      <trkpt lat="45.32779" lon="4.7059">
        <ele>424.08</ele>
        <time>2021-10-20T12:00:09Z</time>
      </trkpt>
      <trkpt lat="45.32779" lon="4.70591">
        <ele>423.6</ele>
        <time>2021-10-20T12:00:10Z</time>
      </trkpt>
      <trkpt lat="45.32792" lon="4.7062">
        <ele>422.16</ele>
        <time>2021-10-20T12:00:34Z</time>
      </trkpt>
      <trkpt lat="45.32798" lon="4.70634">
        <ele>421.19</ele>
        <time>2021-10-20T12:00:46Z</time>
      </trkpt>
      <trkpt lat="45.32789" lon="4.70661">
        <ele>419.27</ele>
        <time>2021-10-20T12:01:06Z</time>
      </trkpt>
      <trkpt lat="45.32786" lon="4.70664">
        <ele>418.79</ele>
        <time>2021-10-20T12:01:15Z</time>
      </trkpt>
      <trkpt lat="45.32785" lon="4.70664">
        <ele>418.79</ele>
        <time>2021-10-20T12:01:16Z</time>
      </trkpt>
      <trkpt lat="45.32783" lon="4.70664">
        <ele>418.79</ele>
        <time>2021-10-20T12:01:18Z</time>
      </trkpt>
      <trkpt lat="45.32762" lon="4.7066">
        <ele>416.87</ele>
        <time>2021-10-20T12:01:37Z</time>
      </trkpt>
      <trkpt lat="45.32759" lon="4.70659">
        <ele>416.87</ele>
        <time>2021-10-20T12:01:40Z</time>
      </trkpt>
      <trkpt lat="45.32745" lon="4.70652">
        <ele>415.43</ele>
        <time>2021-10-20T12:01:54Z</time>
      </trkpt>
      <trkpt lat="45.32738" lon="4.7065">
        <ele>414.95</ele>
        <time>2021-10-20T12:02:01Z</time>
      </trkpt>
      <trkpt lat="45.32737" lon="4.7065">
        <ele>414.47</ele>
        <time>2021-10-20T12:02:02Z</time>
      </trkpt>
      <trkpt lat="45.32736" lon="4.70649">
        <ele>414.47</ele>
        <time>2021-10-20T12:02:03Z</time>
      </trkpt>
      <trkpt lat="45.32735" lon="4.70649">
        <ele>414.47</ele>
        <time>2021-10-20T12:02:04Z</time>
      </trkpt>
      <trkpt lat="45.32734" lon="4.70649">
        <ele>414.47</ele>
        <time>2021-10-20T12:02:05Z</time>
      </trkpt>
      <trkpt lat="45.32733" lon="4.70649">
        <ele>414.47</ele>
        <time>2021-10-20T12:02:06Z</time>
      </trkpt>
      <trkpt lat="45.3271" lon="4.70661">
        <ele>413.02</ele>
        <time>2021-10-20T12:02:30Z</time>
      </trkpt>
      <trkpt lat="45.32707" lon="4.70668">
        <ele>413.02</ele>
        <time>2021-10-20T12:02:36Z</time>
      </trkpt>
      <trkpt lat="45.32702" lon="4.70695">
        <ele>411.1</ele>
        <time>2021-10-20T12:02:54Z</time>
      </trkpt>
      <trkpt lat="45.32703" lon="4.70725">
        <ele>408.7</ele>
        <time>2021-10-20T12:03:14Z</time>
      </trkpt>
      <trkpt lat="45.32704" lon="4.70728">
        <ele>408.7</ele>
        <time>2021-10-20T12:03:16Z</time>
      </trkpt>
      <trkpt lat="45.32704" lon="4.70731">
        <ele>408.22</ele>
        <time>2021-10-20T12:03:19Z</time>
      </trkpt>
      <trkpt lat="45.32704" lon="4.70733">
        <ele>408.22</ele>
        <time>2021-10-20T12:03:20Z</time>
      </trkpt>
      <trkpt lat="45.32704" lon="4.70735">
        <ele>408.22</ele>
        <time>2021-10-20T12:03:21Z</time>
      </trkpt>
      <trkpt lat="45.32702" lon="4.70755">
        <ele>407.26</ele>
        <time>2021-10-20T12:03:36Z</time>
      </trkpt>
      <trkpt lat="45.32702" lon="4.70756">
        <ele>406.77</ele>
        <time>2021-10-20T12:03:37Z</time>
      </trkpt>
      <trkpt lat="45.32701" lon="4.70758">
        <ele>406.77</ele>
        <time>2021-10-20T12:03:38Z</time>
      </trkpt>
      <trkpt lat="45.32701" lon="4.7076">
        <ele>406.77</ele>
        <time>2021-10-20T12:03:39Z</time>
      </trkpt>
      <trkpt lat="45.32701" lon="4.70761">
        <ele>406.77</ele>
        <time>2021-10-20T12:03:40Z</time>
      </trkpt>
      <trkpt lat="45.327" lon="4.70764">
        <ele>406.77</ele>
        <time>2021-10-20T12:03:42Z</time>
      </trkpt>
      <trkpt lat="45.327" lon="4.70766">
        <ele>406.77</ele>
        <time>2021-10-20T12:03:43Z</time>
      </trkpt>
      <trkpt lat="45.32693" lon="4.70796">
        <ele>404.37</ele>
        <time>2021-10-20T12:04:03Z</time>
      </trkpt>
      <trkpt lat="45.32684" lon="4.70831">
        <ele>402.93</ele>
        <time>2021-10-20T12:04:26Z</time>
      </trkpt>
      <trkpt lat="45.32675" lon="4.70868">
        <ele>401.49</ele>
        <time>2021-10-20T12:04:53Z</time>
      </trkpt>
      <trkpt lat="45.32674" lon="4.7087">
        <ele>401.49</ele>
        <time>2021-10-20T12:04:54Z</time>
      </trkpt>
      <trkpt lat="45.32673" lon="4.70873">
        <ele>401.01</ele>
        <time>2021-10-20T12:04:56Z</time>
      </trkpt>
      <trkpt lat="45.32673" lon="4.70874">
        <ele>401.01</ele>
        <time>2021-10-20T12:04:57Z</time>
      </trkpt>
      <trkpt lat="45.32672" lon="4.70876">
        <ele>401.01</ele>
        <time>2021-10-20T12:04:58Z</time>
      </trkpt>
      <trkpt lat="45.32672" lon="4.70878">
        <ele>401.01</ele>
        <time>2021-10-20T12:04:59Z</time>
      </trkpt>
      <trkpt lat="45.32672" lon="4.70879">
        <ele>401.01</ele>
        <time>2021-10-20T12:05:00Z</time>
      </trkpt>
      <trkpt lat="45.32661" lon="4.70916">
        <ele>400.05</ele>
        <time>2021-10-20T12:05:25Z</time>
      </trkpt>
      <trkpt lat="45.3265" lon="4.70954">
        <ele>398.12</ele>
        <time>2021-10-20T12:05:50Z</time>
      </trkpt>
      <trkpt lat="45.32633" lon="4.70984">
        <ele>397.16</ele>
        <time>2021-10-20T12:06:13Z</time>
      </trkpt>
      <trkpt lat="45.32612" lon="4.71004">
        <ele>394.76</ele>
        <time>2021-10-20T12:06:35Z</time>
      </trkpt>
      <trkpt lat="45.32587" lon="4.71019">
        <ele>391.39</ele>
        <time>2021-10-20T12:06:59Z</time>
      </trkpt>
      <trkpt lat="45.32565" lon="4.71046">
        <ele>389.95</ele>
        <time>2021-10-20T12:07:25Z</time>
      </trkpt>
      <trkpt lat="45.32561" lon="4.71053">
        <ele>389.95</ele>
        <time>2021-10-20T12:07:39Z</time>
      </trkpt>
      <trkpt lat="45.32561" lon="4.71054">
        <ele>389.95</ele>
        <time>2021-10-20T12:07:40Z</time>
      </trkpt>
      <trkpt lat="45.32558" lon="4.71059">
        <ele>390.43</ele>
        <time>2021-10-20T12:07:45Z</time>
      </trkpt>
      <trkpt lat="45.32558" lon="4.71061">
        <ele>390.43</ele>
        <time>2021-10-20T12:07:46Z</time>
      </trkpt>
      <trkpt lat="45.32557" lon="4.71062">
        <ele>390.43</ele>
        <time>2021-10-20T12:07:47Z</time>
      </trkpt>
      <trkpt lat="45.32548" lon="4.7108">
        <ele>390.43</ele>
        <time>2021-10-20T12:08:02Z</time>
      </trkpt>
      <trkpt lat="45.32544" lon="4.7109">
        <ele>390.43</ele>
        <time>2021-10-20T12:08:18Z</time>
      </trkpt>
      <trkpt lat="45.32544" lon="4.71094">
        <ele>390.43</ele>
        <time>2021-10-20T12:08:31Z</time>
      </trkpt>
      <trkpt lat="45.32541" lon="4.71098">
        <ele>390.43</ele>
        <time>2021-10-20T12:08:48Z</time>
      </trkpt>
      <trkpt lat="45.32542" lon="4.71099">
        <ele>390.43</ele>
        <time>2021-10-20T12:09:01Z</time>
      </trkpt>
      <trkpt lat="45.32543" lon="4.71104">
        <ele>390.43</ele>
        <time>2021-10-20T12:09:04Z</time>
      </trkpt>
      <trkpt lat="45.32552" lon="4.71134">
        <ele>392.36</ele>
        <time>2021-10-20T12:09:25Z</time>
      </trkpt>
      <trkpt lat="45.32555" lon="4.71141">
        <ele>392.84</ele>
        <time>2021-10-20T12:09:33Z</time>
      </trkpt>
      <trkpt lat="45.32557" lon="4.71145">
        <ele>392.84</ele>
        <time>2021-10-20T12:09:36Z</time>
      </trkpt>
      <trkpt lat="45.32557" lon="4.71147">
        <ele>392.84</ele>
        <time>2021-10-20T12:09:37Z</time>
      </trkpt>
      <trkpt lat="45.32558" lon="4.71148">
        <ele>392.84</ele>
        <time>2021-10-20T12:09:38Z</time>
      </trkpt>
      <trkpt lat="45.32557" lon="4.71186">
        <ele>395.24</ele>
        <time>2021-10-20T12:10:01Z</time>
      </trkpt>
      <trkpt lat="45.32536" lon="4.71212">
        <ele>397.64</ele>
        <time>2021-10-20T12:10:26Z</time>
      </trkpt>
      <trkpt lat="45.32509" lon="4.71222">
        <ele>400.05</ele>
        <time>2021-10-20T12:10:51Z</time>
      </trkpt>
      <trkpt lat="45.32479" lon="4.71233">
        <ele>401.97</ele>
        <time>2021-10-20T12:11:20Z</time>
      </trkpt>
      <trkpt lat="45.32454" lon="4.71243">
        <ele>403.89</ele>
        <time>2021-10-20T12:11:45Z</time>
      </trkpt>
      <trkpt lat="45.32431" lon="4.71252">
        <ele>405.81</ele>
        <time>2021-10-20T12:12:09Z</time>
      </trkpt>
      <trkpt lat="45.32405" lon="4.71262">
        <ele>407.26</ele>
        <time>2021-10-20T12:12:36Z</time>
      </trkpt>
      <trkpt lat="45.3238" lon="4.71269">
        <ele>408.7</ele>
        <time>2021-10-20T12:13:01Z</time>
      </trkpt>
      <trkpt lat="45.32355" lon="4.71274">
        <ele>410.14</ele>
        <time>2021-10-20T12:13:27Z</time>
      </trkpt>
      <trkpt lat="45.32352" lon="4.71275">
        <ele>410.62</ele>
        <time>2021-10-20T12:13:36Z</time>
      </trkpt>
      <trkpt lat="45.32351" lon="4.71275">
        <ele>410.62</ele>
        <time>2021-10-20T12:13:37Z</time>
      </trkpt>
      <trkpt lat="45.3235" lon="4.71275">
        <ele>410.62</ele>
        <time>2021-10-20T12:13:38Z</time>
      </trkpt>
      <trkpt lat="45.32349" lon="4.71275">
        <ele>410.62</ele>
        <time>2021-10-20T12:13:39Z</time>
      </trkpt>
      <trkpt lat="45.32348" lon="4.71275">
        <ele>410.62</ele>
        <time>2021-10-20T12:13:40Z</time>
      </trkpt>
      <trkpt lat="45.32316" lon="4.7128">
        <ele>413.5</ele>
        <time>2021-10-20T12:14:10Z</time>
      </trkpt>
      <trkpt lat="45.32288" lon="4.71287">
        <ele>413.98</ele>
        <time>2021-10-20T12:14:37Z</time>
      </trkpt>
      <trkpt lat="45.32262" lon="4.71306">
        <ele>415.91</ele>
        <time>2021-10-20T12:15:05Z</time>
      </trkpt>
      <trkpt lat="45.32247" lon="4.71327">
        <ele>417.83</ele>
        <time>2021-10-20T12:15:26Z</time>
      </trkpt>
      <trkpt lat="45.32239" lon="4.71346">
        <ele>418.31</ele>
        <time>2021-10-20T12:15:44Z</time>
      </trkpt>
      <trkpt lat="45.32233" lon="4.71363">
        <ele>420.23</ele>
        <time>2021-10-20T12:16:06Z</time>
      </trkpt>
      <trkpt lat="45.32229" lon="4.71367">
        <ele>420.23</ele>
        <time>2021-10-20T12:16:21Z</time>
      </trkpt>
      <trkpt lat="45.32228" lon="4.71367">
        <ele>420.23</ele>
        <time>2021-10-20T12:16:42Z</time>
      </trkpt>
      <trkpt lat="45.32228" lon="4.71367">
        <ele>420.71</ele>
        <time>2021-10-20T12:17:01Z</time>
      </trkpt>
      <trkpt lat="45.32228" lon="4.71366">
        <ele>420.71</ele>
        <time>2021-10-20T12:17:27Z</time>
      </trkpt>
      <trkpt lat="45.32228" lon="4.71366">
        <ele>421.19</ele>
        <time>2021-10-20T12:17:57Z</time>
      </trkpt>
      <trkpt lat="45.3223" lon="4.71367">
        <ele>421.19</ele>
        <time>2021-10-20T12:18:34Z</time>
      </trkpt>
      <trkpt lat="45.32231" lon="4.71375">
        <ele>421.19</ele>
        <time>2021-10-20T12:18:52Z</time>
      </trkpt>
      <trkpt lat="45.32232" lon="4.71377">
        <ele>421.19</ele>
        <time>2021-10-20T12:18:53Z</time>
      </trkpt>
      <trkpt lat="45.32233" lon="4.71399">
        <ele>423.12</ele>
        <time>2021-10-20T12:19:14Z</time>
      </trkpt>
      <trkpt lat="45.32233" lon="4.71399">
        <ele>422.64</ele>
        <time>2021-10-20T12:19:40Z</time>
      </trkpt>
      <trkpt lat="45.32232" lon="4.714">
        <ele>422.64</ele>
        <time>2021-10-20T12:20:01Z</time>
      </trkpt>
      <trkpt lat="45.32232" lon="4.71396">
        <ele>423.12</ele>
        <time>2021-10-20T12:20:17Z</time>
      </trkpt>
      <trkpt lat="45.32236" lon="4.71397">
        <ele>423.12</ele>
        <time>2021-10-20T12:20:35Z</time>
      </trkpt>
      <trkpt lat="45.32243" lon="4.71396">
        <ele>423.12</ele>
        <time>2021-10-20T12:20:51Z</time>
      </trkpt>
      <trkpt lat="45.32243" lon="4.71394">
        <ele>423.12</ele>
        <time>2021-10-20T12:21:05Z</time>
      </trkpt>
      <trkpt lat="45.32244" lon="4.71395">
        <ele>423.12</ele>
        <time>2021-10-20T12:21:19Z</time>
      </trkpt>
      <trkpt lat="45.32247" lon="4.71394">
        <ele>423.12</ele>
        <time>2021-10-20T12:21:22Z</time>
      </trkpt>
      <trkpt lat="45.32249" lon="4.71395">
        <ele>422.64</ele>
        <time>2021-10-20T12:21:24Z</time>
      </trkpt>
      <trkpt lat="45.3225" lon="4.71395">
        <ele>422.64</ele>
        <time>2021-10-20T12:21:25Z</time>
      </trkpt>
      <trkpt lat="45.32251" lon="4.71395">
        <ele>422.64</ele>
        <time>2021-10-20T12:21:26Z</time>
      </trkpt>
      <trkpt lat="45.32252" lon="4.71394">
        <ele>422.16</ele>
        <time>2021-10-20T12:21:27Z</time>
      </trkpt>
      <trkpt lat="45.32253" lon="4.71394">
        <ele>422.16</ele>
        <time>2021-10-20T12:21:28Z</time>
      </trkpt>
      <trkpt lat="45.32255" lon="4.71394">
        <ele>422.16</ele>
        <time>2021-10-20T12:21:29Z</time>
      </trkpt>
      <trkpt lat="45.3226" lon="4.71395">
        <ele>422.16</ele>
        <time>2021-10-20T12:21:37Z</time>
      </trkpt>
      <trkpt lat="45.32261" lon="4.71395">
        <ele>421.68</ele>
        <time>2021-10-20T12:21:38Z</time>
      </trkpt>
      <trkpt lat="45.32263" lon="4.71395">
        <ele>421.19</ele>
        <time>2021-10-20T12:21:40Z</time>
      </trkpt>
      <trkpt lat="45.32264" lon="4.71396">
        <ele>421.19</ele>
        <time>2021-10-20T12:21:41Z</time>
      </trkpt>
      <trkpt lat="45.32272" lon="4.71396">
        <ele>421.19</ele>
        <time>2021-10-20T12:21:49Z</time>
      </trkpt>
      <trkpt lat="45.32276" lon="4.71396">
        <ele>420.71</ele>
        <time>2021-10-20T12:21:52Z</time>
      </trkpt>
      <trkpt lat="45.32277" lon="4.71396">
        <ele>420.23</ele>
        <time>2021-10-20T12:21:53Z</time>
      </trkpt>
      <trkpt lat="45.32278" lon="4.71396">
        <ele>420.23</ele>
        <time>2021-10-20T12:21:54Z</time>
      </trkpt>
      <trkpt lat="45.32279" lon="4.71396">
        <ele>420.23</ele>
        <time>2021-10-20T12:21:55Z</time>
      </trkpt>
      <trkpt lat="45.3228" lon="4.71396">
        <ele>420.23</ele>
        <time>2021-10-20T12:21:56Z</time>
      </trkpt>
      <trkpt lat="45.323" lon="4.71399">
        <ele>418.79</ele>
        <time>2021-10-20T12:22:14Z</time>
      </trkpt>
      <trkpt lat="45.32316" lon="4.71404">
        <ele>418.31</ele>
        <time>2021-10-20T12:22:31Z</time>
      </trkpt>
      <trkpt lat="45.32317" lon="4.71405">
        <ele>417.83</ele>
        <time>2021-10-20T12:22:32Z</time>
      </trkpt>
      <trkpt lat="45.32318" lon="4.71406">
        <ele>417.83</ele>
        <time>2021-10-20T12:22:33Z</time>
      </trkpt>
      <trkpt lat="45.32319" lon="4.71407">
        <ele>417.83</ele>
        <time>2021-10-20T12:22:34Z</time>
      </trkpt>
      <trkpt lat="45.32321" lon="4.71407">
        <ele>417.83</ele>
        <time>2021-10-20T12:22:35Z</time>
      </trkpt>
      <trkpt lat="45.32345" lon="4.71431">
        <ele>416.87</ele>
        <time>2021-10-20T12:22:59Z</time>
      </trkpt>
      <trkpt lat="45.32367" lon="4.71455">
        <ele>415.43</ele>
        <time>2021-10-20T12:23:23Z</time>
      </trkpt>
      <trkpt lat="45.32382" lon="4.71471">
        <ele>414.95</ele>
        <time>2021-10-20T12:23:45Z</time>
      </trkpt>
      <trkpt lat="45.32382" lon="4.71472">
        <ele>414.95</ele>
        <time>2021-10-20T12:23:50Z</time>
      </trkpt>
      <trkpt lat="45.32383" lon="4.71473">
        <ele>414.95</ele>
        <time>2021-10-20T12:23:51Z</time>
      </trkpt>
      <trkpt lat="45.32385" lon="4.71474">
        <ele>414.95</ele>
        <time>2021-10-20T12:23:53Z</time>
      </trkpt>
      <trkpt lat="45.32406" lon="4.71498">
        <ele>414.47</ele>
        <time>2021-10-20T12:24:15Z</time>
      </trkpt>
      <trkpt lat="45.32409" lon="4.71501">
        <ele>413.5</ele>
        <time>2021-10-20T12:24:27Z</time>
      </trkpt>
      <trkpt lat="45.32412" lon="4.71504">
        <ele>412.54</ele>
        <time>2021-10-20T12:24:37Z</time>
      </trkpt>
      <trkpt lat="45.32413" lon="4.71505">
        <ele>412.54</ele>
        <time>2021-10-20T12:24:38Z</time>
      </trkpt>
      <trkpt lat="45.32414" lon="4.71506">
        <ele>412.54</ele>
        <time>2021-10-20T12:24:39Z</time>
      </trkpt>
      <trkpt lat="45.32432" lon="4.71526">
        <ele>411.58</ele>
        <time>2021-10-20T12:25:00Z</time>
      </trkpt>
      <trkpt lat="45.32453" lon="4.71548">
        <ele>410.14</ele>
        <time>2021-10-20T12:25:23Z</time>
      </trkpt>
      <trkpt lat="45.32476" lon="4.71571">
        <ele>407.74</ele>
        <time>2021-10-20T12:25:47Z</time>
      </trkpt>
      <trkpt lat="45.32493" lon="4.7159">
        <ele>406.77</ele>
        <time>2021-10-20T12:26:06Z</time>
      </trkpt>
      <trkpt lat="45.32509" lon="4.71612">
        <ele>404.37</ele>
        <time>2021-10-20T12:26:26Z</time>
      </trkpt>
      <trkpt lat="45.32525" lon="4.71632">
        <ele>403.41</ele>
        <time>2021-10-20T12:26:48Z</time>
      </trkpt>
      <trkpt lat="45.3254" lon="4.71651">
        <ele>402.45</ele>
        <time>2021-10-20T12:27:08Z</time>
      </trkpt>
      <trkpt lat="45.32549" lon="4.71667">
        <ele>401.01</ele>
        <time>2021-10-20T12:27:24Z</time>
      </trkpt>
      <trkpt lat="45.3255" lon="4.71669">
        <ele>401.01</ele>
        <time>2021-10-20T12:27:25Z</time>
      </trkpt>
      <trkpt lat="45.32568" lon="4.71696">
        <ele>398.6</ele>
        <time>2021-10-20T12:27:49Z</time>
      </trkpt>
      <trkpt lat="45.32578" lon="4.71718">
        <ele>396.68</ele>
        <time>2021-10-20T12:28:08Z</time>
      </trkpt>
      <trkpt lat="45.32591" lon="4.71745">
        <ele>395.24</ele>
        <time>2021-10-20T12:28:28Z</time>
      </trkpt>
      <trkpt lat="45.32591" lon="4.71747">
        <ele>395.24</ele>
        <time>2021-10-20T12:28:30Z</time>
      </trkpt>
      <trkpt lat="45.32608" lon="4.7178">
        <ele>391.39</ele>
        <time>2021-10-20T12:28:55Z</time>
      </trkpt>
      <trkpt lat="45.32625" lon="4.71808">
        <ele>389.47</ele>
        <time>2021-10-20T12:29:19Z</time>
      </trkpt>
      <trkpt lat="45.32642" lon="4.71842">
        <ele>388.03</ele>
        <time>2021-10-20T12:29:46Z</time>
      </trkpt>
      <trkpt lat="45.32649" lon="4.71848">
        <ele>386.11</ele>
        <time>2021-10-20T12:30:02Z</time>
      </trkpt>
      <trkpt lat="45.32651" lon="4.7185">
        <ele>386.11</ele>
        <time>2021-10-20T12:30:05Z</time>
      </trkpt>
      <trkpt lat="45.32652" lon="4.7185">
        <ele>385.63</ele>
        <time>2021-10-20T12:30:06Z</time>
      </trkpt>
      <trkpt lat="45.32652" lon="4.71858">
        <ele>385.63</ele>
        <time>2021-10-20T12:30:20Z</time>
      </trkpt>
      <trkpt lat="45.32646" lon="4.71864">
        <ele>385.63</ele>
        <time>2021-10-20T12:30:31Z</time>
      </trkpt>
      <trkpt lat="45.32646" lon="4.71866">
        <ele>385.63</ele>
        <time>2021-10-20T12:30:32Z</time>
      </trkpt>
      <trkpt lat="45.32626" lon="4.71889">
        <ele>385.15</ele>
        <time>2021-10-20T12:30:56Z</time>
      </trkpt>
      <trkpt lat="45.32606" lon="4.71912">
        <ele>384.18</ele>
        <time>2021-10-20T12:31:17Z</time>
      </trkpt>
      <trkpt lat="45.32595" lon="4.71928">
        <ele>383.22</ele>
        <time>2021-10-20T12:31:34Z</time>
      </trkpt>
      <trkpt lat="45.3258" lon="4.71946">
        <ele>383.22</ele>
        <time>2021-10-20T12:31:51Z</time>
      </trkpt>
      <trkpt lat="45.32564" lon="4.7196">
        <ele>384.18</ele>
        <time>2021-10-20T12:32:08Z</time>
      </trkpt>
      <trkpt lat="45.32542" lon="4.71978">
        <ele>383.7</ele>
        <time>2021-10-20T12:32:31Z</time>
      </trkpt>
      <trkpt lat="45.32524" lon="4.71997">
        <ele>383.7</ele>
        <time>2021-10-20T12:32:50Z</time>
      </trkpt>
      <trkpt lat="45.32506" lon="4.72023">
        <ele>383.22</ele>
        <time>2021-10-20T12:33:14Z</time>
      </trkpt>
      <trkpt lat="45.32492" lon="4.72042">
        <ele>382.74</ele>
        <time>2021-10-20T12:33:33Z</time>
      </trkpt>
      <trkpt lat="45.32491" lon="4.72044">
        <ele>381.78</ele>
        <time>2021-10-20T12:33:43Z</time>
      </trkpt>
      <trkpt lat="45.3249" lon="4.72045">
        <ele>381.78</ele>
        <time>2021-10-20T12:33:44Z</time>
      </trkpt>
      <trkpt lat="45.32489" lon="4.72046">
        <ele>381.78</ele>
        <time>2021-10-20T12:33:45Z</time>
      </trkpt>
      <trkpt lat="45.32469" lon="4.72057">
        <ele>380.82</ele>
        <time>2021-10-20T12:34:06Z</time>
      </trkpt>
      <trkpt lat="45.32448" lon="4.72059">
        <ele>379.86</ele>
        <time>2021-10-20T12:34:26Z</time>
      </trkpt>
      <trkpt lat="45.32437" lon="4.72068">
        <ele>379.86</ele>
        <time>2021-10-20T12:34:40Z</time>
      </trkpt>
      <trkpt lat="45.32429" lon="4.72082">
        <ele>380.82</ele>
        <time>2021-10-20T12:34:55Z</time>
      </trkpt>
      <trkpt lat="45.32422" lon="4.72093">
        <ele>381.78</ele>
        <time>2021-10-20T12:35:11Z</time>
      </trkpt>
      <trkpt lat="45.32419" lon="4.72095">
        <ele>382.26</ele>
        <time>2021-10-20T12:35:14Z</time>
      </trkpt>
      <trkpt lat="45.3241" lon="4.72106">
        <ele>384.18</ele>
        <time>2021-10-20T12:35:27Z</time>
      </trkpt>
      <trkpt lat="45.3241" lon="4.72107">
        <ele>384.18</ele>
        <time>2021-10-20T12:35:28Z</time>
      </trkpt>
      <trkpt lat="45.32397" lon="4.72122">
        <ele>385.15</ele>
        <time>2021-10-20T12:35:45Z</time>
      </trkpt>
      <trkpt lat="45.32385" lon="4.72136">
        <ele>387.55</ele>
        <time>2021-10-20T12:36:02Z</time>
      </trkpt>
      <trkpt lat="45.32376" lon="4.72149">
        <ele>388.99</ele>
        <time>2021-10-20T12:36:18Z</time>
      </trkpt>
      <trkpt lat="45.32375" lon="4.72153">
        <ele>388.99</ele>
        <time>2021-10-20T12:36:22Z</time>
      </trkpt>
      <trkpt lat="45.32374" lon="4.72154">
        <ele>388.99</ele>
        <time>2021-10-20T12:36:23Z</time>
      </trkpt>
      <trkpt lat="45.32373" lon="4.72161">
        <ele>389.47</ele>
        <time>2021-10-20T12:36:28Z</time>
      </trkpt>
      <trkpt lat="45.32373" lon="4.72166">
        <ele>390.43</ele>
        <time>2021-10-20T12:36:32Z</time>
      </trkpt>
      <trkpt lat="45.32369" lon="4.72177">
        <ele>392.84</ele>
        <time>2021-10-20T12:36:45Z</time>
      </trkpt>
      <trkpt lat="45.32363" lon="4.72182">
        <ele>394.28</ele>
        <time>2021-10-20T12:36:57Z</time>
      </trkpt>
      <trkpt lat="45.32352" lon="4.72191">
        <ele>396.2</ele>
        <time>2021-10-20T12:37:14Z</time>
      </trkpt>
      <trkpt lat="45.32347" lon="4.72194">
        <ele>396.68</ele>
        <time>2021-10-20T12:37:19Z</time>
      </trkpt>
      <trkpt lat="45.32333" lon="4.72203">
        <ele>399.57</ele>
        <time>2021-10-20T12:37:38Z</time>
      </trkpt>
      <trkpt lat="45.32319" lon="4.72213">
        <ele>400.05</ele>
        <time>2021-10-20T12:37:57Z</time>
      </trkpt>
      <trkpt lat="45.32319" lon="4.72214">
        <ele>400.05</ele>
        <time>2021-10-20T12:37:58Z</time>
      </trkpt>
      <trkpt lat="45.32302" lon="4.72234">
        <ele>401.01</ele>
        <time>2021-10-20T12:38:18Z</time>
      </trkpt>
      <trkpt lat="45.32286" lon="4.72253">
        <ele>402.45</ele>
        <time>2021-10-20T12:38:38Z</time>
      </trkpt>
      <trkpt lat="45.32271" lon="4.72272">
        <ele>403.89</ele>
        <time>2021-10-20T12:38:58Z</time>
      </trkpt>
      <trkpt lat="45.32254" lon="4.72295">
        <ele>405.81</ele>
        <time>2021-10-20T12:39:22Z</time>
      </trkpt>
      <trkpt lat="45.3224" lon="4.72311">
        <ele>408.7</ele>
        <time>2021-10-20T12:39:43Z</time>
      </trkpt>
      <trkpt lat="45.32226" lon="4.72328">
        <ele>411.58</ele>
        <time>2021-10-20T12:40:05Z</time>
      </trkpt>
      <trkpt lat="45.32216" lon="4.7234">
        <ele>414.95</ele>
        <time>2021-10-20T12:40:21Z</time>
      </trkpt>
      <trkpt lat="45.32203" lon="4.72352">
        <ele>417.83</ele>
        <time>2021-10-20T12:40:39Z</time>
      </trkpt>
      <trkpt lat="45.32188" lon="4.72367">
        <ele>420.23</ele>
        <time>2021-10-20T12:40:59Z</time>
      </trkpt>
      <trkpt lat="45.32173" lon="4.72382">
        <ele>423.6</ele>
        <time>2021-10-20T12:41:17Z</time>
      </trkpt>
      <trkpt lat="45.32168" lon="4.72387">
        <ele>425.52</ele>
        <time>2021-10-20T12:41:23Z</time>
      </trkpt>
      <trkpt lat="45.32152" lon="4.72404">
        <ele>426.48</ele>
        <time>2021-10-20T12:41:43Z</time>
      </trkpt>
      <trkpt lat="45.32134" lon="4.72423">
        <ele>426.96</ele>
        <time>2021-10-20T12:42:04Z</time>
      </trkpt>
      <trkpt lat="45.32114" lon="4.72446">
        <ele>429.85</ele>
        <time>2021-10-20T12:42:28Z</time>
      </trkpt>
      <trkpt lat="45.32106" lon="4.72459">
        <ele>431.77</ele>
        <time>2021-10-20T12:42:46Z</time>
      </trkpt>
      <trkpt lat="45.32106" lon="4.72459">
        <ele>432.73</ele>
        <time>2021-10-20T12:43:14Z</time>
      </trkpt>
      <trkpt lat="45.32105" lon="4.72459">
        <ele>432.25</ele>
        <time>2021-10-20T12:43:33Z</time>
      </trkpt>
      <trkpt lat="45.32105" lon="4.72459">
        <ele>432.25</ele>
        <time>2021-10-20T12:43:55Z</time>
      </trkpt>
      <trkpt lat="45.32105" lon="4.72459">
        <ele>431.77</ele>
        <time>2021-10-20T12:44:14Z</time>
      </trkpt>
      <trkpt lat="45.32105" lon="4.72459">
        <ele>432.25</ele>
        <time>2021-10-20T12:44:36Z</time>
      </trkpt>
      <trkpt lat="45.32106" lon="4.72459">
        <ele>432.25</ele>
        <time>2021-10-20T12:44:54Z</time>
      </trkpt>
      <trkpt lat="45.32106" lon="4.72459">
        <ele>432.25</ele>
        <time>2021-10-20T12:45:27Z</time>
      </trkpt>
      <trkpt lat="45.32106" lon="4.72458">
        <ele>433.21</ele>
        <time>2021-10-20T12:45:47Z</time>
      </trkpt>
      <trkpt lat="45.32106" lon="4.72458">
        <ele>432.73</ele>
        <time>2021-10-20T12:46:20Z</time>
      </trkpt>
      <trkpt lat="45.32105" lon="4.72458">
        <ele>432.73</ele>
        <time>2021-10-20T12:46:56Z</time>
      </trkpt>
      <trkpt lat="45.32104" lon="4.72458">
        <ele>432.73</ele>
        <time>2021-10-20T12:46:57Z</time>
      </trkpt>
      <trkpt lat="45.32102" lon="4.7246">
        <ele>432.73</ele>
        <time>2021-10-20T12:47:00Z</time>
      </trkpt>
      <trkpt lat="45.321" lon="4.72462">
        <ele>432.73</ele>
        <time>2021-10-20T12:47:02Z</time>
      </trkpt>
      <trkpt lat="45.32099" lon="4.72463">
        <ele>432.73</ele>
        <time>2021-10-20T12:47:03Z</time>
      </trkpt>
      <trkpt lat="45.32079" lon="4.72481">
        <ele>433.21</ele>
        <time>2021-10-20T12:47:26Z</time>
      </trkpt>
      <trkpt lat="45.32061" lon="4.72498">
        <ele>433.21</ele>
        <time>2021-10-20T12:47:48Z</time>
      </trkpt>
      <trkpt lat="45.32042" lon="4.72514">
        <ele>432.25</ele>
        <time>2021-10-20T12:48:10Z</time>
      </trkpt>
      <trkpt lat="45.32024" lon="4.72527">
        <ele>430.81</ele>
        <time>2021-10-20T12:48:29Z</time>
      </trkpt>
      <trkpt lat="45.32003" lon="4.7254">
        <ele>428.4</ele>
        <time>2021-10-20T12:48:53Z</time>
      </trkpt>
      <trkpt lat="45.31997" lon="4.72543">
        <ele>426.48</ele>
        <time>2021-10-20T12:49:10Z</time>
      </trkpt>
      <trkpt lat="45.31997" lon="4.72543">
        <ele>426</ele>
        <time>2021-10-20T12:49:48Z</time>
      </trkpt>
      <trkpt lat="45.31993" lon="4.72544">
        <ele>426.48</ele>
        <time>2021-10-20T12:50:17Z</time>
      </trkpt>
      <trkpt lat="45.31988" lon="4.72547">
        <ele>426.48</ele>
        <time>2021-10-20T12:50:22Z</time>
      </trkpt>
      <trkpt lat="45.31976" lon="4.72555">
        <ele>425.04</ele>
        <time>2021-10-20T12:50:38Z</time>
      </trkpt>
      <trkpt lat="45.31966" lon="4.72561">
        <ele>423.6</ele>
        <time>2021-10-20T12:50:50Z</time>
      </trkpt>
      <trkpt lat="45.31949" lon="4.72572">
        <ele>423.12</ele>
        <time>2021-10-20T12:51:06Z</time>
      </trkpt>
      <trkpt lat="45.31936" lon="4.72581">
        <ele>421.68</ele>
        <time>2021-10-20T12:51:20Z</time>
      </trkpt>
      <trkpt lat="45.31918" lon="4.72593">
        <ele>420.23</ele>
        <time>2021-10-20T12:51:38Z</time>
      </trkpt>
      <trkpt lat="45.31895" lon="4.72607">
        <ele>420.71</ele>
        <time>2021-10-20T12:51:59Z</time>
      </trkpt>
      <trkpt lat="45.31894" lon="4.72608">
        <ele>420.23</ele>
        <time>2021-10-20T12:52:00Z</time>
      </trkpt>
      <trkpt lat="45.31872" lon="4.72634">
        <ele>419.27</ele>
        <time>2021-10-20T12:52:24Z</time>
      </trkpt>
      <trkpt lat="45.31862" lon="4.7265">
        <ele>420.23</ele>
        <time>2021-10-20T12:52:38Z</time>
      </trkpt>
      <trkpt lat="45.31862" lon="4.72652">
        <ele>420.23</ele>
        <time>2021-10-20T12:52:39Z</time>
      </trkpt>
      <trkpt lat="45.31862" lon="4.72653">
        <ele>420.23</ele>
        <time>2021-10-20T12:52:40Z</time>
      </trkpt>
      <trkpt lat="45.31861" lon="4.72655">
        <ele>420.23</ele>
        <time>2021-10-20T12:52:41Z</time>
      </trkpt>
      <trkpt lat="45.3186" lon="4.72656">
        <ele>420.23</ele>
        <time>2021-10-20T12:52:42Z</time>
      </trkpt>
      <trkpt lat="45.31859" lon="4.72657">
        <ele>420.23</ele>
        <time>2021-10-20T12:52:43Z</time>
      </trkpt>
      <trkpt lat="45.31859" lon="4.72658">
        <ele>420.23</ele>
        <time>2021-10-20T12:52:44Z</time>
      </trkpt>
      <trkpt lat="45.31858" lon="4.72659">
        <ele>420.23</ele>
        <time>2021-10-20T12:52:45Z</time>
      </trkpt>
      <trkpt lat="45.31849" lon="4.72671">
        <ele>420.71</ele>
        <time>2021-10-20T12:53:04Z</time>
      </trkpt>
      <trkpt lat="45.31837" lon="4.72692">
        <ele>421.68</ele>
        <time>2021-10-20T12:53:23Z</time>
      </trkpt>
      <trkpt lat="45.31823" lon="4.7271">
        <ele>422.64</ele>
        <time>2021-10-20T12:53:42Z</time>
      </trkpt>
      <trkpt lat="45.31819" lon="4.72716">
        <ele>422.16</ele>
        <time>2021-10-20T12:53:57Z</time>
      </trkpt>
      <trkpt lat="45.31817" lon="4.72719">
        <ele>422.64</ele>
        <time>2021-10-20T12:54:03Z</time>
      </trkpt>
      <trkpt lat="45.31816" lon="4.7272">
        <ele>422.64</ele>
        <time>2021-10-20T12:54:04Z</time>
      </trkpt>
      <trkpt lat="45.31815" lon="4.72721">
        <ele>422.64</ele>
        <time>2021-10-20T12:54:05Z</time>
      </trkpt>
      <trkpt lat="45.31798" lon="4.72747">
        <ele>424.08</ele>
        <time>2021-10-20T12:54:29Z</time>
      </trkpt>
      <trkpt lat="45.31783" lon="4.72771">
        <ele>423.6</ele>
        <time>2021-10-20T12:54:50Z</time>
      </trkpt>
      <trkpt lat="45.31771" lon="4.72791">
        <ele>423.6</ele>
        <time>2021-10-20T12:55:11Z</time>
      </trkpt>
      <trkpt lat="45.3177" lon="4.72793">
        <ele>424.08</ele>
        <time>2021-10-20T12:55:12Z</time>
      </trkpt>
      <trkpt lat="45.31769" lon="4.72793">
        <ele>424.08</ele>
        <time>2021-10-20T12:55:13Z</time>
      </trkpt>
      <trkpt lat="45.31768" lon="4.72794">
        <ele>424.56</ele>
        <time>2021-10-20T12:55:14Z</time>
      </trkpt>
      <trkpt lat="45.31767" lon="4.72795">
        <ele>425.04</ele>
        <time>2021-10-20T12:55:15Z</time>
      </trkpt>
      <trkpt lat="45.31766" lon="4.72796">
        <ele>425.04</ele>
        <time>2021-10-20T12:55:16Z</time>
      </trkpt>
      <trkpt lat="45.3176" lon="4.72804">
        <ele>425.04</ele>
        <time>2021-10-20T12:55:25Z</time>
      </trkpt>
      <trkpt lat="45.31759" lon="4.72806">
        <ele>424.56</ele>
        <time>2021-10-20T12:55:26Z</time>
      </trkpt>
      <trkpt lat="45.31759" lon="4.72807">
        <ele>424.56</ele>
        <time>2021-10-20T12:55:27Z</time>
      </trkpt>
      <trkpt lat="45.31759" lon="4.72809">
        <ele>424.08</ele>
        <time>2021-10-20T12:55:28Z</time>
      </trkpt>
      <trkpt lat="45.31759" lon="4.72811">
        <ele>424.08</ele>
        <time>2021-10-20T12:55:29Z</time>
      </trkpt>
      <trkpt lat="45.31759" lon="4.72813">
        <ele>423.6</ele>
        <time>2021-10-20T12:55:30Z</time>
      </trkpt>
      <trkpt lat="45.3176" lon="4.72839">
        <ele>421.68</ele>
        <time>2021-10-20T12:55:46Z</time>
      </trkpt>
      <trkpt lat="45.31754" lon="4.72856">
        <ele>420.23</ele>
        <time>2021-10-20T12:55:58Z</time>
      </trkpt>
      <trkpt lat="45.31753" lon="4.72856">
        <ele>420.23</ele>
        <time>2021-10-20T12:55:59Z</time>
      </trkpt>
      <trkpt lat="45.31752" lon="4.72855">
        <ele>420.23</ele>
        <time>2021-10-20T12:56:00Z</time>
      </trkpt>
      <trkpt lat="45.31751" lon="4.72855">
        <ele>420.23</ele>
        <time>2021-10-20T12:56:01Z</time>
      </trkpt>
      <trkpt lat="45.31749" lon="4.72854">
        <ele>419.75</ele>
        <time>2021-10-20T12:56:02Z</time>
      </trkpt>
      <trkpt lat="45.31748" lon="4.72853">
        <ele>419.75</ele>
        <time>2021-10-20T12:56:03Z</time>
      </trkpt>
      <trkpt lat="45.31747" lon="4.72853">
        <ele>419.75</ele>
        <time>2021-10-20T12:56:04Z</time>
      </trkpt>
      <trkpt lat="45.31746" lon="4.72853">
        <ele>419.27</ele>
        <time>2021-10-20T12:56:05Z</time>
      </trkpt>
      <trkpt lat="45.31745" lon="4.72853">
        <ele>419.27</ele>
        <time>2021-10-20T12:56:06Z</time>
      </trkpt>
      <trkpt lat="45.31743" lon="4.72853">
        <ele>419.27</ele>
        <time>2021-10-20T12:56:07Z</time>
      </trkpt>
      <trkpt lat="45.31742" lon="4.72852">
        <ele>419.27</ele>
        <time>2021-10-20T12:56:08Z</time>
      </trkpt>
      <trkpt lat="45.31726" lon="4.72846">
        <ele>418.31</ele>
        <time>2021-10-20T12:56:25Z</time>
      </trkpt>
      <trkpt lat="45.31725" lon="4.72846">
        <ele>418.31</ele>
        <time>2021-10-20T12:56:26Z</time>
      </trkpt>
      <trkpt lat="45.31724" lon="4.72845">
        <ele>418.79</ele>
        <time>2021-10-20T12:56:27Z</time>
      </trkpt>
      <trkpt lat="45.31723" lon="4.72844">
        <ele>418.79</ele>
        <time>2021-10-20T12:56:28Z</time>
      </trkpt>
      <trkpt lat="45.31714" lon="4.7283">
        <ele>419.75</ele>
        <time>2021-10-20T12:56:45Z</time>
      </trkpt>
      <trkpt lat="45.31712" lon="4.72821">
        <ele>420.23</ele>
        <time>2021-10-20T12:56:56Z</time>
      </trkpt>
      <trkpt lat="45.31711" lon="4.7282">
        <ele>420.23</ele>
        <time>2021-10-20T12:56:57Z</time>
      </trkpt>
      <trkpt lat="45.3171" lon="4.72819">
        <ele>420.23</ele>
        <time>2021-10-20T12:56:58Z</time>
      </trkpt>
      <trkpt lat="45.31709" lon="4.72819">
        <ele>420.23</ele>
        <time>2021-10-20T12:56:59Z</time>
      </trkpt>
      <trkpt lat="45.31708" lon="4.7282">
        <ele>420.23</ele>
        <time>2021-10-20T12:57:00Z</time>
      </trkpt>
      <trkpt lat="45.31688" lon="4.72823">
        <ele>422.64</ele>
        <time>2021-10-20T12:57:19Z</time>
      </trkpt>
      <trkpt lat="45.31684" lon="4.72826">
        <ele>420.71</ele>
        <time>2021-10-20T12:57:25Z</time>
      </trkpt>
      <trkpt lat="45.31684" lon="4.72828">
        <ele>420.23</ele>
        <time>2021-10-20T12:57:26Z</time>
      </trkpt>
      <trkpt lat="45.31682" lon="4.72831">
        <ele>419.75</ele>
        <time>2021-10-20T12:57:28Z</time>
      </trkpt>
      <trkpt lat="45.31678" lon="4.72841">
        <ele>418.31</ele>
        <time>2021-10-20T12:57:37Z</time>
      </trkpt>
      <trkpt lat="45.31677" lon="4.72842">
        <ele>418.31</ele>
        <time>2021-10-20T12:57:38Z</time>
      </trkpt>
      <trkpt lat="45.31676" lon="4.72842">
        <ele>418.31</ele>
        <time>2021-10-20T12:57:39Z</time>
      </trkpt>
      <trkpt lat="45.31675" lon="4.72842">
        <ele>418.31</ele>
        <time>2021-10-20T12:57:40Z</time>
      </trkpt>
      <trkpt lat="45.31661" lon="4.72836">
        <ele>416.39</ele>
        <time>2021-10-20T12:57:55Z</time>
      </trkpt>
      <trkpt lat="45.31655" lon="4.72835">
        <ele>416.39</ele>
        <time>2021-10-20T12:58:01Z</time>
      </trkpt>
      <trkpt lat="45.31654" lon="4.72836">
        <ele>416.39</ele>
        <time>2021-10-20T12:58:02Z</time>
      </trkpt>
      <trkpt lat="45.31653" lon="4.72837">
        <ele>416.39</ele>
        <time>2021-10-20T12:58:03Z</time>
      </trkpt>
      <trkpt lat="45.31652" lon="4.72838">
        <ele>415.91</ele>
        <time>2021-10-20T12:58:04Z</time>
      </trkpt>
      <trkpt lat="45.31651" lon="4.72838">
        <ele>415.91</ele>
        <time>2021-10-20T12:58:05Z</time>
      </trkpt>
      <trkpt lat="45.31649" lon="4.72838">
        <ele>415.91</ele>
        <time>2021-10-20T12:58:06Z</time>
      </trkpt>
      <trkpt lat="45.31648" lon="4.72838">
        <ele>415.91</ele>
        <time>2021-10-20T12:58:07Z</time>
      </trkpt>
      <trkpt lat="45.31644" lon="4.72838">
        <ele>415.91</ele>
        <time>2021-10-20T12:58:10Z</time>
      </trkpt>
      <trkpt lat="45.31637" lon="4.72836">
        <ele>415.43</ele>
        <time>2021-10-20T12:58:20Z</time>
      </trkpt>
      <trkpt lat="45.31636" lon="4.72836">
        <ele>415.43</ele>
        <time>2021-10-20T12:58:21Z</time>
      </trkpt>
      <trkpt lat="45.31635" lon="4.72836">
        <ele>415.43</ele>
        <time>2021-10-20T12:58:22Z</time>
      </trkpt>
      <trkpt lat="45.31621" lon="4.72835">
        <ele>416.39</ele>
        <time>2021-10-20T12:58:36Z</time>
      </trkpt>
      <trkpt lat="45.3162" lon="4.72835">
        <ele>416.39</ele>
        <time>2021-10-20T12:58:37Z</time>
      </trkpt>
      <trkpt lat="45.31619" lon="4.72835">
        <ele>416.39</ele>
        <time>2021-10-20T12:58:38Z</time>
      </trkpt>
      <trkpt lat="45.31618" lon="4.72835">
        <ele>415.91</ele>
        <time>2021-10-20T12:58:39Z</time>
      </trkpt>
      <trkpt lat="45.31617" lon="4.72835">
        <ele>415.91</ele>
        <time>2021-10-20T12:58:40Z</time>
      </trkpt>
      <trkpt lat="45.3161" lon="4.72835">
        <ele>415.43</ele>
        <time>2021-10-20T12:58:46Z</time>
      </trkpt>
      <trkpt lat="45.3161" lon="4.72836">
        <ele>414.95</ele>
        <time>2021-10-20T12:58:47Z</time>
      </trkpt>
      <trkpt lat="45.31609" lon="4.72837">
        <ele>414.95</ele>
        <time>2021-10-20T12:58:48Z</time>
      </trkpt>
      <trkpt lat="45.31608" lon="4.72838">
        <ele>414.95</ele>
        <time>2021-10-20T12:58:49Z</time>
      </trkpt>
      <trkpt lat="45.31607" lon="4.72839">
        <ele>414.95</ele>
        <time>2021-10-20T12:58:50Z</time>
      </trkpt>
      <trkpt lat="45.31606" lon="4.72839">
        <ele>414.47</ele>
        <time>2021-10-20T12:58:51Z</time>
      </trkpt>
      <trkpt lat="45.31604" lon="4.72839">
        <ele>414.47</ele>
        <time>2021-10-20T12:58:52Z</time>
      </trkpt>
      <trkpt lat="45.31582" lon="4.72852">
        <ele>412.06</ele>
        <time>2021-10-20T12:59:12Z</time>
      </trkpt>
      <trkpt lat="45.31571" lon="4.7285">
        <ele>412.06</ele>
        <time>2021-10-20T12:59:28Z</time>
      </trkpt>
      <trkpt lat="45.3157" lon="4.72851">
        <ele>408.7</ele>
        <time>2021-10-20T12:59:39Z</time>
      </trkpt>
      <trkpt lat="45.3157" lon="4.72851">
        <ele>412.54</ele>
        <time>2021-10-20T12:59:45Z</time>
      </trkpt>
      <trkpt lat="45.3157" lon="4.72851">
        <ele>413.5</ele>
        <time>2021-10-20T12:59:47Z</time>
      </trkpt>
      <trkpt lat="45.31571" lon="4.72851">
        <ele>413.02</ele>
        <time>2021-10-20T13:00:07Z</time>
      </trkpt>
      <trkpt lat="45.31571" lon="4.72851">
        <ele>413.02</ele>
        <time>2021-10-20T13:00:46Z</time>
      </trkpt>
    </trkseg>
  </trk>
</gpx>